<?xml version="1.0" encoding="UTF-8" standalone="no" ?>
<gpx xmlns="http://www.topografix.com/GPX/1/1" xmlns:xsi="http://www.w3.org/2001/XMLSchema-instance" xsi:schemaLocation="http://www.topografix.com/GPX/1/1 http://www.topografix.com/GPX/1/1/gpx.xsd" version="1.1" creator="VisuGPX - https://www.visugpx.com">
  <metadata>
    <name>Pic de Cagire</name>
    <desc><![CDATA[Départ : col de Menté. La montée directe au pic de l'Escalette, faite hors sentier, est très raide mais sans danger par beau temps, donc à éviter par mauvais temps et surtout par brouillard (barres rocheuses). La descente vers le col du Pas de l’Âne passe par des marches assez hautes ; à faire par temps sec. Très beau panorama.  ]]></desc>
  </metadata>
  <trk>
    <name><![CDATA[Cagire: 26 JUIN 2018 09:38]]></name>
    <trkseg>
      <trkpt lat="42.91911" lon="0.76184">
        <ele>1312.82</ele>
        <time>2018-06-26T07:38:47Z</time>
      </trkpt>
      <trkpt lat="42.91909" lon="0.76184">
        <ele>1313.3</ele>
        <time>2018-06-26T07:39:34Z</time>
      </trkpt>
      <trkpt lat="42.91911" lon="0.76177">
        <ele>1311.38</ele>
        <time>2018-06-26T07:39:52Z</time>
      </trkpt>
      <trkpt lat="42.91909" lon="0.76184">
        <ele>1352.71</ele>
        <time>2018-06-26T07:50:45Z</time>
      </trkpt>
      <trkpt lat="42.91916" lon="0.7618">
        <ele>1352.71</ele>
        <time>2018-06-26T07:50:59Z</time>
      </trkpt>
      <trkpt lat="42.91934" lon="0.76173">
        <ele>1352.23</ele>
        <time>2018-06-26T07:51:17Z</time>
      </trkpt>
      <trkpt lat="42.91938" lon="0.76169">
        <ele>1352.23</ele>
        <time>2018-06-26T07:51:24Z</time>
      </trkpt>
      <trkpt lat="42.91951" lon="0.76161">
        <ele>1353.19</ele>
        <time>2018-06-26T07:51:39Z</time>
      </trkpt>
      <trkpt lat="42.91967" lon="0.76153">
        <ele>1355.12</ele>
        <time>2018-06-26T07:51:55Z</time>
      </trkpt>
      <trkpt lat="42.91975" lon="0.76138">
        <ele>1356.56</ele>
        <time>2018-06-26T07:52:11Z</time>
      </trkpt>
      <trkpt lat="42.91971" lon="0.76131">
        <ele>1357.52</ele>
        <time>2018-06-26T07:52:23Z</time>
      </trkpt>
      <trkpt lat="42.91975" lon="0.76119">
        <ele>1358.96</ele>
        <time>2018-06-26T07:52:38Z</time>
      </trkpt>
      <trkpt lat="42.91983" lon="0.76117">
        <ele>1360.4</ele>
        <time>2018-06-26T07:52:53Z</time>
      </trkpt>
      <trkpt lat="42.91999" lon="0.76106">
        <ele>1363.29</ele>
        <time>2018-06-26T07:53:09Z</time>
      </trkpt>
      <trkpt lat="42.92008" lon="0.76091">
        <ele>1366.17</ele>
        <time>2018-06-26T07:53:27Z</time>
      </trkpt>
      <trkpt lat="42.92014" lon="0.76078">
        <ele>1368.57</ele>
        <time>2018-06-26T07:53:44Z</time>
      </trkpt>
      <trkpt lat="42.92022" lon="0.76066">
        <ele>1371.46</ele>
        <time>2018-06-26T07:54:01Z</time>
      </trkpt>
      <trkpt lat="42.92025" lon="0.76056">
        <ele>1373.86</ele>
        <time>2018-06-26T07:54:19Z</time>
      </trkpt>
      <trkpt lat="42.92031" lon="0.76046">
        <ele>1376.26</ele>
        <time>2018-06-26T07:54:36Z</time>
      </trkpt>
      <trkpt lat="42.92035" lon="0.76038">
        <ele>1378.67</ele>
        <time>2018-06-26T07:54:50Z</time>
      </trkpt>
      <trkpt lat="42.92046" lon="0.76034">
        <ele>1380.59</ele>
        <time>2018-06-26T07:55:04Z</time>
      </trkpt>
      <trkpt lat="42.92057" lon="0.76033">
        <ele>1383.47</ele>
        <time>2018-06-26T07:55:23Z</time>
      </trkpt>
      <trkpt lat="42.92067" lon="0.76027">
        <ele>1385.4</ele>
        <time>2018-06-26T07:55:39Z</time>
      </trkpt>
      <trkpt lat="42.92073" lon="0.76019">
        <ele>1387.32</ele>
        <time>2018-06-26T07:55:55Z</time>
      </trkpt>
      <trkpt lat="42.92071" lon="0.76015">
        <ele>1388.28</ele>
        <time>2018-06-26T07:56:11Z</time>
      </trkpt>
      <trkpt lat="42.92082" lon="0.76013">
        <ele>1390.68</ele>
        <time>2018-06-26T07:56:28Z</time>
      </trkpt>
      <trkpt lat="42.92093" lon="0.76011">
        <ele>1393.57</ele>
        <time>2018-06-26T07:56:45Z</time>
      </trkpt>
      <trkpt lat="42.92101" lon="0.76011">
        <ele>1394.05</ele>
        <time>2018-06-26T07:57:04Z</time>
      </trkpt>
      <trkpt lat="42.92108" lon="0.76007">
        <ele>1396.93</ele>
        <time>2018-06-26T07:57:18Z</time>
      </trkpt>
      <trkpt lat="42.9212" lon="0.75997">
        <ele>1399.82</ele>
        <time>2018-06-26T07:57:34Z</time>
      </trkpt>
      <trkpt lat="42.9213" lon="0.75989">
        <ele>1403.18</ele>
        <time>2018-06-26T07:57:52Z</time>
      </trkpt>
      <trkpt lat="42.9214" lon="0.75982">
        <ele>1406.07</ele>
        <time>2018-06-26T07:58:07Z</time>
      </trkpt>
      <trkpt lat="42.9215" lon="0.75981">
        <ele>1409.43</ele>
        <time>2018-06-26T07:58:24Z</time>
      </trkpt>
      <trkpt lat="42.92157" lon="0.7598">
        <ele>1412.79</ele>
        <time>2018-06-26T07:58:40Z</time>
      </trkpt>
      <trkpt lat="42.92173" lon="0.75981">
        <ele>1415.2</ele>
        <time>2018-06-26T07:58:56Z</time>
      </trkpt>
      <trkpt lat="42.92185" lon="0.75982">
        <ele>1418.56</ele>
        <time>2018-06-26T07:59:12Z</time>
      </trkpt>
      <trkpt lat="42.92194" lon="0.75993">
        <ele>1420.97</ele>
        <time>2018-06-26T07:59:29Z</time>
      </trkpt>
      <trkpt lat="42.92199" lon="0.75999">
        <ele>1421.45</ele>
        <time>2018-06-26T07:59:38Z</time>
      </trkpt>
      <trkpt lat="42.92203" lon="0.75999">
        <ele>1421.93</ele>
        <time>2018-06-26T07:59:51Z</time>
      </trkpt>
      <trkpt lat="42.92199" lon="0.7599">
        <ele>1421.45</ele>
        <time>2018-06-26T08:00:03Z</time>
      </trkpt>
      <trkpt lat="42.92189" lon="0.75982">
        <ele>1420.49</ele>
        <time>2018-06-26T08:00:18Z</time>
      </trkpt>
      <trkpt lat="42.92181" lon="0.75981">
        <ele>1419.04</ele>
        <time>2018-06-26T08:00:25Z</time>
      </trkpt>
      <trkpt lat="42.9217" lon="0.75975">
        <ele>1416.16</ele>
        <time>2018-06-26T08:00:40Z</time>
      </trkpt>
      <trkpt lat="42.92168" lon="0.75964">
        <ele>1417.12</ele>
        <time>2018-06-26T08:00:52Z</time>
      </trkpt>
      <trkpt lat="42.92173" lon="0.75955">
        <ele>1420.49</ele>
        <time>2018-06-26T08:01:06Z</time>
      </trkpt>
      <trkpt lat="42.92175" lon="0.75946">
        <ele>1423.85</ele>
        <time>2018-06-26T08:01:20Z</time>
      </trkpt>
      <trkpt lat="42.92178" lon="0.75938">
        <ele>1426.73</ele>
        <time>2018-06-26T08:01:34Z</time>
      </trkpt>
      <trkpt lat="42.92184" lon="0.75933">
        <ele>1430.1</ele>
        <time>2018-06-26T08:01:48Z</time>
      </trkpt>
      <trkpt lat="42.92191" lon="0.75925">
        <ele>1433.46</ele>
        <time>2018-06-26T08:02:04Z</time>
      </trkpt>
      <trkpt lat="42.92194" lon="0.75915">
        <ele>1436.35</ele>
        <time>2018-06-26T08:02:18Z</time>
      </trkpt>
      <trkpt lat="42.92202" lon="0.75908">
        <ele>1439.23</ele>
        <time>2018-06-26T08:02:34Z</time>
      </trkpt>
      <trkpt lat="42.92207" lon="0.759">
        <ele>1442.6</ele>
        <time>2018-06-26T08:02:53Z</time>
      </trkpt>
      <trkpt lat="42.92215" lon="0.75894">
        <ele>1445.48</ele>
        <time>2018-06-26T08:03:08Z</time>
      </trkpt>
      <trkpt lat="42.9222" lon="0.75894">
        <ele>1448.36</ele>
        <time>2018-06-26T08:03:24Z</time>
      </trkpt>
      <trkpt lat="42.92223" lon="0.75891">
        <ele>1451.25</ele>
        <time>2018-06-26T08:03:40Z</time>
      </trkpt>
      <trkpt lat="42.92231" lon="0.75885">
        <ele>1454.61</ele>
        <time>2018-06-26T08:03:56Z</time>
      </trkpt>
      <trkpt lat="42.92228" lon="0.75866">
        <ele>1457.5</ele>
        <time>2018-06-26T08:04:15Z</time>
      </trkpt>
      <trkpt lat="42.9223" lon="0.75866">
        <ele>1459.42</ele>
        <time>2018-06-26T08:04:35Z</time>
      </trkpt>
      <trkpt lat="42.92238" lon="0.75874">
        <ele>1462.78</ele>
        <time>2018-06-26T08:04:54Z</time>
      </trkpt>
      <trkpt lat="42.92245" lon="0.75873">
        <ele>1465.67</ele>
        <time>2018-06-26T08:05:08Z</time>
      </trkpt>
      <trkpt lat="42.9225" lon="0.75858">
        <ele>1468.55</ele>
        <time>2018-06-26T08:05:24Z</time>
      </trkpt>
      <trkpt lat="42.9225" lon="0.75848">
        <ele>1471.92</ele>
        <time>2018-06-26T08:05:41Z</time>
      </trkpt>
      <trkpt lat="42.92257" lon="0.75843">
        <ele>1474.8</ele>
        <time>2018-06-26T08:05:56Z</time>
      </trkpt>
      <trkpt lat="42.92263" lon="0.7584">
        <ele>1478.16</ele>
        <time>2018-06-26T08:06:16Z</time>
      </trkpt>
      <trkpt lat="42.9227" lon="0.75852">
        <ele>1481.05</ele>
        <time>2018-06-26T08:06:34Z</time>
      </trkpt>
      <trkpt lat="42.92278" lon="0.75845">
        <ele>1484.41</ele>
        <time>2018-06-26T08:06:51Z</time>
      </trkpt>
      <trkpt lat="42.92282" lon="0.7584">
        <ele>1486.82</ele>
        <time>2018-06-26T08:07:09Z</time>
      </trkpt>
      <trkpt lat="42.92282" lon="0.75826">
        <ele>1490.18</ele>
        <time>2018-06-26T08:07:25Z</time>
      </trkpt>
      <trkpt lat="42.92289" lon="0.75821">
        <ele>1493.06</ele>
        <time>2018-06-26T08:07:43Z</time>
      </trkpt>
      <trkpt lat="42.92293" lon="0.75823">
        <ele>1495.95</ele>
        <time>2018-06-26T08:08:02Z</time>
      </trkpt>
      <trkpt lat="42.92294" lon="0.75821">
        <ele>1499.79</ele>
        <time>2018-06-26T08:08:19Z</time>
      </trkpt>
      <trkpt lat="42.92293" lon="0.7581">
        <ele>1502.2</ele>
        <time>2018-06-26T08:08:35Z</time>
      </trkpt>
      <trkpt lat="42.9229" lon="0.75795">
        <ele>1504.12</ele>
        <time>2018-06-26T08:08:51Z</time>
      </trkpt>
      <trkpt lat="42.9229" lon="0.75781">
        <ele>1505.56</ele>
        <time>2018-06-26T08:09:08Z</time>
      </trkpt>
      <trkpt lat="42.92289" lon="0.7577">
        <ele>1507.48</ele>
        <time>2018-06-26T08:09:23Z</time>
      </trkpt>
      <trkpt lat="42.92286" lon="0.75758">
        <ele>1507.97</ele>
        <time>2018-06-26T08:09:38Z</time>
      </trkpt>
      <trkpt lat="42.92283" lon="0.75741">
        <ele>1509.89</ele>
        <time>2018-06-26T08:09:55Z</time>
      </trkpt>
      <trkpt lat="42.92279" lon="0.75724">
        <ele>1512.77</ele>
        <time>2018-06-26T08:10:12Z</time>
      </trkpt>
      <trkpt lat="42.92279" lon="0.7571">
        <ele>1515.18</ele>
        <time>2018-06-26T08:10:28Z</time>
      </trkpt>
      <trkpt lat="42.92276" lon="0.75695">
        <ele>1518.06</ele>
        <time>2018-06-26T08:10:43Z</time>
      </trkpt>
      <trkpt lat="42.92281" lon="0.75685">
        <ele>1520.94</ele>
        <time>2018-06-26T08:10:58Z</time>
      </trkpt>
      <trkpt lat="42.92283" lon="0.75671">
        <ele>1523.35</ele>
        <time>2018-06-26T08:11:13Z</time>
      </trkpt>
      <trkpt lat="42.92285" lon="0.75655">
        <ele>1526.23</ele>
        <time>2018-06-26T08:11:29Z</time>
      </trkpt>
      <trkpt lat="42.92286" lon="0.75646">
        <ele>1527.67</ele>
        <time>2018-06-26T08:11:43Z</time>
      </trkpt>
      <trkpt lat="42.92291" lon="0.75635">
        <ele>1529.11</ele>
        <time>2018-06-26T08:11:59Z</time>
      </trkpt>
      <trkpt lat="42.92294" lon="0.75621">
        <ele>1530.08</ele>
        <time>2018-06-26T08:12:13Z</time>
      </trkpt>
      <trkpt lat="42.92295" lon="0.75608">
        <ele>1532.48</ele>
        <time>2018-06-26T08:12:28Z</time>
      </trkpt>
      <trkpt lat="42.92296" lon="0.75607">
        <ele>1532.96</ele>
        <time>2018-06-26T08:12:40Z</time>
      </trkpt>
      <trkpt lat="42.92297" lon="0.7561">
        <ele>1532.96</ele>
        <time>2018-06-26T08:13:03Z</time>
      </trkpt>
      <trkpt lat="42.92296" lon="0.75611">
        <ele>1532.96</ele>
        <time>2018-06-26T08:13:24Z</time>
      </trkpt>
      <trkpt lat="42.92295" lon="0.75611">
        <ele>1532.96</ele>
        <time>2018-06-26T08:13:43Z</time>
      </trkpt>
      <trkpt lat="42.92296" lon="0.75611">
        <ele>1532.96</ele>
        <time>2018-06-26T08:14:01Z</time>
      </trkpt>
      <trkpt lat="42.92291" lon="0.75612">
        <ele>1533.44</ele>
        <time>2018-06-26T08:14:26Z</time>
      </trkpt>
      <trkpt lat="42.9229" lon="0.7561">
        <ele>1532.96</ele>
        <time>2018-06-26T08:14:41Z</time>
      </trkpt>
      <trkpt lat="42.92291" lon="0.75606">
        <ele>1533.44</ele>
        <time>2018-06-26T08:15:08Z</time>
      </trkpt>
      <trkpt lat="42.92291" lon="0.75606">
        <ele>1533.44</ele>
        <time>2018-06-26T08:15:32Z</time>
      </trkpt>
      <trkpt lat="42.92291" lon="0.75611">
        <ele>1533.92</ele>
        <time>2018-06-26T08:15:45Z</time>
      </trkpt>
      <trkpt lat="42.92291" lon="0.75614">
        <ele>1533.92</ele>
        <time>2018-06-26T08:15:58Z</time>
      </trkpt>
      <trkpt lat="42.92295" lon="0.75615">
        <ele>1534.4</ele>
        <time>2018-06-26T08:16:05Z</time>
      </trkpt>
      <trkpt lat="42.92301" lon="0.75619">
        <ele>1535.36</ele>
        <time>2018-06-26T08:16:15Z</time>
      </trkpt>
      <trkpt lat="42.92305" lon="0.75622">
        <ele>1536.32</ele>
        <time>2018-06-26T08:16:21Z</time>
      </trkpt>
      <trkpt lat="42.92307" lon="0.75626">
        <ele>1536.8</ele>
        <time>2018-06-26T08:16:24Z</time>
      </trkpt>
      <trkpt lat="42.9231" lon="0.7563">
        <ele>1537.77</ele>
        <time>2018-06-26T08:16:28Z</time>
      </trkpt>
      <trkpt lat="42.92316" lon="0.75643">
        <ele>1539.21</ele>
        <time>2018-06-26T08:16:43Z</time>
      </trkpt>
      <trkpt lat="42.92319" lon="0.75645">
        <ele>1539.69</ele>
        <time>2018-06-26T08:16:47Z</time>
      </trkpt>
      <trkpt lat="42.92324" lon="0.75659">
        <ele>1540.65</ele>
        <time>2018-06-26T08:16:58Z</time>
      </trkpt>
      <trkpt lat="42.92329" lon="0.75676">
        <ele>1540.17</ele>
        <time>2018-06-26T08:17:12Z</time>
      </trkpt>
      <trkpt lat="42.9233" lon="0.75678">
        <ele>1542.57</ele>
        <time>2018-06-26T08:17:14Z</time>
      </trkpt>
      <trkpt lat="42.9233" lon="0.7568">
        <ele>1540.17</ele>
        <time>2018-06-26T08:17:15Z</time>
      </trkpt>
      <trkpt lat="42.92332" lon="0.75686">
        <ele>1540.65</ele>
        <time>2018-06-26T08:17:20Z</time>
      </trkpt>
      <trkpt lat="42.92333" lon="0.75687">
        <ele>1542.09</ele>
        <time>2018-06-26T08:17:21Z</time>
      </trkpt>
      <trkpt lat="42.92334" lon="0.75689">
        <ele>1542.57</ele>
        <time>2018-06-26T08:17:23Z</time>
      </trkpt>
      <trkpt lat="42.92341" lon="0.75697">
        <ele>1542.57</ele>
        <time>2018-06-26T08:17:31Z</time>
      </trkpt>
      <trkpt lat="42.9234" lon="0.75691">
        <ele>1544.5</ele>
        <time>2018-06-26T08:17:42Z</time>
      </trkpt>
      <trkpt lat="42.9234" lon="0.75683">
        <ele>1544.01</ele>
        <time>2018-06-26T08:17:45Z</time>
      </trkpt>
      <trkpt lat="42.92342" lon="0.75664">
        <ele>1545.46</ele>
        <time>2018-06-26T08:17:59Z</time>
      </trkpt>
      <trkpt lat="42.92341" lon="0.75661">
        <ele>1545.94</ele>
        <time>2018-06-26T08:18:01Z</time>
      </trkpt>
      <trkpt lat="42.92338" lon="0.75638">
        <ele>1547.38</ele>
        <time>2018-06-26T08:18:17Z</time>
      </trkpt>
      <trkpt lat="42.92334" lon="0.75622">
        <ele>1548.34</ele>
        <time>2018-06-26T08:18:29Z</time>
      </trkpt>
      <trkpt lat="42.92335" lon="0.75621">
        <ele>1549.3</ele>
        <time>2018-06-26T08:18:38Z</time>
      </trkpt>
      <trkpt lat="42.92342" lon="0.75641">
        <ele>1548.82</ele>
        <time>2018-06-26T08:18:55Z</time>
      </trkpt>
      <trkpt lat="42.92346" lon="0.75636">
        <ele>1551.71</ele>
        <time>2018-06-26T08:19:08Z</time>
      </trkpt>
      <trkpt lat="42.92349" lon="0.75626">
        <ele>1555.07</ele>
        <time>2018-06-26T08:19:21Z</time>
      </trkpt>
      <trkpt lat="42.92349" lon="0.75621">
        <ele>1555.55</ele>
        <time>2018-06-26T08:19:26Z</time>
      </trkpt>
      <trkpt lat="42.92349" lon="0.75611">
        <ele>1557.47</ele>
        <time>2018-06-26T08:19:39Z</time>
      </trkpt>
      <trkpt lat="42.92353" lon="0.75603">
        <ele>1560.36</ele>
        <time>2018-06-26T08:19:53Z</time>
      </trkpt>
      <trkpt lat="42.92358" lon="0.75593">
        <ele>1563.72</ele>
        <time>2018-06-26T08:20:09Z</time>
      </trkpt>
      <trkpt lat="42.9236" lon="0.75585">
        <ele>1566.12</ele>
        <time>2018-06-26T08:20:27Z</time>
      </trkpt>
      <trkpt lat="42.92362" lon="0.75577">
        <ele>1567.09</ele>
        <time>2018-06-26T08:20:43Z</time>
      </trkpt>
      <trkpt lat="42.92364" lon="0.75566">
        <ele>1569.97</ele>
        <time>2018-06-26T08:20:59Z</time>
      </trkpt>
      <trkpt lat="42.92368" lon="0.75562">
        <ele>1572.85</ele>
        <time>2018-06-26T08:21:12Z</time>
      </trkpt>
      <trkpt lat="42.92365" lon="0.75551">
        <ele>1574.3</ele>
        <time>2018-06-26T08:21:28Z</time>
      </trkpt>
      <trkpt lat="42.92359" lon="0.75539">
        <ele>1575.26</ele>
        <time>2018-06-26T08:21:44Z</time>
      </trkpt>
      <trkpt lat="42.92355" lon="0.75529">
        <ele>1575.74</ele>
        <time>2018-06-26T08:21:58Z</time>
      </trkpt>
      <trkpt lat="42.92355" lon="0.75523">
        <ele>1578.14</ele>
        <time>2018-06-26T08:22:12Z</time>
      </trkpt>
      <trkpt lat="42.92357" lon="0.75516">
        <ele>1580.54</ele>
        <time>2018-06-26T08:22:26Z</time>
      </trkpt>
      <trkpt lat="42.92358" lon="0.75517">
        <ele>1581.03</ele>
        <time>2018-06-26T08:22:49Z</time>
      </trkpt>
      <trkpt lat="42.92361" lon="0.75511">
        <ele>1583.43</ele>
        <time>2018-06-26T08:23:05Z</time>
      </trkpt>
      <trkpt lat="42.92361" lon="0.75505">
        <ele>1585.35</ele>
        <time>2018-06-26T08:23:17Z</time>
      </trkpt>
      <trkpt lat="42.92362" lon="0.75498">
        <ele>1587.27</ele>
        <time>2018-06-26T08:23:29Z</time>
      </trkpt>
      <trkpt lat="42.92369" lon="0.75498">
        <ele>1590.16</ele>
        <time>2018-06-26T08:23:42Z</time>
      </trkpt>
      <trkpt lat="42.9237" lon="0.75491">
        <ele>1593.04</ele>
        <time>2018-06-26T08:23:57Z</time>
      </trkpt>
      <trkpt lat="42.9237" lon="0.75489">
        <ele>1593.52</ele>
        <time>2018-06-26T08:24:12Z</time>
      </trkpt>
      <trkpt lat="42.92376" lon="0.75489">
        <ele>1595.93</ele>
        <time>2018-06-26T08:24:24Z</time>
      </trkpt>
      <trkpt lat="42.92379" lon="0.75484">
        <ele>1598.33</ele>
        <time>2018-06-26T08:24:41Z</time>
      </trkpt>
      <trkpt lat="42.92384" lon="0.75483">
        <ele>1601.21</ele>
        <time>2018-06-26T08:24:56Z</time>
      </trkpt>
      <trkpt lat="42.92388" lon="0.75481">
        <ele>1604.1</ele>
        <time>2018-06-26T08:25:12Z</time>
      </trkpt>
      <trkpt lat="42.9239" lon="0.7548">
        <ele>1605.54</ele>
        <time>2018-06-26T08:25:27Z</time>
      </trkpt>
      <trkpt lat="42.92393" lon="0.75478">
        <ele>1606.98</ele>
        <time>2018-06-26T08:25:41Z</time>
      </trkpt>
      <trkpt lat="42.92396" lon="0.75474">
        <ele>1609.86</ele>
        <time>2018-06-26T08:25:55Z</time>
      </trkpt>
      <trkpt lat="42.92401" lon="0.7547">
        <ele>1612.27</ele>
        <time>2018-06-26T08:26:09Z</time>
      </trkpt>
      <trkpt lat="42.92402" lon="0.75471">
        <ele>1612.27</ele>
        <time>2018-06-26T08:26:24Z</time>
      </trkpt>
      <trkpt lat="42.92402" lon="0.7547">
        <ele>1613.71</ele>
        <time>2018-06-26T08:26:27Z</time>
      </trkpt>
      <trkpt lat="42.92402" lon="0.75469">
        <ele>1612.27</ele>
        <time>2018-06-26T08:26:29Z</time>
      </trkpt>
      <trkpt lat="42.92401" lon="0.7547">
        <ele>1613.23</ele>
        <time>2018-06-26T08:26:34Z</time>
      </trkpt>
      <trkpt lat="42.92401" lon="0.75469">
        <ele>1613.23</ele>
        <time>2018-06-26T08:26:52Z</time>
      </trkpt>
      <trkpt lat="42.92403" lon="0.75466">
        <ele>1614.19</ele>
        <time>2018-06-26T08:27:09Z</time>
      </trkpt>
      <trkpt lat="42.92409" lon="0.75464">
        <ele>1617.56</ele>
        <time>2018-06-26T08:27:21Z</time>
      </trkpt>
      <trkpt lat="42.92415" lon="0.75462">
        <ele>1620.44</ele>
        <time>2018-06-26T08:27:34Z</time>
      </trkpt>
      <trkpt lat="42.92421" lon="0.75461">
        <ele>1623.32</ele>
        <time>2018-06-26T08:27:49Z</time>
      </trkpt>
      <trkpt lat="42.92426" lon="0.75461">
        <ele>1625.25</ele>
        <time>2018-06-26T08:28:03Z</time>
      </trkpt>
      <trkpt lat="42.92429" lon="0.75462">
        <ele>1627.17</ele>
        <time>2018-06-26T08:28:16Z</time>
      </trkpt>
      <trkpt lat="42.92433" lon="0.75465">
        <ele>1628.61</ele>
        <time>2018-06-26T08:28:31Z</time>
      </trkpt>
      <trkpt lat="42.92439" lon="0.75464">
        <ele>1631.49</ele>
        <time>2018-06-26T08:28:46Z</time>
      </trkpt>
      <trkpt lat="42.92443" lon="0.75463">
        <ele>1634.38</ele>
        <time>2018-06-26T08:29:01Z</time>
      </trkpt>
      <trkpt lat="42.92445" lon="0.75458">
        <ele>1637.26</ele>
        <time>2018-06-26T08:29:16Z</time>
      </trkpt>
      <trkpt lat="42.92449" lon="0.75456">
        <ele>1638.7</ele>
        <time>2018-06-26T08:29:29Z</time>
      </trkpt>
      <trkpt lat="42.92452" lon="0.75455">
        <ele>1640.63</ele>
        <time>2018-06-26T08:29:42Z</time>
      </trkpt>
      <trkpt lat="42.92458" lon="0.75455">
        <ele>1643.03</ele>
        <time>2018-06-26T08:29:56Z</time>
      </trkpt>
      <trkpt lat="42.92461" lon="0.75454">
        <ele>1645.43</ele>
        <time>2018-06-26T08:30:11Z</time>
      </trkpt>
      <trkpt lat="42.92463" lon="0.75452">
        <ele>1646.88</ele>
        <time>2018-06-26T08:30:23Z</time>
      </trkpt>
      <trkpt lat="42.92465" lon="0.75449">
        <ele>1648.8</ele>
        <time>2018-06-26T08:30:36Z</time>
      </trkpt>
      <trkpt lat="42.9247" lon="0.75449">
        <ele>1651.2</ele>
        <time>2018-06-26T08:30:51Z</time>
      </trkpt>
      <trkpt lat="42.92472" lon="0.75443">
        <ele>1654.09</ele>
        <time>2018-06-26T08:31:08Z</time>
      </trkpt>
      <trkpt lat="42.92477" lon="0.7544">
        <ele>1657.45</ele>
        <time>2018-06-26T08:31:22Z</time>
      </trkpt>
      <trkpt lat="42.92482" lon="0.75444">
        <ele>1659.37</ele>
        <time>2018-06-26T08:31:37Z</time>
      </trkpt>
      <trkpt lat="42.92483" lon="0.75438">
        <ele>1661.3</ele>
        <time>2018-06-26T08:31:50Z</time>
      </trkpt>
      <trkpt lat="42.92486" lon="0.75433">
        <ele>1663.7</ele>
        <time>2018-06-26T08:32:04Z</time>
      </trkpt>
      <trkpt lat="42.92491" lon="0.75435">
        <ele>1665.62</ele>
        <time>2018-06-26T08:32:16Z</time>
      </trkpt>
      <trkpt lat="42.92493" lon="0.75441">
        <ele>1666.58</ele>
        <time>2018-06-26T08:32:30Z</time>
      </trkpt>
      <trkpt lat="42.92498" lon="0.75446">
        <ele>1669.47</ele>
        <time>2018-06-26T08:32:48Z</time>
      </trkpt>
      <trkpt lat="42.92504" lon="0.75455">
        <ele>1672.35</ele>
        <time>2018-06-26T08:33:04Z</time>
      </trkpt>
      <trkpt lat="42.92508" lon="0.75457">
        <ele>1674.75</ele>
        <time>2018-06-26T08:33:18Z</time>
      </trkpt>
      <trkpt lat="42.92508" lon="0.75447">
        <ele>1676.2</ele>
        <time>2018-06-26T08:33:32Z</time>
      </trkpt>
      <trkpt lat="42.92513" lon="0.7545">
        <ele>1678.6</ele>
        <time>2018-06-26T08:33:45Z</time>
      </trkpt>
      <trkpt lat="42.92516" lon="0.75445">
        <ele>1681</ele>
        <time>2018-06-26T08:33:58Z</time>
      </trkpt>
      <trkpt lat="42.92519" lon="0.75445">
        <ele>1682.93</ele>
        <time>2018-06-26T08:34:11Z</time>
      </trkpt>
      <trkpt lat="42.9252" lon="0.75441">
        <ele>1684.37</ele>
        <time>2018-06-26T08:34:21Z</time>
      </trkpt>
      <trkpt lat="42.92521" lon="0.75439">
        <ele>1684.85</ele>
        <time>2018-06-26T08:34:25Z</time>
      </trkpt>
      <trkpt lat="42.92523" lon="0.75434">
        <ele>1686.77</ele>
        <time>2018-06-26T08:34:40Z</time>
      </trkpt>
      <trkpt lat="42.9253" lon="0.75438">
        <ele>1689.65</ele>
        <time>2018-06-26T08:34:56Z</time>
      </trkpt>
      <trkpt lat="42.92535" lon="0.75442">
        <ele>1692.06</ele>
        <time>2018-06-26T08:35:09Z</time>
      </trkpt>
      <trkpt lat="42.92541" lon="0.75444">
        <ele>1694.94</ele>
        <time>2018-06-26T08:35:24Z</time>
      </trkpt>
      <trkpt lat="42.92545" lon="0.75444">
        <ele>1696.86</ele>
        <time>2018-06-26T08:35:41Z</time>
      </trkpt>
      <trkpt lat="42.92548" lon="0.75445">
        <ele>1698.79</ele>
        <time>2018-06-26T08:35:53Z</time>
      </trkpt>
      <trkpt lat="42.92552" lon="0.75443">
        <ele>1700.71</ele>
        <time>2018-06-26T08:36:06Z</time>
      </trkpt>
      <trkpt lat="42.92551" lon="0.75443">
        <ele>1702.15</ele>
        <time>2018-06-26T08:36:16Z</time>
      </trkpt>
      <trkpt lat="42.92557" lon="0.75443">
        <ele>1703.59</ele>
        <time>2018-06-26T08:36:30Z</time>
      </trkpt>
      <trkpt lat="42.92558" lon="0.75431">
        <ele>1706.48</ele>
        <time>2018-06-26T08:36:44Z</time>
      </trkpt>
      <trkpt lat="42.92563" lon="0.75426">
        <ele>1708.88</ele>
        <time>2018-06-26T08:36:59Z</time>
      </trkpt>
      <trkpt lat="42.92568" lon="0.75431">
        <ele>1710.32</ele>
        <time>2018-06-26T08:37:11Z</time>
      </trkpt>
      <trkpt lat="42.92573" lon="0.75435">
        <ele>1710.8</ele>
        <time>2018-06-26T08:37:24Z</time>
      </trkpt>
      <trkpt lat="42.92576" lon="0.75428">
        <ele>1713.21</ele>
        <time>2018-06-26T08:37:38Z</time>
      </trkpt>
      <trkpt lat="42.92577" lon="0.75418">
        <ele>1716.09</ele>
        <time>2018-06-26T08:37:53Z</time>
      </trkpt>
      <trkpt lat="42.92583" lon="0.75415">
        <ele>1718.97</ele>
        <time>2018-06-26T08:38:08Z</time>
      </trkpt>
      <trkpt lat="42.92586" lon="0.75413">
        <ele>1720.42</ele>
        <time>2018-06-26T08:38:22Z</time>
      </trkpt>
      <trkpt lat="42.92587" lon="0.7541">
        <ele>1721.86</ele>
        <time>2018-06-26T08:38:38Z</time>
      </trkpt>
      <trkpt lat="42.92587" lon="0.75402">
        <ele>1723.78</ele>
        <time>2018-06-26T08:38:52Z</time>
      </trkpt>
      <trkpt lat="42.92584" lon="0.75391">
        <ele>1726.18</ele>
        <time>2018-06-26T08:39:07Z</time>
      </trkpt>
      <trkpt lat="42.92585" lon="0.75379">
        <ele>1728.11</ele>
        <time>2018-06-26T08:39:21Z</time>
      </trkpt>
      <trkpt lat="42.92587" lon="0.75369">
        <ele>1730.51</ele>
        <time>2018-06-26T08:39:36Z</time>
      </trkpt>
      <trkpt lat="42.92587" lon="0.75363">
        <ele>1732.43</ele>
        <time>2018-06-26T08:39:49Z</time>
      </trkpt>
      <trkpt lat="42.92588" lon="0.75364">
        <ele>1732.43</ele>
        <time>2018-06-26T08:40:06Z</time>
      </trkpt>
      <trkpt lat="42.92591" lon="0.75357">
        <ele>1735.32</ele>
        <time>2018-06-26T08:40:19Z</time>
      </trkpt>
      <trkpt lat="42.92595" lon="0.75351">
        <ele>1738.68</ele>
        <time>2018-06-26T08:40:33Z</time>
      </trkpt>
      <trkpt lat="42.92597" lon="0.75343">
        <ele>1741.08</ele>
        <time>2018-06-26T08:40:51Z</time>
      </trkpt>
      <trkpt lat="42.92599" lon="0.75338">
        <ele>1742.53</ele>
        <time>2018-06-26T08:41:05Z</time>
      </trkpt>
      <trkpt lat="42.926" lon="0.75333">
        <ele>1744.93</ele>
        <time>2018-06-26T08:41:16Z</time>
      </trkpt>
      <trkpt lat="42.926" lon="0.75326">
        <ele>1747.33</ele>
        <time>2018-06-26T08:41:30Z</time>
      </trkpt>
      <trkpt lat="42.92602" lon="0.75318">
        <ele>1749.26</ele>
        <time>2018-06-26T08:41:45Z</time>
      </trkpt>
      <trkpt lat="42.92605" lon="0.75313">
        <ele>1751.18</ele>
        <time>2018-06-26T08:42:00Z</time>
      </trkpt>
      <trkpt lat="42.92606" lon="0.7531">
        <ele>1753.58</ele>
        <time>2018-06-26T08:42:15Z</time>
      </trkpt>
      <trkpt lat="42.92609" lon="0.75304">
        <ele>1756.47</ele>
        <time>2018-06-26T08:42:32Z</time>
      </trkpt>
      <trkpt lat="42.9261" lon="0.75302">
        <ele>1757.91</ele>
        <time>2018-06-26T08:42:54Z</time>
      </trkpt>
      <trkpt lat="42.92615" lon="0.75303">
        <ele>1759.83</ele>
        <time>2018-06-26T08:43:07Z</time>
      </trkpt>
      <trkpt lat="42.92618" lon="0.75302">
        <ele>1761.75</ele>
        <time>2018-06-26T08:43:19Z</time>
      </trkpt>
      <trkpt lat="42.92622" lon="0.753">
        <ele>1764.16</ele>
        <time>2018-06-26T08:43:32Z</time>
      </trkpt>
      <trkpt lat="42.92627" lon="0.75299">
        <ele>1765.6</ele>
        <time>2018-06-26T08:43:46Z</time>
      </trkpt>
      <trkpt lat="42.9263" lon="0.75299">
        <ele>1767.52</ele>
        <time>2018-06-26T08:43:58Z</time>
      </trkpt>
      <trkpt lat="42.92634" lon="0.75298">
        <ele>1768.96</ele>
        <time>2018-06-26T08:44:14Z</time>
      </trkpt>
      <trkpt lat="42.92638" lon="0.75297">
        <ele>1770.89</ele>
        <time>2018-06-26T08:44:26Z</time>
      </trkpt>
      <trkpt lat="42.92641" lon="0.75296">
        <ele>1772.81</ele>
        <time>2018-06-26T08:44:39Z</time>
      </trkpt>
      <trkpt lat="42.92649" lon="0.75298">
        <ele>1774.73</ele>
        <time>2018-06-26T08:44:52Z</time>
      </trkpt>
      <trkpt lat="42.92649" lon="0.75297">
        <ele>1775.69</ele>
        <time>2018-06-26T08:45:06Z</time>
      </trkpt>
      <trkpt lat="42.92652" lon="0.75292">
        <ele>1776.65</ele>
        <time>2018-06-26T08:45:22Z</time>
      </trkpt>
      <trkpt lat="42.92653" lon="0.75286">
        <ele>1778.58</ele>
        <time>2018-06-26T08:45:37Z</time>
      </trkpt>
      <trkpt lat="42.92651" lon="0.75278">
        <ele>1781.46</ele>
        <time>2018-06-26T08:45:51Z</time>
      </trkpt>
      <trkpt lat="42.9265" lon="0.75271">
        <ele>1784.34</ele>
        <time>2018-06-26T08:46:06Z</time>
      </trkpt>
      <trkpt lat="42.92648" lon="0.75263">
        <ele>1787.23</ele>
        <time>2018-06-26T08:46:23Z</time>
      </trkpt>
      <trkpt lat="42.92649" lon="0.75258">
        <ele>1788.67</ele>
        <time>2018-06-26T08:46:36Z</time>
      </trkpt>
      <trkpt lat="42.92651" lon="0.75255">
        <ele>1790.11</ele>
        <time>2018-06-26T08:46:54Z</time>
      </trkpt>
      <trkpt lat="42.92652" lon="0.75249">
        <ele>1793</ele>
        <time>2018-06-26T08:47:09Z</time>
      </trkpt>
      <trkpt lat="42.92655" lon="0.75246">
        <ele>1795.4</ele>
        <time>2018-06-26T08:47:25Z</time>
      </trkpt>
      <trkpt lat="42.92658" lon="0.75239">
        <ele>1798.28</ele>
        <time>2018-06-26T08:47:40Z</time>
      </trkpt>
      <trkpt lat="42.92658" lon="0.75232">
        <ele>1799.73</ele>
        <time>2018-06-26T08:47:53Z</time>
      </trkpt>
      <trkpt lat="42.92658" lon="0.7523">
        <ele>1800.21</ele>
        <time>2018-06-26T08:48:06Z</time>
      </trkpt>
      <trkpt lat="42.9266" lon="0.75222">
        <ele>1802.13</ele>
        <time>2018-06-26T08:48:19Z</time>
      </trkpt>
      <trkpt lat="42.92662" lon="0.75214">
        <ele>1804.53</ele>
        <time>2018-06-26T08:48:33Z</time>
      </trkpt>
      <trkpt lat="42.92663" lon="0.75214">
        <ele>1805.01</ele>
        <time>2018-06-26T08:48:47Z</time>
      </trkpt>
      <trkpt lat="42.92663" lon="0.75214">
        <ele>1805.01</ele>
        <time>2018-06-26T08:48:53Z</time>
      </trkpt>
      <trkpt lat="42.92664" lon="0.75213">
        <ele>1805.49</ele>
        <time>2018-06-26T08:49:19Z</time>
      </trkpt>
      <trkpt lat="42.92668" lon="0.75214">
        <ele>1806.94</ele>
        <time>2018-06-26T08:49:34Z</time>
      </trkpt>
      <trkpt lat="42.9267" lon="0.75214">
        <ele>1807.9</ele>
        <time>2018-06-26T08:49:46Z</time>
      </trkpt>
      <trkpt lat="42.92674" lon="0.75216">
        <ele>1808.38</ele>
        <time>2018-06-26T08:49:59Z</time>
      </trkpt>
      <trkpt lat="42.92679" lon="0.75223">
        <ele>1810.78</ele>
        <time>2018-06-26T08:50:12Z</time>
      </trkpt>
      <trkpt lat="42.9268" lon="0.75225">
        <ele>1811.26</ele>
        <time>2018-06-26T08:50:29Z</time>
      </trkpt>
      <trkpt lat="42.92679" lon="0.75224">
        <ele>1812.22</ele>
        <time>2018-06-26T08:50:35Z</time>
      </trkpt>
      <trkpt lat="42.92684" lon="0.75232">
        <ele>1812.7</ele>
        <time>2018-06-26T08:50:48Z</time>
      </trkpt>
      <trkpt lat="42.92691" lon="0.75236">
        <ele>1814.63</ele>
        <time>2018-06-26T08:51:00Z</time>
      </trkpt>
      <trkpt lat="42.92695" lon="0.75237">
        <ele>1817.03</ele>
        <time>2018-06-26T08:51:15Z</time>
      </trkpt>
      <trkpt lat="42.92696" lon="0.7524">
        <ele>1817.03</ele>
        <time>2018-06-26T08:51:33Z</time>
      </trkpt>
      <trkpt lat="42.92704" lon="0.75246">
        <ele>1817.51</ele>
        <time>2018-06-26T08:51:46Z</time>
      </trkpt>
      <trkpt lat="42.92706" lon="0.75247">
        <ele>1817.51</ele>
        <time>2018-06-26T08:51:49Z</time>
      </trkpt>
      <trkpt lat="42.92713" lon="0.75252">
        <ele>1818.95</ele>
        <time>2018-06-26T08:52:03Z</time>
      </trkpt>
      <trkpt lat="42.92716" lon="0.75254">
        <ele>1819.91</ele>
        <time>2018-06-26T08:52:16Z</time>
      </trkpt>
      <trkpt lat="42.92719" lon="0.75254">
        <ele>1820.87</ele>
        <time>2018-06-26T08:52:27Z</time>
      </trkpt>
      <trkpt lat="42.9272" lon="0.7525">
        <ele>1822.8</ele>
        <time>2018-06-26T08:52:42Z</time>
      </trkpt>
      <trkpt lat="42.92723" lon="0.75247">
        <ele>1825.2</ele>
        <time>2018-06-26T08:52:55Z</time>
      </trkpt>
      <trkpt lat="42.92722" lon="0.75249">
        <ele>1825.2</ele>
        <time>2018-06-26T08:53:07Z</time>
      </trkpt>
      <trkpt lat="42.92725" lon="0.75247">
        <ele>1826.16</ele>
        <time>2018-06-26T08:53:31Z</time>
      </trkpt>
      <trkpt lat="42.9273" lon="0.75245">
        <ele>1827.6</ele>
        <time>2018-06-26T08:53:43Z</time>
      </trkpt>
      <trkpt lat="42.9273" lon="0.75246">
        <ele>1827.12</ele>
        <time>2018-06-26T08:53:48Z</time>
      </trkpt>
      <trkpt lat="42.92734" lon="0.75238">
        <ele>1829.53</ele>
        <time>2018-06-26T08:54:04Z</time>
      </trkpt>
      <trkpt lat="42.92731" lon="0.75229">
        <ele>1832.41</ele>
        <time>2018-06-26T08:54:22Z</time>
      </trkpt>
      <trkpt lat="42.92731" lon="0.75223">
        <ele>1834.33</ele>
        <time>2018-06-26T08:54:33Z</time>
      </trkpt>
      <trkpt lat="42.92735" lon="0.75223">
        <ele>1836.26</ele>
        <time>2018-06-26T08:54:50Z</time>
      </trkpt>
      <trkpt lat="42.92739" lon="0.75221">
        <ele>1837.22</ele>
        <time>2018-06-26T08:55:06Z</time>
      </trkpt>
      <trkpt lat="42.9274" lon="0.75223">
        <ele>1837.22</ele>
        <time>2018-06-26T08:55:21Z</time>
      </trkpt>
      <trkpt lat="42.92737" lon="0.75221">
        <ele>1837.7</ele>
        <time>2018-06-26T08:55:34Z</time>
      </trkpt>
      <trkpt lat="42.92736" lon="0.75218">
        <ele>1837.7</ele>
        <time>2018-06-26T08:55:53Z</time>
      </trkpt>
      <trkpt lat="42.92739" lon="0.75221">
        <ele>1837.22</ele>
        <time>2018-06-26T08:56:11Z</time>
      </trkpt>
      <trkpt lat="42.92743" lon="0.7522">
        <ele>1837.7</ele>
        <time>2018-06-26T08:56:23Z</time>
      </trkpt>
      <trkpt lat="42.92744" lon="0.7522">
        <ele>1837.7</ele>
        <time>2018-06-26T08:56:39Z</time>
      </trkpt>
      <trkpt lat="42.92744" lon="0.75219">
        <ele>1838.18</ele>
        <time>2018-06-26T08:56:56Z</time>
      </trkpt>
      <trkpt lat="42.92749" lon="0.75221">
        <ele>1837.7</ele>
        <time>2018-06-26T08:57:05Z</time>
      </trkpt>
      <trkpt lat="42.92748" lon="0.75221">
        <ele>1837.7</ele>
        <time>2018-06-26T08:57:20Z</time>
      </trkpt>
      <trkpt lat="42.92748" lon="0.75226">
        <ele>1836.74</ele>
        <time>2018-06-26T08:57:32Z</time>
      </trkpt>
      <trkpt lat="42.92748" lon="0.75225">
        <ele>1836.74</ele>
        <time>2018-06-26T08:57:34Z</time>
      </trkpt>
      <trkpt lat="42.92742" lon="0.75215">
        <ele>1836.74</ele>
        <time>2018-06-26T08:57:48Z</time>
      </trkpt>
      <trkpt lat="42.92741" lon="0.75207">
        <ele>1835.29</ele>
        <time>2018-06-26T08:58:02Z</time>
      </trkpt>
      <trkpt lat="42.92746" lon="0.75197">
        <ele>1834.81</ele>
        <time>2018-06-26T08:58:15Z</time>
      </trkpt>
      <trkpt lat="42.9275" lon="0.75187">
        <ele>1835.77</ele>
        <time>2018-06-26T08:58:28Z</time>
      </trkpt>
      <trkpt lat="42.92755" lon="0.75184">
        <ele>1837.7</ele>
        <time>2018-06-26T08:58:44Z</time>
      </trkpt>
      <trkpt lat="42.92758" lon="0.75186">
        <ele>1838.66</ele>
        <time>2018-06-26T08:59:02Z</time>
      </trkpt>
      <trkpt lat="42.92761" lon="0.75189">
        <ele>1840.1</ele>
        <time>2018-06-26T08:59:13Z</time>
      </trkpt>
      <trkpt lat="42.92764" lon="0.75191">
        <ele>1842.02</ele>
        <time>2018-06-26T08:59:28Z</time>
      </trkpt>
      <trkpt lat="42.92767" lon="0.75193">
        <ele>1843.47</ele>
        <time>2018-06-26T08:59:41Z</time>
      </trkpt>
      <trkpt lat="42.92771" lon="0.75196">
        <ele>1844.43</ele>
        <time>2018-06-26T08:59:56Z</time>
      </trkpt>
      <trkpt lat="42.92776" lon="0.75198">
        <ele>1845.39</ele>
        <time>2018-06-26T09:00:11Z</time>
      </trkpt>
      <trkpt lat="42.92777" lon="0.75195">
        <ele>1846.35</ele>
        <time>2018-06-26T09:00:25Z</time>
      </trkpt>
      <trkpt lat="42.92779" lon="0.75191">
        <ele>1846.35</ele>
        <time>2018-06-26T09:00:42Z</time>
      </trkpt>
      <trkpt lat="42.92783" lon="0.75187">
        <ele>1847.79</ele>
        <time>2018-06-26T09:00:55Z</time>
      </trkpt>
      <trkpt lat="42.92788" lon="0.75186">
        <ele>1848.27</ele>
        <time>2018-06-26T09:01:02Z</time>
      </trkpt>
      <trkpt lat="42.9279" lon="0.75185">
        <ele>1850.19</ele>
        <time>2018-06-26T09:01:14Z</time>
      </trkpt>
      <trkpt lat="42.92793" lon="0.75185">
        <ele>1849.71</ele>
        <time>2018-06-26T09:01:24Z</time>
      </trkpt>
      <trkpt lat="42.92794" lon="0.75187">
        <ele>1849.71</ele>
        <time>2018-06-26T09:01:41Z</time>
      </trkpt>
      <trkpt lat="42.92796" lon="0.75185">
        <ele>1850.19</ele>
        <time>2018-06-26T09:01:54Z</time>
      </trkpt>
      <trkpt lat="42.92795" lon="0.75186">
        <ele>1849.71</ele>
        <time>2018-06-26T09:02:17Z</time>
      </trkpt>
      <trkpt lat="42.92795" lon="0.75185">
        <ele>1850.19</ele>
        <time>2018-06-26T09:02:29Z</time>
      </trkpt>
      <trkpt lat="42.92796" lon="0.75185">
        <ele>1849.23</ele>
        <time>2018-06-26T09:02:49Z</time>
      </trkpt>
      <trkpt lat="42.92796" lon="0.75184">
        <ele>1849.23</ele>
        <time>2018-06-26T09:03:21Z</time>
      </trkpt>
      <trkpt lat="42.92795" lon="0.75185">
        <ele>1849.71</ele>
        <time>2018-06-26T09:04:07Z</time>
      </trkpt>
      <trkpt lat="42.92795" lon="0.75185">
        <ele>1849.23</ele>
        <time>2018-06-26T09:04:42Z</time>
      </trkpt>
      <trkpt lat="42.92795" lon="0.75185">
        <ele>1849.71</ele>
        <time>2018-06-26T09:05:15Z</time>
      </trkpt>
      <trkpt lat="42.92795" lon="0.75185">
        <ele>1849.71</ele>
        <time>2018-06-26T09:05:55Z</time>
      </trkpt>
      <trkpt lat="42.92795" lon="0.75186">
        <ele>1851.16</ele>
        <time>2018-06-26T09:06:24Z</time>
      </trkpt>
      <trkpt lat="42.92797" lon="0.75187">
        <ele>1850.68</ele>
        <time>2018-06-26T09:06:46Z</time>
      </trkpt>
      <trkpt lat="42.92798" lon="0.75187">
        <ele>1851.16</ele>
        <time>2018-06-26T09:07:02Z</time>
      </trkpt>
      <trkpt lat="42.92798" lon="0.75186">
        <ele>1851.16</ele>
        <time>2018-06-26T09:07:19Z</time>
      </trkpt>
      <trkpt lat="42.928" lon="0.75187">
        <ele>1850.19</ele>
        <time>2018-06-26T09:07:36Z</time>
      </trkpt>
      <trkpt lat="42.92804" lon="0.75187">
        <ele>1849.23</ele>
        <time>2018-06-26T09:07:47Z</time>
      </trkpt>
      <trkpt lat="42.92806" lon="0.75189">
        <ele>1848.75</ele>
        <time>2018-06-26T09:07:51Z</time>
      </trkpt>
      <trkpt lat="42.92811" lon="0.75188">
        <ele>1847.31</ele>
        <time>2018-06-26T09:08:01Z</time>
      </trkpt>
      <trkpt lat="42.92823" lon="0.75189">
        <ele>1847.31</ele>
        <time>2018-06-26T09:08:13Z</time>
      </trkpt>
      <trkpt lat="42.92822" lon="0.75186">
        <ele>1847.79</ele>
        <time>2018-06-26T09:08:25Z</time>
      </trkpt>
      <trkpt lat="42.92816" lon="0.75184">
        <ele>1845.87</ele>
        <time>2018-06-26T09:08:38Z</time>
      </trkpt>
      <trkpt lat="42.92817" lon="0.75182">
        <ele>1844.91</ele>
        <time>2018-06-26T09:08:43Z</time>
      </trkpt>
      <trkpt lat="42.9282" lon="0.75175">
        <ele>1842.5</ele>
        <time>2018-06-26T09:08:55Z</time>
      </trkpt>
      <trkpt lat="42.92822" lon="0.75168">
        <ele>1840.1</ele>
        <time>2018-06-26T09:09:06Z</time>
      </trkpt>
      <trkpt lat="42.92825" lon="0.75165">
        <ele>1837.7</ele>
        <time>2018-06-26T09:09:18Z</time>
      </trkpt>
      <trkpt lat="42.92826" lon="0.75163">
        <ele>1836.26</ele>
        <time>2018-06-26T09:09:29Z</time>
      </trkpt>
      <trkpt lat="42.92827" lon="0.75163">
        <ele>1835.77</ele>
        <time>2018-06-26T09:09:45Z</time>
      </trkpt>
      <trkpt lat="42.92827" lon="0.75156">
        <ele>1833.85</ele>
        <time>2018-06-26T09:09:58Z</time>
      </trkpt>
      <trkpt lat="42.9283" lon="0.75151">
        <ele>1831.45</ele>
        <time>2018-06-26T09:10:09Z</time>
      </trkpt>
      <trkpt lat="42.9283" lon="0.75151">
        <ele>1830.49</ele>
        <time>2018-06-26T09:10:10Z</time>
      </trkpt>
      <trkpt lat="42.9283" lon="0.75149">
        <ele>1830.01</ele>
        <time>2018-06-26T09:10:12Z</time>
      </trkpt>
      <trkpt lat="42.92833" lon="0.75148">
        <ele>1828.08</ele>
        <time>2018-06-26T09:10:26Z</time>
      </trkpt>
      <trkpt lat="42.92833" lon="0.75146">
        <ele>1828.08</ele>
        <time>2018-06-26T09:10:48Z</time>
      </trkpt>
      <trkpt lat="42.92834" lon="0.75148">
        <ele>1828.08</ele>
        <time>2018-06-26T09:11:08Z</time>
      </trkpt>
      <trkpt lat="42.92834" lon="0.75147">
        <ele>1828.56</ele>
        <time>2018-06-26T09:11:20Z</time>
      </trkpt>
      <trkpt lat="42.92838" lon="0.75145">
        <ele>1826.16</ele>
        <time>2018-06-26T09:11:38Z</time>
      </trkpt>
      <trkpt lat="42.9284" lon="0.75142">
        <ele>1825.68</ele>
        <time>2018-06-26T09:11:42Z</time>
      </trkpt>
      <trkpt lat="42.92841" lon="0.75141">
        <ele>1825.2</ele>
        <time>2018-06-26T09:11:44Z</time>
      </trkpt>
      <trkpt lat="42.92845" lon="0.75139">
        <ele>1823.28</ele>
        <time>2018-06-26T09:11:48Z</time>
      </trkpt>
      <trkpt lat="42.92847" lon="0.75138">
        <ele>1822.8</ele>
        <time>2018-06-26T09:11:50Z</time>
      </trkpt>
      <trkpt lat="42.92851" lon="0.75136">
        <ele>1820.87</ele>
        <time>2018-06-26T09:11:53Z</time>
      </trkpt>
      <trkpt lat="42.92854" lon="0.7513">
        <ele>1818.47</ele>
        <time>2018-06-26T09:11:59Z</time>
      </trkpt>
      <trkpt lat="42.92858" lon="0.75124">
        <ele>1817.03</ele>
        <time>2018-06-26T09:12:02Z</time>
      </trkpt>
      <trkpt lat="42.92861" lon="0.75121">
        <ele>1816.55</ele>
        <time>2018-06-26T09:12:04Z</time>
      </trkpt>
      <trkpt lat="42.92872" lon="0.75112">
        <ele>1812.7</ele>
        <time>2018-06-26T09:12:14Z</time>
      </trkpt>
      <trkpt lat="42.92876" lon="0.75107">
        <ele>1811.74</ele>
        <time>2018-06-26T09:12:20Z</time>
      </trkpt>
      <trkpt lat="42.92877" lon="0.75102">
        <ele>1810.78</ele>
        <time>2018-06-26T09:12:24Z</time>
      </trkpt>
      <trkpt lat="42.92882" lon="0.751">
        <ele>1810.78</ele>
        <time>2018-06-26T09:12:37Z</time>
      </trkpt>
      <trkpt lat="42.92883" lon="0.75102">
        <ele>1811.26</ele>
        <time>2018-06-26T09:12:42Z</time>
      </trkpt>
      <trkpt lat="42.92884" lon="0.75099">
        <ele>1811.74</ele>
        <time>2018-06-26T09:12:44Z</time>
      </trkpt>
      <trkpt lat="42.92894" lon="0.7509">
        <ele>1813.18</ele>
        <time>2018-06-26T09:12:55Z</time>
      </trkpt>
      <trkpt lat="42.92899" lon="0.75078">
        <ele>1816.55</ele>
        <time>2018-06-26T09:13:08Z</time>
      </trkpt>
      <trkpt lat="42.929" lon="0.75076">
        <ele>1817.03</ele>
        <time>2018-06-26T09:13:10Z</time>
      </trkpt>
      <trkpt lat="42.92907" lon="0.75071">
        <ele>1819.91</ele>
        <time>2018-06-26T09:13:23Z</time>
      </trkpt>
      <trkpt lat="42.92907" lon="0.75069">
        <ele>1820.39</ele>
        <time>2018-06-26T09:13:39Z</time>
      </trkpt>
      <trkpt lat="42.92917" lon="0.75055">
        <ele>1821.84</ele>
        <time>2018-06-26T09:13:53Z</time>
      </trkpt>
      <trkpt lat="42.92926" lon="0.75041">
        <ele>1823.28</ele>
        <time>2018-06-26T09:14:07Z</time>
      </trkpt>
      <trkpt lat="42.9293" lon="0.75031">
        <ele>1824.24</ele>
        <time>2018-06-26T09:14:17Z</time>
      </trkpt>
      <trkpt lat="42.92931" lon="0.75019">
        <ele>1825.68</ele>
        <time>2018-06-26T09:14:27Z</time>
      </trkpt>
      <trkpt lat="42.92934" lon="0.75012">
        <ele>1827.6</ele>
        <time>2018-06-26T09:14:40Z</time>
      </trkpt>
      <trkpt lat="42.92938" lon="0.75007">
        <ele>1830.49</ele>
        <time>2018-06-26T09:14:55Z</time>
      </trkpt>
      <trkpt lat="42.92941" lon="0.75002">
        <ele>1830.97</ele>
        <time>2018-06-26T09:15:05Z</time>
      </trkpt>
      <trkpt lat="42.92944" lon="0.74994">
        <ele>1832.41</ele>
        <time>2018-06-26T09:15:17Z</time>
      </trkpt>
      <trkpt lat="42.92947" lon="0.74996">
        <ele>1832.89</ele>
        <time>2018-06-26T09:15:22Z</time>
      </trkpt>
      <trkpt lat="42.92952" lon="0.75007">
        <ele>1834.81</ele>
        <time>2018-06-26T09:15:34Z</time>
      </trkpt>
      <trkpt lat="42.92955" lon="0.7501">
        <ele>1835.29</ele>
        <time>2018-06-26T09:15:38Z</time>
      </trkpt>
      <trkpt lat="42.92959" lon="0.75015">
        <ele>1831.45</ele>
        <time>2018-06-26T09:15:46Z</time>
      </trkpt>
      <trkpt lat="42.92959" lon="0.75015">
        <ele>1837.7</ele>
        <time>2018-06-26T09:15:47Z</time>
      </trkpt>
      <trkpt lat="42.92955" lon="0.75023">
        <ele>1835.29</ele>
        <time>2018-06-26T09:15:58Z</time>
      </trkpt>
      <trkpt lat="42.92955" lon="0.75028">
        <ele>1835.29</ele>
        <time>2018-06-26T09:16:15Z</time>
      </trkpt>
      <trkpt lat="42.92954" lon="0.75025">
        <ele>1835.29</ele>
        <time>2018-06-26T09:16:24Z</time>
      </trkpt>
      <trkpt lat="42.92952" lon="0.75015">
        <ele>1835.29</ele>
        <time>2018-06-26T09:16:36Z</time>
      </trkpt>
      <trkpt lat="42.92948" lon="0.75003">
        <ele>1834.81</ele>
        <time>2018-06-26T09:16:47Z</time>
      </trkpt>
      <trkpt lat="42.92945" lon="0.74999">
        <ele>1833.85</ele>
        <time>2018-06-26T09:16:52Z</time>
      </trkpt>
      <trkpt lat="42.92945" lon="0.74988">
        <ele>1833.37</ele>
        <time>2018-06-26T09:17:06Z</time>
      </trkpt>
      <trkpt lat="42.9295" lon="0.74987">
        <ele>1831.93</ele>
        <time>2018-06-26T09:17:25Z</time>
      </trkpt>
      <trkpt lat="42.92955" lon="0.74984">
        <ele>1829.53</ele>
        <time>2018-06-26T09:17:37Z</time>
      </trkpt>
      <trkpt lat="42.92958" lon="0.7498">
        <ele>1827.6</ele>
        <time>2018-06-26T09:17:49Z</time>
      </trkpt>
      <trkpt lat="42.92961" lon="0.74972">
        <ele>1824.72</ele>
        <time>2018-06-26T09:18:02Z</time>
      </trkpt>
      <trkpt lat="42.92965" lon="0.74967">
        <ele>1820.87</ele>
        <time>2018-06-26T09:18:11Z</time>
      </trkpt>
      <trkpt lat="42.92965" lon="0.74966">
        <ele>1821.35</ele>
        <time>2018-06-26T09:18:12Z</time>
      </trkpt>
      <trkpt lat="42.92966" lon="0.74957">
        <ele>1820.87</ele>
        <time>2018-06-26T09:18:27Z</time>
      </trkpt>
      <trkpt lat="42.9297" lon="0.74956">
        <ele>1817.51</ele>
        <time>2018-06-26T09:18:33Z</time>
      </trkpt>
      <trkpt lat="42.92971" lon="0.74955">
        <ele>1820.39</ele>
        <time>2018-06-26T09:18:35Z</time>
      </trkpt>
      <trkpt lat="42.92974" lon="0.74951">
        <ele>1817.99</ele>
        <time>2018-06-26T09:18:38Z</time>
      </trkpt>
      <trkpt lat="42.92984" lon="0.74941">
        <ele>1816.07</ele>
        <time>2018-06-26T09:18:50Z</time>
      </trkpt>
      <trkpt lat="42.93005" lon="0.74925">
        <ele>1815.11</ele>
        <time>2018-06-26T09:19:10Z</time>
      </trkpt>
      <trkpt lat="42.93007" lon="0.74923">
        <ele>1815.11</ele>
        <time>2018-06-26T09:19:12Z</time>
      </trkpt>
      <trkpt lat="42.9302" lon="0.7492">
        <ele>1817.51</ele>
        <time>2018-06-26T09:19:27Z</time>
      </trkpt>
      <trkpt lat="42.93021" lon="0.74919">
        <ele>1817.51</ele>
        <time>2018-06-26T09:19:29Z</time>
      </trkpt>
      <trkpt lat="42.93026" lon="0.74917">
        <ele>1818.95</ele>
        <time>2018-06-26T09:19:36Z</time>
      </trkpt>
      <trkpt lat="42.93032" lon="0.74912">
        <ele>1818.47</ele>
        <time>2018-06-26T09:19:48Z</time>
      </trkpt>
      <trkpt lat="42.93034" lon="0.7491">
        <ele>1818.47</ele>
        <time>2018-06-26T09:19:50Z</time>
      </trkpt>
      <trkpt lat="42.93045" lon="0.74904">
        <ele>1819.91</ele>
        <time>2018-06-26T09:20:05Z</time>
      </trkpt>
      <trkpt lat="42.93049" lon="0.74896">
        <ele>1821.84</ele>
        <time>2018-06-26T09:20:15Z</time>
      </trkpt>
      <trkpt lat="42.93052" lon="0.74887">
        <ele>1823.28</ele>
        <time>2018-06-26T09:20:23Z</time>
      </trkpt>
      <trkpt lat="42.9306" lon="0.74885">
        <ele>1824.72</ele>
        <time>2018-06-26T09:20:36Z</time>
      </trkpt>
      <trkpt lat="42.9307" lon="0.74884">
        <ele>1826.16</ele>
        <time>2018-06-26T09:20:50Z</time>
      </trkpt>
      <trkpt lat="42.93077" lon="0.7488">
        <ele>1827.12</ele>
        <time>2018-06-26T09:21:01Z</time>
      </trkpt>
      <trkpt lat="42.93083" lon="0.74879">
        <ele>1828.08</ele>
        <time>2018-06-26T09:21:11Z</time>
      </trkpt>
      <trkpt lat="42.93095" lon="0.7488">
        <ele>1830.01</ele>
        <time>2018-06-26T09:21:28Z</time>
      </trkpt>
      <trkpt lat="42.93101" lon="0.74876">
        <ele>1833.37</ele>
        <time>2018-06-26T09:21:41Z</time>
      </trkpt>
      <trkpt lat="42.93105" lon="0.74871">
        <ele>1834.81</ele>
        <time>2018-06-26T09:21:52Z</time>
      </trkpt>
      <trkpt lat="42.9311" lon="0.7487">
        <ele>1836.74</ele>
        <time>2018-06-26T09:22:05Z</time>
      </trkpt>
      <trkpt lat="42.93117" lon="0.74877">
        <ele>1839.14</ele>
        <time>2018-06-26T09:22:20Z</time>
      </trkpt>
      <trkpt lat="42.93124" lon="0.74879">
        <ele>1841.06</ele>
        <time>2018-06-26T09:22:35Z</time>
      </trkpt>
      <trkpt lat="42.93132" lon="0.74882">
        <ele>1843.95</ele>
        <time>2018-06-26T09:22:50Z</time>
      </trkpt>
      <trkpt lat="42.93134" lon="0.74885">
        <ele>1843.95</ele>
        <time>2018-06-26T09:22:55Z</time>
      </trkpt>
      <trkpt lat="42.9314" lon="0.7489">
        <ele>1846.35</ele>
        <time>2018-06-26T09:23:09Z</time>
      </trkpt>
      <trkpt lat="42.93141" lon="0.74891">
        <ele>1845.87</ele>
        <time>2018-06-26T09:23:22Z</time>
      </trkpt>
      <trkpt lat="42.93144" lon="0.74884">
        <ele>1844.43</ele>
        <time>2018-06-26T09:23:33Z</time>
      </trkpt>
      <trkpt lat="42.93159" lon="0.74889">
        <ele>1842.5</ele>
        <time>2018-06-26T09:23:48Z</time>
      </trkpt>
      <trkpt lat="42.93163" lon="0.74895">
        <ele>1841.54</ele>
        <time>2018-06-26T09:23:53Z</time>
      </trkpt>
      <trkpt lat="42.93167" lon="0.74903">
        <ele>1842.02</ele>
        <time>2018-06-26T09:24:01Z</time>
      </trkpt>
      <trkpt lat="42.9317" lon="0.74906">
        <ele>1842.02</ele>
        <time>2018-06-26T09:24:05Z</time>
      </trkpt>
      <trkpt lat="42.93177" lon="0.74917">
        <ele>1842.98</ele>
        <time>2018-06-26T09:24:18Z</time>
      </trkpt>
      <trkpt lat="42.9318" lon="0.7492">
        <ele>1843.47</ele>
        <time>2018-06-26T09:24:23Z</time>
      </trkpt>
      <trkpt lat="42.93186" lon="0.74929">
        <ele>1845.87</ele>
        <time>2018-06-26T09:24:37Z</time>
      </trkpt>
      <trkpt lat="42.93195" lon="0.74932">
        <ele>1844.91</ele>
        <time>2018-06-26T09:24:52Z</time>
      </trkpt>
      <trkpt lat="42.93204" lon="0.74938">
        <ele>1845.39</ele>
        <time>2018-06-26T09:25:05Z</time>
      </trkpt>
      <trkpt lat="42.93209" lon="0.74941">
        <ele>1844.43</ele>
        <time>2018-06-26T09:25:12Z</time>
      </trkpt>
      <trkpt lat="42.93214" lon="0.74951">
        <ele>1843.47</ele>
        <time>2018-06-26T09:25:24Z</time>
      </trkpt>
      <trkpt lat="42.93222" lon="0.74956">
        <ele>1842.5</ele>
        <time>2018-06-26T09:25:36Z</time>
      </trkpt>
      <trkpt lat="42.93223" lon="0.74956">
        <ele>1842.98</ele>
        <time>2018-06-26T09:25:37Z</time>
      </trkpt>
      <trkpt lat="42.93226" lon="0.74959">
        <ele>1843.47</ele>
        <time>2018-06-26T09:25:43Z</time>
      </trkpt>
      <trkpt lat="42.93229" lon="0.74967">
        <ele>1845.39</ele>
        <time>2018-06-26T09:25:55Z</time>
      </trkpt>
      <trkpt lat="42.93229" lon="0.74976">
        <ele>1847.31</ele>
        <time>2018-06-26T09:26:07Z</time>
      </trkpt>
      <trkpt lat="42.93226" lon="0.74984">
        <ele>1850.19</ele>
        <time>2018-06-26T09:26:21Z</time>
      </trkpt>
      <trkpt lat="42.93224" lon="0.74988">
        <ele>1851.16</ele>
        <time>2018-06-26T09:26:38Z</time>
      </trkpt>
      <trkpt lat="42.93228" lon="0.74988">
        <ele>1849.71</ele>
        <time>2018-06-26T09:26:49Z</time>
      </trkpt>
      <trkpt lat="42.93232" lon="0.74993">
        <ele>1850.68</ele>
        <time>2018-06-26T09:26:55Z</time>
      </trkpt>
      <trkpt lat="42.93238" lon="0.75004">
        <ele>1850.19</ele>
        <time>2018-06-26T09:27:08Z</time>
      </trkpt>
      <trkpt lat="42.93245" lon="0.75015">
        <ele>1850.19</ele>
        <time>2018-06-26T09:27:21Z</time>
      </trkpt>
      <trkpt lat="42.93251" lon="0.75024">
        <ele>1848.27</ele>
        <time>2018-06-26T09:27:35Z</time>
      </trkpt>
      <trkpt lat="42.93254" lon="0.75028">
        <ele>1847.31</ele>
        <time>2018-06-26T09:27:44Z</time>
      </trkpt>
      <trkpt lat="42.93261" lon="0.75032">
        <ele>1846.35</ele>
        <time>2018-06-26T09:27:55Z</time>
      </trkpt>
      <trkpt lat="42.93264" lon="0.75043">
        <ele>1844.91</ele>
        <time>2018-06-26T09:28:08Z</time>
      </trkpt>
      <trkpt lat="42.93265" lon="0.75042">
        <ele>1846.35</ele>
        <time>2018-06-26T09:28:20Z</time>
      </trkpt>
      <trkpt lat="42.93268" lon="0.75051">
        <ele>1846.35</ele>
        <time>2018-06-26T09:28:37Z</time>
      </trkpt>
      <trkpt lat="42.93268" lon="0.75057">
        <ele>1846.83</ele>
        <time>2018-06-26T09:28:50Z</time>
      </trkpt>
      <trkpt lat="42.9327" lon="0.75059">
        <ele>1847.31</ele>
        <time>2018-06-26T09:29:03Z</time>
      </trkpt>
      <trkpt lat="42.93274" lon="0.7506">
        <ele>1844.91</ele>
        <time>2018-06-26T09:29:25Z</time>
      </trkpt>
      <trkpt lat="42.93279" lon="0.75072">
        <ele>1844.91</ele>
        <time>2018-06-26T09:29:39Z</time>
      </trkpt>
      <trkpt lat="42.93284" lon="0.75084">
        <ele>1842.98</ele>
        <time>2018-06-26T09:29:53Z</time>
      </trkpt>
      <trkpt lat="42.93287" lon="0.75091">
        <ele>1842.5</ele>
        <time>2018-06-26T09:30:04Z</time>
      </trkpt>
      <trkpt lat="42.93289" lon="0.75104">
        <ele>1842.98</ele>
        <time>2018-06-26T09:30:17Z</time>
      </trkpt>
      <trkpt lat="42.9329" lon="0.75115">
        <ele>1843.95</ele>
        <time>2018-06-26T09:30:30Z</time>
      </trkpt>
      <trkpt lat="42.93292" lon="0.7512">
        <ele>1843.47</ele>
        <time>2018-06-26T09:30:43Z</time>
      </trkpt>
      <trkpt lat="42.93293" lon="0.75121">
        <ele>1843.47</ele>
        <time>2018-06-26T09:30:58Z</time>
      </trkpt>
      <trkpt lat="42.93293" lon="0.75124">
        <ele>1842.98</ele>
        <time>2018-06-26T09:31:21Z</time>
      </trkpt>
      <trkpt lat="42.93294" lon="0.75128">
        <ele>1842.02</ele>
        <time>2018-06-26T09:31:41Z</time>
      </trkpt>
      <trkpt lat="42.93295" lon="0.75134">
        <ele>1839.62</ele>
        <time>2018-06-26T09:31:54Z</time>
      </trkpt>
      <trkpt lat="42.93293" lon="0.7514">
        <ele>1837.7</ele>
        <time>2018-06-26T09:32:05Z</time>
      </trkpt>
      <trkpt lat="42.93293" lon="0.75144">
        <ele>1835.77</ele>
        <time>2018-06-26T09:32:18Z</time>
      </trkpt>
      <trkpt lat="42.93296" lon="0.75143">
        <ele>1835.29</ele>
        <time>2018-06-26T09:32:32Z</time>
      </trkpt>
      <trkpt lat="42.93299" lon="0.75142">
        <ele>1834.33</ele>
        <time>2018-06-26T09:32:52Z</time>
      </trkpt>
      <trkpt lat="42.93303" lon="0.75146">
        <ele>1831.45</ele>
        <time>2018-06-26T09:33:03Z</time>
      </trkpt>
      <trkpt lat="42.93308" lon="0.75151">
        <ele>1830.01</ele>
        <time>2018-06-26T09:33:14Z</time>
      </trkpt>
      <trkpt lat="42.93313" lon="0.75159">
        <ele>1827.6</ele>
        <time>2018-06-26T09:33:27Z</time>
      </trkpt>
      <trkpt lat="42.93316" lon="0.75165">
        <ele>1825.2</ele>
        <time>2018-06-26T09:33:37Z</time>
      </trkpt>
      <trkpt lat="42.93325" lon="0.75167">
        <ele>1823.28</ele>
        <time>2018-06-26T09:33:48Z</time>
      </trkpt>
      <trkpt lat="42.93337" lon="0.75172">
        <ele>1823.28</ele>
        <time>2018-06-26T09:34:03Z</time>
      </trkpt>
      <trkpt lat="42.93342" lon="0.75171">
        <ele>1819.91</ele>
        <time>2018-06-26T09:34:16Z</time>
      </trkpt>
      <trkpt lat="42.93347" lon="0.7517">
        <ele>1817.51</ele>
        <time>2018-06-26T09:34:29Z</time>
      </trkpt>
      <trkpt lat="42.93351" lon="0.75173">
        <ele>1815.11</ele>
        <time>2018-06-26T09:34:42Z</time>
      </trkpt>
      <trkpt lat="42.93352" lon="0.75175">
        <ele>1814.63</ele>
        <time>2018-06-26T09:34:55Z</time>
      </trkpt>
      <trkpt lat="42.93352" lon="0.75176">
        <ele>1813.66</ele>
        <time>2018-06-26T09:35:13Z</time>
      </trkpt>
      <trkpt lat="42.93354" lon="0.75178">
        <ele>1812.22</ele>
        <time>2018-06-26T09:35:28Z</time>
      </trkpt>
      <trkpt lat="42.93357" lon="0.7518">
        <ele>1810.78</ele>
        <time>2018-06-26T09:35:39Z</time>
      </trkpt>
      <trkpt lat="42.93358" lon="0.75184">
        <ele>1809.82</ele>
        <time>2018-06-26T09:35:51Z</time>
      </trkpt>
      <trkpt lat="42.93357" lon="0.75185">
        <ele>1809.34</ele>
        <time>2018-06-26T09:35:57Z</time>
      </trkpt>
      <trkpt lat="42.9336" lon="0.75184">
        <ele>1808.86</ele>
        <time>2018-06-26T09:36:11Z</time>
      </trkpt>
      <trkpt lat="42.93361" lon="0.75186">
        <ele>1808.38</ele>
        <time>2018-06-26T09:36:29Z</time>
      </trkpt>
      <trkpt lat="42.93365" lon="0.75188">
        <ele>1806.45</ele>
        <time>2018-06-26T09:36:46Z</time>
      </trkpt>
      <trkpt lat="42.93367" lon="0.75191">
        <ele>1804.05</ele>
        <time>2018-06-26T09:37:01Z</time>
      </trkpt>
      <trkpt lat="42.93371" lon="0.75192">
        <ele>1802.13</ele>
        <time>2018-06-26T09:37:13Z</time>
      </trkpt>
      <trkpt lat="42.93375" lon="0.75198">
        <ele>1799.73</ele>
        <time>2018-06-26T09:37:28Z</time>
      </trkpt>
      <trkpt lat="42.93381" lon="0.75202">
        <ele>1797.32</ele>
        <time>2018-06-26T09:37:38Z</time>
      </trkpt>
      <trkpt lat="42.93381" lon="0.75202">
        <ele>1796.84</ele>
        <time>2018-06-26T09:37:39Z</time>
      </trkpt>
      <trkpt lat="42.9339" lon="0.75211">
        <ele>1794.44</ele>
        <time>2018-06-26T09:37:53Z</time>
      </trkpt>
      <trkpt lat="42.93398" lon="0.75218">
        <ele>1792.03</ele>
        <time>2018-06-26T09:38:07Z</time>
      </trkpt>
      <trkpt lat="42.93405" lon="0.75225">
        <ele>1789.15</ele>
        <time>2018-06-26T09:38:20Z</time>
      </trkpt>
      <trkpt lat="42.93409" lon="0.75229">
        <ele>1785.79</ele>
        <time>2018-06-26T09:38:30Z</time>
      </trkpt>
      <trkpt lat="42.9341" lon="0.75234">
        <ele>1783.38</ele>
        <time>2018-06-26T09:38:42Z</time>
      </trkpt>
      <trkpt lat="42.93413" lon="0.75231">
        <ele>1781.94</ele>
        <time>2018-06-26T09:38:54Z</time>
      </trkpt>
      <trkpt lat="42.93415" lon="0.7523">
        <ele>1780.5</ele>
        <time>2018-06-26T09:39:08Z</time>
      </trkpt>
      <trkpt lat="42.93418" lon="0.7523">
        <ele>1778.58</ele>
        <time>2018-06-26T09:39:31Z</time>
      </trkpt>
      <trkpt lat="42.93421" lon="0.75228">
        <ele>1776.17</ele>
        <time>2018-06-26T09:39:43Z</time>
      </trkpt>
      <trkpt lat="42.93424" lon="0.75225">
        <ele>1774.25</ele>
        <time>2018-06-26T09:39:55Z</time>
      </trkpt>
      <trkpt lat="42.93427" lon="0.75224">
        <ele>1771.37</ele>
        <time>2018-06-26T09:40:07Z</time>
      </trkpt>
      <trkpt lat="42.93433" lon="0.75227">
        <ele>1770.89</ele>
        <time>2018-06-26T09:40:20Z</time>
      </trkpt>
      <trkpt lat="42.93438" lon="0.75226">
        <ele>1770.89</ele>
        <time>2018-06-26T09:40:30Z</time>
      </trkpt>
      <trkpt lat="42.93443" lon="0.75229">
        <ele>1769.44</ele>
        <time>2018-06-26T09:40:42Z</time>
      </trkpt>
      <trkpt lat="42.93446" lon="0.7523">
        <ele>1768.96</ele>
        <time>2018-06-26T09:40:56Z</time>
      </trkpt>
      <trkpt lat="42.93451" lon="0.75234">
        <ele>1767.52</ele>
        <time>2018-06-26T09:41:09Z</time>
      </trkpt>
      <trkpt lat="42.93459" lon="0.75243">
        <ele>1767.04</ele>
        <time>2018-06-26T09:41:20Z</time>
      </trkpt>
      <trkpt lat="42.93462" lon="0.75246">
        <ele>1767.04</ele>
        <time>2018-06-26T09:41:31Z</time>
      </trkpt>
      <trkpt lat="42.93465" lon="0.75245">
        <ele>1765.12</ele>
        <time>2018-06-26T09:41:47Z</time>
      </trkpt>
      <trkpt lat="42.93469" lon="0.75249">
        <ele>1764.64</ele>
        <time>2018-06-26T09:41:59Z</time>
      </trkpt>
      <trkpt lat="42.93472" lon="0.75249">
        <ele>1764.64</ele>
        <time>2018-06-26T09:42:12Z</time>
      </trkpt>
      <trkpt lat="42.93475" lon="0.75249">
        <ele>1764.16</ele>
        <time>2018-06-26T09:42:29Z</time>
      </trkpt>
      <trkpt lat="42.93475" lon="0.7525">
        <ele>1762.71</ele>
        <time>2018-06-26T09:42:46Z</time>
      </trkpt>
      <trkpt lat="42.93479" lon="0.75252">
        <ele>1761.27</ele>
        <time>2018-06-26T09:42:59Z</time>
      </trkpt>
      <trkpt lat="42.93482" lon="0.75256">
        <ele>1760.79</ele>
        <time>2018-06-26T09:43:12Z</time>
      </trkpt>
      <trkpt lat="42.93484" lon="0.75255">
        <ele>1759.35</ele>
        <time>2018-06-26T09:43:22Z</time>
      </trkpt>
      <trkpt lat="42.93487" lon="0.75265">
        <ele>1760.31</ele>
        <time>2018-06-26T09:43:35Z</time>
      </trkpt>
      <trkpt lat="42.93492" lon="0.75273">
        <ele>1761.75</ele>
        <time>2018-06-26T09:43:48Z</time>
      </trkpt>
      <trkpt lat="42.93496" lon="0.75282">
        <ele>1763.2</ele>
        <time>2018-06-26T09:44:01Z</time>
      </trkpt>
      <trkpt lat="42.93499" lon="0.75289">
        <ele>1766.08</ele>
        <time>2018-06-26T09:44:15Z</time>
      </trkpt>
      <trkpt lat="42.93502" lon="0.75295">
        <ele>1768.96</ele>
        <time>2018-06-26T09:44:31Z</time>
      </trkpt>
      <trkpt lat="42.93505" lon="0.753">
        <ele>1770.89</ele>
        <time>2018-06-26T09:44:45Z</time>
      </trkpt>
      <trkpt lat="42.9351" lon="0.753">
        <ele>1773.29</ele>
        <time>2018-06-26T09:44:59Z</time>
      </trkpt>
      <trkpt lat="42.93514" lon="0.753">
        <ele>1771.85</ele>
        <time>2018-06-26T09:45:14Z</time>
      </trkpt>
      <trkpt lat="42.93518" lon="0.75307">
        <ele>1773.29</ele>
        <time>2018-06-26T09:45:26Z</time>
      </trkpt>
      <trkpt lat="42.93522" lon="0.75307">
        <ele>1772.81</ele>
        <time>2018-06-26T09:45:40Z</time>
      </trkpt>
      <trkpt lat="42.93526" lon="0.75308">
        <ele>1771.85</ele>
        <time>2018-06-26T09:45:52Z</time>
      </trkpt>
      <trkpt lat="42.93539" lon="0.75314">
        <ele>1769.44</ele>
        <time>2018-06-26T09:46:06Z</time>
      </trkpt>
      <trkpt lat="42.9354" lon="0.75315">
        <ele>1769.44</ele>
        <time>2018-06-26T09:46:07Z</time>
      </trkpt>
      <trkpt lat="42.93547" lon="0.75325">
        <ele>1768</ele>
        <time>2018-06-26T09:46:20Z</time>
      </trkpt>
      <trkpt lat="42.9355" lon="0.75332">
        <ele>1766.08</ele>
        <time>2018-06-26T09:46:32Z</time>
      </trkpt>
      <trkpt lat="42.93555" lon="0.75339">
        <ele>1764.64</ele>
        <time>2018-06-26T09:46:43Z</time>
      </trkpt>
      <trkpt lat="42.93563" lon="0.75346">
        <ele>1763.2</ele>
        <time>2018-06-26T09:46:55Z</time>
      </trkpt>
      <trkpt lat="42.93567" lon="0.75351">
        <ele>1762.23</ele>
        <time>2018-06-26T09:47:01Z</time>
      </trkpt>
      <trkpt lat="42.93575" lon="0.75357">
        <ele>1763.2</ele>
        <time>2018-06-26T09:47:13Z</time>
      </trkpt>
      <trkpt lat="42.93578" lon="0.75357">
        <ele>1761.75</ele>
        <time>2018-06-26T09:47:30Z</time>
      </trkpt>
      <trkpt lat="42.93579" lon="0.75356">
        <ele>1760.31</ele>
        <time>2018-06-26T09:47:45Z</time>
      </trkpt>
      <trkpt lat="42.93581" lon="0.75355">
        <ele>1759.83</ele>
        <time>2018-06-26T09:47:48Z</time>
      </trkpt>
      <trkpt lat="42.93584" lon="0.75353">
        <ele>1759.35</ele>
        <time>2018-06-26T09:47:51Z</time>
      </trkpt>
      <trkpt lat="42.93589" lon="0.75356">
        <ele>1761.27</ele>
        <time>2018-06-26T09:48:06Z</time>
      </trkpt>
      <trkpt lat="42.9359" lon="0.7536">
        <ele>1762.23</ele>
        <time>2018-06-26T09:48:23Z</time>
      </trkpt>
      <trkpt lat="42.93593" lon="0.75365">
        <ele>1763.2</ele>
        <time>2018-06-26T09:48:40Z</time>
      </trkpt>
      <trkpt lat="42.93595" lon="0.75367">
        <ele>1763.2</ele>
        <time>2018-06-26T09:48:57Z</time>
      </trkpt>
      <trkpt lat="42.93594" lon="0.75364">
        <ele>1763.2</ele>
        <time>2018-06-26T09:49:20Z</time>
      </trkpt>
      <trkpt lat="42.93598" lon="0.75367">
        <ele>1761.75</ele>
        <time>2018-06-26T09:49:36Z</time>
      </trkpt>
      <trkpt lat="42.93594" lon="0.7537">
        <ele>1761.27</ele>
        <time>2018-06-26T09:49:59Z</time>
      </trkpt>
      <trkpt lat="42.93598" lon="0.75376">
        <ele>1760.31</ele>
        <time>2018-06-26T09:50:11Z</time>
      </trkpt>
      <trkpt lat="42.93602" lon="0.75379">
        <ele>1758.87</ele>
        <time>2018-06-26T09:50:15Z</time>
      </trkpt>
      <trkpt lat="42.93611" lon="0.75385">
        <ele>1755.5</ele>
        <time>2018-06-26T09:50:28Z</time>
      </trkpt>
      <trkpt lat="42.9362" lon="0.75391">
        <ele>1754.54</ele>
        <time>2018-06-26T09:50:43Z</time>
      </trkpt>
      <trkpt lat="42.93626" lon="0.7539">
        <ele>1753.1</ele>
        <time>2018-06-26T09:50:57Z</time>
      </trkpt>
      <trkpt lat="42.93632" lon="0.75391">
        <ele>1751.18</ele>
        <time>2018-06-26T09:51:10Z</time>
      </trkpt>
      <trkpt lat="42.93639" lon="0.75393">
        <ele>1749.26</ele>
        <time>2018-06-26T09:51:22Z</time>
      </trkpt>
      <trkpt lat="42.93641" lon="0.75399">
        <ele>1749.26</ele>
        <time>2018-06-26T09:51:33Z</time>
      </trkpt>
      <trkpt lat="42.93647" lon="0.75402">
        <ele>1747.33</ele>
        <time>2018-06-26T09:51:46Z</time>
      </trkpt>
      <trkpt lat="42.93651" lon="0.75407">
        <ele>1745.41</ele>
        <time>2018-06-26T09:52:01Z</time>
      </trkpt>
      <trkpt lat="42.93657" lon="0.75414">
        <ele>1742.05</ele>
        <time>2018-06-26T09:52:12Z</time>
      </trkpt>
      <trkpt lat="42.93666" lon="0.75421">
        <ele>1740.6</ele>
        <time>2018-06-26T09:52:23Z</time>
      </trkpt>
      <trkpt lat="42.93671" lon="0.75429">
        <ele>1740.6</ele>
        <time>2018-06-26T09:52:37Z</time>
      </trkpt>
      <trkpt lat="42.93676" lon="0.75427">
        <ele>1737.72</ele>
        <time>2018-06-26T09:52:53Z</time>
      </trkpt>
      <trkpt lat="42.93683" lon="0.7543">
        <ele>1735.32</ele>
        <time>2018-06-26T09:53:06Z</time>
      </trkpt>
      <trkpt lat="42.93689" lon="0.75433">
        <ele>1733.39</ele>
        <time>2018-06-26T09:53:21Z</time>
      </trkpt>
      <trkpt lat="42.93692" lon="0.75434">
        <ele>1732.91</ele>
        <time>2018-06-26T09:53:24Z</time>
      </trkpt>
      <trkpt lat="42.93702" lon="0.75439">
        <ele>1729.55</ele>
        <time>2018-06-26T09:53:36Z</time>
      </trkpt>
      <trkpt lat="42.93714" lon="0.75453">
        <ele>1727.63</ele>
        <time>2018-06-26T09:53:51Z</time>
      </trkpt>
      <trkpt lat="42.93724" lon="0.7546">
        <ele>1724.74</ele>
        <time>2018-06-26T09:54:05Z</time>
      </trkpt>
      <trkpt lat="42.93736" lon="0.75464">
        <ele>1722.34</ele>
        <time>2018-06-26T09:54:19Z</time>
      </trkpt>
      <trkpt lat="42.93737" lon="0.75463">
        <ele>1721.86</ele>
        <time>2018-06-26T09:54:21Z</time>
      </trkpt>
      <trkpt lat="42.93747" lon="0.75459">
        <ele>1719.46</ele>
        <time>2018-06-26T09:54:34Z</time>
      </trkpt>
      <trkpt lat="42.93748" lon="0.75459">
        <ele>1718.97</ele>
        <time>2018-06-26T09:54:35Z</time>
      </trkpt>
      <trkpt lat="42.93753" lon="0.7546">
        <ele>1717.53</ele>
        <time>2018-06-26T09:54:48Z</time>
      </trkpt>
      <trkpt lat="42.93761" lon="0.75459">
        <ele>1715.13</ele>
        <time>2018-06-26T09:55:03Z</time>
      </trkpt>
      <trkpt lat="42.93769" lon="0.75463">
        <ele>1714.17</ele>
        <time>2018-06-26T09:55:16Z</time>
      </trkpt>
      <trkpt lat="42.9378" lon="0.75468">
        <ele>1712.25</ele>
        <time>2018-06-26T09:55:31Z</time>
      </trkpt>
      <trkpt lat="42.9378" lon="0.75466">
        <ele>1712.73</ele>
        <time>2018-06-26T09:55:51Z</time>
      </trkpt>
      <trkpt lat="42.9378" lon="0.75469">
        <ele>1712.73</ele>
        <time>2018-06-26T09:56:13Z</time>
      </trkpt>
      <trkpt lat="42.93778" lon="0.7547">
        <ele>1712.73</ele>
        <time>2018-06-26T09:56:39Z</time>
      </trkpt>
      <trkpt lat="42.93779" lon="0.7547">
        <ele>1712.73</ele>
        <time>2018-06-26T09:57:10Z</time>
      </trkpt>
      <trkpt lat="42.9378" lon="0.75468">
        <ele>1712.73</ele>
        <time>2018-06-26T09:57:35Z</time>
      </trkpt>
      <trkpt lat="42.93781" lon="0.75474">
        <ele>1713.21</ele>
        <time>2018-06-26T09:57:51Z</time>
      </trkpt>
      <trkpt lat="42.9379" lon="0.75483">
        <ele>1715.61</ele>
        <time>2018-06-26T09:58:06Z</time>
      </trkpt>
      <trkpt lat="42.93803" lon="0.75487">
        <ele>1718.49</ele>
        <time>2018-06-26T09:58:25Z</time>
      </trkpt>
      <trkpt lat="42.9381" lon="0.75491">
        <ele>1721.38</ele>
        <time>2018-06-26T09:58:38Z</time>
      </trkpt>
      <trkpt lat="42.93817" lon="0.75493">
        <ele>1723.78</ele>
        <time>2018-06-26T09:58:53Z</time>
      </trkpt>
      <trkpt lat="42.93824" lon="0.75497">
        <ele>1726.18</ele>
        <time>2018-06-26T09:59:06Z</time>
      </trkpt>
      <trkpt lat="42.93828" lon="0.75497">
        <ele>1728.11</ele>
        <time>2018-06-26T09:59:21Z</time>
      </trkpt>
      <trkpt lat="42.93836" lon="0.75494">
        <ele>1731.47</ele>
        <time>2018-06-26T09:59:38Z</time>
      </trkpt>
      <trkpt lat="42.93839" lon="0.755">
        <ele>1733.39</ele>
        <time>2018-06-26T09:59:53Z</time>
      </trkpt>
      <trkpt lat="42.93844" lon="0.755">
        <ele>1735.8</ele>
        <time>2018-06-26T10:00:08Z</time>
      </trkpt>
      <trkpt lat="42.93844" lon="0.75498">
        <ele>1736.76</ele>
        <time>2018-06-26T10:00:21Z</time>
      </trkpt>
      <trkpt lat="42.93851" lon="0.75501">
        <ele>1739.64</ele>
        <time>2018-06-26T10:00:36Z</time>
      </trkpt>
      <trkpt lat="42.93852" lon="0.75512">
        <ele>1742.05</ele>
        <time>2018-06-26T10:00:49Z</time>
      </trkpt>
      <trkpt lat="42.93855" lon="0.75516">
        <ele>1743.97</ele>
        <time>2018-06-26T10:01:02Z</time>
      </trkpt>
      <trkpt lat="42.93859" lon="0.75515">
        <ele>1745.89</ele>
        <time>2018-06-26T10:01:15Z</time>
      </trkpt>
      <trkpt lat="42.93863" lon="0.75517">
        <ele>1747.81</ele>
        <time>2018-06-26T10:01:30Z</time>
      </trkpt>
      <trkpt lat="42.93864" lon="0.7552">
        <ele>1750.22</ele>
        <time>2018-06-26T10:01:46Z</time>
      </trkpt>
      <trkpt lat="42.93863" lon="0.75526">
        <ele>1752.14</ele>
        <time>2018-06-26T10:02:00Z</time>
      </trkpt>
      <trkpt lat="42.93871" lon="0.75522">
        <ele>1754.06</ele>
        <time>2018-06-26T10:02:16Z</time>
      </trkpt>
      <trkpt lat="42.93872" lon="0.7553">
        <ele>1755.99</ele>
        <time>2018-06-26T10:02:31Z</time>
      </trkpt>
      <trkpt lat="42.93879" lon="0.75528">
        <ele>1757.91</ele>
        <time>2018-06-26T10:02:44Z</time>
      </trkpt>
      <trkpt lat="42.93881" lon="0.75535">
        <ele>1759.83</ele>
        <time>2018-06-26T10:02:57Z</time>
      </trkpt>
      <trkpt lat="42.93887" lon="0.75538">
        <ele>1762.71</ele>
        <time>2018-06-26T10:03:14Z</time>
      </trkpt>
      <trkpt lat="42.93892" lon="0.75542">
        <ele>1765.12</ele>
        <time>2018-06-26T10:03:28Z</time>
      </trkpt>
      <trkpt lat="42.93898" lon="0.75546">
        <ele>1767.52</ele>
        <time>2018-06-26T10:03:43Z</time>
      </trkpt>
      <trkpt lat="42.93901" lon="0.7555">
        <ele>1769.44</ele>
        <time>2018-06-26T10:03:58Z</time>
      </trkpt>
      <trkpt lat="42.93906" lon="0.75554">
        <ele>1771.85</ele>
        <time>2018-06-26T10:04:13Z</time>
      </trkpt>
      <trkpt lat="42.9391" lon="0.75558">
        <ele>1773.77</ele>
        <time>2018-06-26T10:04:28Z</time>
      </trkpt>
      <trkpt lat="42.93915" lon="0.75561">
        <ele>1776.17</ele>
        <time>2018-06-26T10:04:43Z</time>
      </trkpt>
      <trkpt lat="42.93918" lon="0.75567">
        <ele>1778.1</ele>
        <time>2018-06-26T10:04:57Z</time>
      </trkpt>
      <trkpt lat="42.93924" lon="0.75569">
        <ele>1780.5</ele>
        <time>2018-06-26T10:05:12Z</time>
      </trkpt>
      <trkpt lat="42.93933" lon="0.75574">
        <ele>1783.86</ele>
        <time>2018-06-26T10:05:28Z</time>
      </trkpt>
      <trkpt lat="42.93942" lon="0.75579">
        <ele>1786.27</ele>
        <time>2018-06-26T10:05:42Z</time>
      </trkpt>
      <trkpt lat="42.93948" lon="0.75587">
        <ele>1787.71</ele>
        <time>2018-06-26T10:05:56Z</time>
      </trkpt>
      <trkpt lat="42.93954" lon="0.75591">
        <ele>1789.63</ele>
        <time>2018-06-26T10:06:09Z</time>
      </trkpt>
      <trkpt lat="42.93957" lon="0.75593">
        <ele>1790.11</ele>
        <time>2018-06-26T10:06:13Z</time>
      </trkpt>
      <trkpt lat="42.93967" lon="0.75604">
        <ele>1791.07</ele>
        <time>2018-06-26T10:06:29Z</time>
      </trkpt>
      <trkpt lat="42.93977" lon="0.75609">
        <ele>1791.55</ele>
        <time>2018-06-26T10:06:42Z</time>
      </trkpt>
      <trkpt lat="42.93979" lon="0.75613">
        <ele>1792.03</ele>
        <time>2018-06-26T10:06:46Z</time>
      </trkpt>
      <trkpt lat="42.93985" lon="0.75623">
        <ele>1793.48</ele>
        <time>2018-06-26T10:06:57Z</time>
      </trkpt>
      <trkpt lat="42.93996" lon="0.75631">
        <ele>1793.96</ele>
        <time>2018-06-26T10:07:12Z</time>
      </trkpt>
      <trkpt lat="42.94005" lon="0.75636">
        <ele>1795.4</ele>
        <time>2018-06-26T10:07:24Z</time>
      </trkpt>
      <trkpt lat="42.94015" lon="0.75641">
        <ele>1795.4</ele>
        <time>2018-06-26T10:07:36Z</time>
      </trkpt>
      <trkpt lat="42.94019" lon="0.75645">
        <ele>1797.32</ele>
        <time>2018-06-26T10:07:45Z</time>
      </trkpt>
      <trkpt lat="42.94031" lon="0.7565">
        <ele>1797.8</ele>
        <time>2018-06-26T10:07:59Z</time>
      </trkpt>
      <trkpt lat="42.9404" lon="0.75659">
        <ele>1799.73</ele>
        <time>2018-06-26T10:08:13Z</time>
      </trkpt>
      <trkpt lat="42.94042" lon="0.75667">
        <ele>1801.65</ele>
        <time>2018-06-26T10:08:23Z</time>
      </trkpt>
      <trkpt lat="42.94048" lon="0.75677">
        <ele>1804.05</ele>
        <time>2018-06-26T10:08:37Z</time>
      </trkpt>
      <trkpt lat="42.94055" lon="0.75681">
        <ele>1805.49</ele>
        <time>2018-06-26T10:08:54Z</time>
      </trkpt>
      <trkpt lat="42.94061" lon="0.75688">
        <ele>1807.42</ele>
        <time>2018-06-26T10:09:07Z</time>
      </trkpt>
      <trkpt lat="42.94063" lon="0.75698">
        <ele>1809.34</ele>
        <time>2018-06-26T10:09:21Z</time>
      </trkpt>
      <trkpt lat="42.94072" lon="0.75699">
        <ele>1811.26</ele>
        <time>2018-06-26T10:09:34Z</time>
      </trkpt>
      <trkpt lat="42.94081" lon="0.75706">
        <ele>1813.18</ele>
        <time>2018-06-26T10:09:49Z</time>
      </trkpt>
      <trkpt lat="42.94089" lon="0.75704">
        <ele>1815.59</ele>
        <time>2018-06-26T10:10:03Z</time>
      </trkpt>
      <trkpt lat="42.94096" lon="0.75705">
        <ele>1817.99</ele>
        <time>2018-06-26T10:10:18Z</time>
      </trkpt>
      <trkpt lat="42.94103" lon="0.75706">
        <ele>1820.87</ele>
        <time>2018-06-26T10:10:33Z</time>
      </trkpt>
      <trkpt lat="42.94109" lon="0.7571">
        <ele>1823.28</ele>
        <time>2018-06-26T10:10:48Z</time>
      </trkpt>
      <trkpt lat="42.94117" lon="0.75712">
        <ele>1825.2</ele>
        <time>2018-06-26T10:11:04Z</time>
      </trkpt>
      <trkpt lat="42.94125" lon="0.75714">
        <ele>1827.6</ele>
        <time>2018-06-26T10:11:20Z</time>
      </trkpt>
      <trkpt lat="42.94132" lon="0.75717">
        <ele>1829.53</ele>
        <time>2018-06-26T10:11:36Z</time>
      </trkpt>
      <trkpt lat="42.94139" lon="0.75721">
        <ele>1831.93</ele>
        <time>2018-06-26T10:11:52Z</time>
      </trkpt>
      <trkpt lat="42.94146" lon="0.75724">
        <ele>1834.33</ele>
        <time>2018-06-26T10:12:06Z</time>
      </trkpt>
      <trkpt lat="42.94157" lon="0.75726">
        <ele>1836.74</ele>
        <time>2018-06-26T10:12:23Z</time>
      </trkpt>
      <trkpt lat="42.94167" lon="0.75723">
        <ele>1837.7</ele>
        <time>2018-06-26T10:12:38Z</time>
      </trkpt>
      <trkpt lat="42.94171" lon="0.75723">
        <ele>1838.18</ele>
        <time>2018-06-26T10:12:43Z</time>
      </trkpt>
      <trkpt lat="42.94183" lon="0.75725">
        <ele>1840.58</ele>
        <time>2018-06-26T10:13:00Z</time>
      </trkpt>
      <trkpt lat="42.94194" lon="0.75725">
        <ele>1842.98</ele>
        <time>2018-06-26T10:13:17Z</time>
      </trkpt>
      <trkpt lat="42.94202" lon="0.75726">
        <ele>1845.39</ele>
        <time>2018-06-26T10:13:31Z</time>
      </trkpt>
      <trkpt lat="42.94209" lon="0.75727">
        <ele>1847.79</ele>
        <time>2018-06-26T10:13:45Z</time>
      </trkpt>
      <trkpt lat="42.94219" lon="0.75725">
        <ele>1849.71</ele>
        <time>2018-06-26T10:14:00Z</time>
      </trkpt>
      <trkpt lat="42.9423" lon="0.7573">
        <ele>1852.12</ele>
        <time>2018-06-26T10:14:15Z</time>
      </trkpt>
      <trkpt lat="42.94239" lon="0.75737">
        <ele>1854.04</ele>
        <time>2018-06-26T10:14:28Z</time>
      </trkpt>
      <trkpt lat="42.94247" lon="0.75742">
        <ele>1855</ele>
        <time>2018-06-26T10:14:42Z</time>
      </trkpt>
      <trkpt lat="42.94255" lon="0.7575">
        <ele>1856.92</ele>
        <time>2018-06-26T10:14:58Z</time>
      </trkpt>
      <trkpt lat="42.94263" lon="0.75752">
        <ele>1856.92</ele>
        <time>2018-06-26T10:15:10Z</time>
      </trkpt>
      <trkpt lat="42.9427" lon="0.75753">
        <ele>1856.44</ele>
        <time>2018-06-26T10:15:20Z</time>
      </trkpt>
      <trkpt lat="42.94281" lon="0.75758">
        <ele>1857.89</ele>
        <time>2018-06-26T10:15:34Z</time>
      </trkpt>
      <trkpt lat="42.94291" lon="0.75763">
        <ele>1859.33</ele>
        <time>2018-06-26T10:15:48Z</time>
      </trkpt>
      <trkpt lat="42.943" lon="0.75768">
        <ele>1862.21</ele>
        <time>2018-06-26T10:16:03Z</time>
      </trkpt>
      <trkpt lat="42.94311" lon="0.75771">
        <ele>1864.13</ele>
        <time>2018-06-26T10:16:18Z</time>
      </trkpt>
      <trkpt lat="42.94312" lon="0.75771">
        <ele>1864.13</ele>
        <time>2018-06-26T10:16:20Z</time>
      </trkpt>
      <trkpt lat="42.94319" lon="0.75777">
        <ele>1866.54</ele>
        <time>2018-06-26T10:16:34Z</time>
      </trkpt>
      <trkpt lat="42.9433" lon="0.75781">
        <ele>1868.94</ele>
        <time>2018-06-26T10:16:50Z</time>
      </trkpt>
      <trkpt lat="42.9434" lon="0.75781">
        <ele>1869.9</ele>
        <time>2018-06-26T10:17:02Z</time>
      </trkpt>
      <trkpt lat="42.94347" lon="0.75784">
        <ele>1871.82</ele>
        <time>2018-06-26T10:17:16Z</time>
      </trkpt>
      <trkpt lat="42.94351" lon="0.75792">
        <ele>1873.75</ele>
        <time>2018-06-26T10:17:30Z</time>
      </trkpt>
      <trkpt lat="42.9435" lon="0.75791">
        <ele>1873.27</ele>
        <time>2018-06-26T10:17:48Z</time>
      </trkpt>
      <trkpt lat="42.94349" lon="0.75791">
        <ele>1873.27</ele>
        <time>2018-06-26T10:17:49Z</time>
      </trkpt>
      <trkpt lat="42.94347" lon="0.75806">
        <ele>1871.82</ele>
        <time>2018-06-26T10:18:01Z</time>
      </trkpt>
      <trkpt lat="42.94346" lon="0.75811">
        <ele>1871.82</ele>
        <time>2018-06-26T10:18:05Z</time>
      </trkpt>
      <trkpt lat="42.94346" lon="0.75813">
        <ele>1873.75</ele>
        <time>2018-06-26T10:18:07Z</time>
      </trkpt>
      <trkpt lat="42.94342" lon="0.75822">
        <ele>1869.42</ele>
        <time>2018-06-26T10:18:16Z</time>
      </trkpt>
      <trkpt lat="42.94339" lon="0.75847">
        <ele>1870.38</ele>
        <time>2018-06-26T10:18:32Z</time>
      </trkpt>
      <trkpt lat="42.9434" lon="0.7585">
        <ele>1867.02</ele>
        <time>2018-06-26T10:18:37Z</time>
      </trkpt>
      <trkpt lat="42.9434" lon="0.75851">
        <ele>1868.46</ele>
        <time>2018-06-26T10:18:38Z</time>
      </trkpt>
      <trkpt lat="42.94339" lon="0.75855">
        <ele>1867.98</ele>
        <time>2018-06-26T10:18:45Z</time>
      </trkpt>
      <trkpt lat="42.94336" lon="0.75875">
        <ele>1866.54</ele>
        <time>2018-06-26T10:19:00Z</time>
      </trkpt>
      <trkpt lat="42.94336" lon="0.75898">
        <ele>1864.13</ele>
        <time>2018-06-26T10:19:15Z</time>
      </trkpt>
      <trkpt lat="42.94338" lon="0.75924">
        <ele>1863.65</ele>
        <time>2018-06-26T10:19:31Z</time>
      </trkpt>
      <trkpt lat="42.94348" lon="0.7595">
        <ele>1862.21</ele>
        <time>2018-06-26T10:19:50Z</time>
      </trkpt>
      <trkpt lat="42.94354" lon="0.75956">
        <ele>1862.69</ele>
        <time>2018-06-26T10:19:58Z</time>
      </trkpt>
      <trkpt lat="42.9436" lon="0.75966">
        <ele>1861.73</ele>
        <time>2018-06-26T10:20:07Z</time>
      </trkpt>
      <trkpt lat="42.94364" lon="0.75982">
        <ele>1862.21</ele>
        <time>2018-06-26T10:20:19Z</time>
      </trkpt>
      <trkpt lat="42.94364" lon="0.75989">
        <ele>1862.69</ele>
        <time>2018-06-26T10:20:24Z</time>
      </trkpt>
      <trkpt lat="42.94372" lon="0.76004">
        <ele>1862.69</ele>
        <time>2018-06-26T10:20:35Z</time>
      </trkpt>
      <trkpt lat="42.94383" lon="0.76022">
        <ele>1862.21</ele>
        <time>2018-06-26T10:20:50Z</time>
      </trkpt>
      <trkpt lat="42.94389" lon="0.76034">
        <ele>1861.73</ele>
        <time>2018-06-26T10:21:03Z</time>
      </trkpt>
      <trkpt lat="42.94397" lon="0.76045">
        <ele>1860.77</ele>
        <time>2018-06-26T10:21:16Z</time>
      </trkpt>
      <trkpt lat="42.94403" lon="0.76057">
        <ele>1861.25</ele>
        <time>2018-06-26T10:21:30Z</time>
      </trkpt>
      <trkpt lat="42.94406" lon="0.76062">
        <ele>1860.29</ele>
        <time>2018-06-26T10:21:41Z</time>
      </trkpt>
      <trkpt lat="42.94406" lon="0.76064">
        <ele>1860.29</ele>
        <time>2018-06-26T10:21:43Z</time>
      </trkpt>
      <trkpt lat="42.9441" lon="0.76073">
        <ele>1859.33</ele>
        <time>2018-06-26T10:21:54Z</time>
      </trkpt>
      <trkpt lat="42.94413" lon="0.76085">
        <ele>1859.33</ele>
        <time>2018-06-26T10:22:07Z</time>
      </trkpt>
      <trkpt lat="42.94414" lon="0.76091">
        <ele>1858.37</ele>
        <time>2018-06-26T10:22:13Z</time>
      </trkpt>
      <trkpt lat="42.94417" lon="0.76098">
        <ele>1857.89</ele>
        <time>2018-06-26T10:22:20Z</time>
      </trkpt>
      <trkpt lat="42.94423" lon="0.76124">
        <ele>1855</ele>
        <time>2018-06-26T10:22:40Z</time>
      </trkpt>
      <trkpt lat="42.94426" lon="0.76141">
        <ele>1852.6</ele>
        <time>2018-06-26T10:22:55Z</time>
      </trkpt>
      <trkpt lat="42.94428" lon="0.76148">
        <ele>1851.64</ele>
        <time>2018-06-26T10:23:01Z</time>
      </trkpt>
      <trkpt lat="42.9443" lon="0.76153">
        <ele>1851.64</ele>
        <time>2018-06-26T10:23:05Z</time>
      </trkpt>
      <trkpt lat="42.94437" lon="0.76172">
        <ele>1851.64</ele>
        <time>2018-06-26T10:23:20Z</time>
      </trkpt>
      <trkpt lat="42.94445" lon="0.76181">
        <ele>1852.6</ele>
        <time>2018-06-26T10:23:29Z</time>
      </trkpt>
      <trkpt lat="42.94448" lon="0.76196">
        <ele>1854.04</ele>
        <time>2018-06-26T10:23:43Z</time>
      </trkpt>
      <trkpt lat="42.94452" lon="0.76213">
        <ele>1856.44</ele>
        <time>2018-06-26T10:23:58Z</time>
      </trkpt>
      <trkpt lat="42.94456" lon="0.76227">
        <ele>1857.89</ele>
        <time>2018-06-26T10:24:10Z</time>
      </trkpt>
      <trkpt lat="42.94465" lon="0.76238">
        <ele>1859.33</ele>
        <time>2018-06-26T10:24:25Z</time>
      </trkpt>
      <trkpt lat="42.94468" lon="0.76241">
        <ele>1859.81</ele>
        <time>2018-06-26T10:24:29Z</time>
      </trkpt>
      <trkpt lat="42.94478" lon="0.76256">
        <ele>1860.77</ele>
        <time>2018-06-26T10:24:43Z</time>
      </trkpt>
      <trkpt lat="42.94481" lon="0.76259">
        <ele>1860.77</ele>
        <time>2018-06-26T10:24:47Z</time>
      </trkpt>
      <trkpt lat="42.94491" lon="0.76269">
        <ele>1863.65</ele>
        <time>2018-06-26T10:25:02Z</time>
      </trkpt>
      <trkpt lat="42.945" lon="0.76279">
        <ele>1866.06</ele>
        <time>2018-06-26T10:25:16Z</time>
      </trkpt>
      <trkpt lat="42.94504" lon="0.76283">
        <ele>1867.02</ele>
        <time>2018-06-26T10:25:21Z</time>
      </trkpt>
      <trkpt lat="42.94509" lon="0.76303">
        <ele>1866.54</ele>
        <time>2018-06-26T10:25:36Z</time>
      </trkpt>
      <trkpt lat="42.9451" lon="0.76306">
        <ele>1867.02</ele>
        <time>2018-06-26T10:25:39Z</time>
      </trkpt>
      <trkpt lat="42.94512" lon="0.76312">
        <ele>1867.02</ele>
        <time>2018-06-26T10:25:43Z</time>
      </trkpt>
      <trkpt lat="42.94513" lon="0.76314">
        <ele>1867.02</ele>
        <time>2018-06-26T10:25:45Z</time>
      </trkpt>
      <trkpt lat="42.94515" lon="0.7632">
        <ele>1867.5</ele>
        <time>2018-06-26T10:25:50Z</time>
      </trkpt>
      <trkpt lat="42.94526" lon="0.76335">
        <ele>1868.46</ele>
        <time>2018-06-26T10:26:05Z</time>
      </trkpt>
      <trkpt lat="42.94536" lon="0.76342">
        <ele>1868.94</ele>
        <time>2018-06-26T10:26:14Z</time>
      </trkpt>
      <trkpt lat="42.94538" lon="0.76346">
        <ele>1869.42</ele>
        <time>2018-06-26T10:26:17Z</time>
      </trkpt>
      <trkpt lat="42.94548" lon="0.76359">
        <ele>1869.9</ele>
        <time>2018-06-26T10:26:31Z</time>
      </trkpt>
      <trkpt lat="42.94554" lon="0.76374">
        <ele>1871.82</ele>
        <time>2018-06-26T10:26:47Z</time>
      </trkpt>
      <trkpt lat="42.94555" lon="0.76384">
        <ele>1874.23</ele>
        <time>2018-06-26T10:27:00Z</time>
      </trkpt>
      <trkpt lat="42.94559" lon="0.76394">
        <ele>1876.15</ele>
        <time>2018-06-26T10:27:12Z</time>
      </trkpt>
      <trkpt lat="42.94565" lon="0.76404">
        <ele>1877.59</ele>
        <time>2018-06-26T10:27:27Z</time>
      </trkpt>
      <trkpt lat="42.94567" lon="0.76409">
        <ele>1879.03</ele>
        <time>2018-06-26T10:27:35Z</time>
      </trkpt>
      <trkpt lat="42.9457" lon="0.76419">
        <ele>1879.51</ele>
        <time>2018-06-26T10:27:43Z</time>
      </trkpt>
      <trkpt lat="42.94577" lon="0.76431">
        <ele>1880.48</ele>
        <time>2018-06-26T10:27:57Z</time>
      </trkpt>
      <trkpt lat="42.94579" lon="0.76432">
        <ele>1880.96</ele>
        <time>2018-06-26T10:27:59Z</time>
      </trkpt>
      <trkpt lat="42.94589" lon="0.76442">
        <ele>1881.44</ele>
        <time>2018-06-26T10:28:14Z</time>
      </trkpt>
      <trkpt lat="42.94593" lon="0.76452">
        <ele>1882.4</ele>
        <time>2018-06-26T10:28:29Z</time>
      </trkpt>
      <trkpt lat="42.94595" lon="0.76456">
        <ele>1882.88</ele>
        <time>2018-06-26T10:28:33Z</time>
      </trkpt>
      <trkpt lat="42.94599" lon="0.76466">
        <ele>1884.8</ele>
        <time>2018-06-26T10:28:45Z</time>
      </trkpt>
      <trkpt lat="42.94602" lon="0.76477">
        <ele>1886.24</ele>
        <time>2018-06-26T10:28:58Z</time>
      </trkpt>
      <trkpt lat="42.94607" lon="0.76486">
        <ele>1886.72</ele>
        <time>2018-06-26T10:29:11Z</time>
      </trkpt>
      <trkpt lat="42.94612" lon="0.76496">
        <ele>1887.69</ele>
        <time>2018-06-26T10:29:22Z</time>
      </trkpt>
      <trkpt lat="42.94615" lon="0.76508">
        <ele>1889.61</ele>
        <time>2018-06-26T10:29:35Z</time>
      </trkpt>
      <trkpt lat="42.94621" lon="0.76519">
        <ele>1890.57</ele>
        <time>2018-06-26T10:29:48Z</time>
      </trkpt>
      <trkpt lat="42.94622" lon="0.76527">
        <ele>1892.01</ele>
        <time>2018-06-26T10:29:59Z</time>
      </trkpt>
      <trkpt lat="42.94624" lon="0.76529">
        <ele>1892.97</ele>
        <time>2018-06-26T10:30:01Z</time>
      </trkpt>
      <trkpt lat="42.94626" lon="0.76542">
        <ele>1894.9</ele>
        <time>2018-06-26T10:30:16Z</time>
      </trkpt>
      <trkpt lat="42.94632" lon="0.76553">
        <ele>1897.3</ele>
        <time>2018-06-26T10:30:32Z</time>
      </trkpt>
      <trkpt lat="42.94638" lon="0.76563">
        <ele>1899.22</ele>
        <time>2018-06-26T10:30:47Z</time>
      </trkpt>
      <trkpt lat="42.94647" lon="0.76569">
        <ele>1900.66</ele>
        <time>2018-06-26T10:31:02Z</time>
      </trkpt>
      <trkpt lat="42.94652" lon="0.76573">
        <ele>1903.07</ele>
        <time>2018-06-26T10:31:16Z</time>
      </trkpt>
      <trkpt lat="42.94647" lon="0.76584">
        <ele>1905.47</ele>
        <time>2018-06-26T10:31:33Z</time>
      </trkpt>
      <trkpt lat="42.94653" lon="0.76592">
        <ele>1907.87</ele>
        <time>2018-06-26T10:31:48Z</time>
      </trkpt>
      <trkpt lat="42.94656" lon="0.76599">
        <ele>1909.32</ele>
        <time>2018-06-26T10:32:03Z</time>
      </trkpt>
      <trkpt lat="42.94656" lon="0.76595">
        <ele>1909.32</ele>
        <time>2018-06-26T10:36:04Z</time>
      </trkpt>
      <trkpt lat="42.94655" lon="0.76592">
        <ele>1909.8</ele>
        <time>2018-06-26T10:36:44Z</time>
      </trkpt>
      <trkpt lat="42.94663" lon="0.76592">
        <ele>1910.28</ele>
        <time>2018-06-26T10:37:14Z</time>
      </trkpt>
      <trkpt lat="42.94671" lon="0.76587">
        <ele>1907.87</ele>
        <time>2018-06-26T10:37:29Z</time>
      </trkpt>
      <trkpt lat="42.94676" lon="0.76585">
        <ele>1906.43</ele>
        <time>2018-06-26T10:37:42Z</time>
      </trkpt>
      <trkpt lat="42.94676" lon="0.76585">
        <ele>1906.43</ele>
        <time>2018-06-26T10:38:12Z</time>
      </trkpt>
      <trkpt lat="42.94677" lon="0.76585">
        <ele>1905.95</ele>
        <time>2018-06-26T10:38:32Z</time>
      </trkpt>
      <trkpt lat="42.94678" lon="0.76585">
        <ele>1904.99</ele>
        <time>2018-06-26T10:38:44Z</time>
      </trkpt>
      <trkpt lat="42.94679" lon="0.76585">
        <ele>1904.99</ele>
        <time>2018-06-26T10:39:04Z</time>
      </trkpt>
      <trkpt lat="42.9468" lon="0.76586">
        <ele>1905.47</ele>
        <time>2018-06-26T10:39:31Z</time>
      </trkpt>
      <trkpt lat="42.9468" lon="0.76587">
        <ele>1905.47</ele>
        <time>2018-06-26T10:40:10Z</time>
      </trkpt>
      <trkpt lat="42.94681" lon="0.76587">
        <ele>1905.47</ele>
        <time>2018-06-26T10:40:32Z</time>
      </trkpt>
      <trkpt lat="42.9468" lon="0.76587">
        <ele>1905.95</ele>
        <time>2018-06-26T10:40:55Z</time>
      </trkpt>
      <trkpt lat="42.94681" lon="0.76587">
        <ele>1905.95</ele>
        <time>2018-06-26T10:41:16Z</time>
      </trkpt>
      <trkpt lat="42.9468" lon="0.76587">
        <ele>1905.95</ele>
        <time>2018-06-26T10:41:43Z</time>
      </trkpt>
      <trkpt lat="42.94681" lon="0.76587">
        <ele>1905.95</ele>
        <time>2018-06-26T10:42:08Z</time>
      </trkpt>
      <trkpt lat="42.94681" lon="0.76587">
        <ele>1905.95</ele>
        <time>2018-06-26T10:42:32Z</time>
      </trkpt>
      <trkpt lat="42.9468" lon="0.76587">
        <ele>1906.43</ele>
        <time>2018-06-26T10:43:01Z</time>
      </trkpt>
      <trkpt lat="42.94681" lon="0.76587">
        <ele>1905.95</ele>
        <time>2018-06-26T10:43:21Z</time>
      </trkpt>
      <trkpt lat="42.94681" lon="0.76587">
        <ele>1906.43</ele>
        <time>2018-06-26T10:43:54Z</time>
      </trkpt>
      <trkpt lat="42.94681" lon="0.76587">
        <ele>1906.43</ele>
        <time>2018-06-26T10:44:27Z</time>
      </trkpt>
      <trkpt lat="42.94681" lon="0.76588">
        <ele>1906.43</ele>
        <time>2018-06-26T10:44:50Z</time>
      </trkpt>
      <trkpt lat="42.94681" lon="0.76588">
        <ele>1906.43</ele>
        <time>2018-06-26T10:46:09Z</time>
      </trkpt>
      <trkpt lat="42.94681" lon="0.76588">
        <ele>1906.43</ele>
        <time>2018-06-26T10:46:37Z</time>
      </trkpt>
      <trkpt lat="42.94681" lon="0.76588">
        <ele>1906.43</ele>
        <time>2018-06-26T10:47:11Z</time>
      </trkpt>
      <trkpt lat="42.94681" lon="0.76588">
        <ele>1906.91</ele>
        <time>2018-06-26T10:47:43Z</time>
      </trkpt>
      <trkpt lat="42.94681" lon="0.76588">
        <ele>1907.39</ele>
        <time>2018-06-26T10:48:39Z</time>
      </trkpt>
      <trkpt lat="42.9468" lon="0.76587">
        <ele>1907.39</ele>
        <time>2018-06-26T10:50:44Z</time>
      </trkpt>
      <trkpt lat="42.94681" lon="0.76587">
        <ele>1906.91</ele>
        <time>2018-06-26T10:51:09Z</time>
      </trkpt>
      <trkpt lat="42.9468" lon="0.76586">
        <ele>1907.39</ele>
        <time>2018-06-26T10:51:45Z</time>
      </trkpt>
      <trkpt lat="42.9468" lon="0.76585">
        <ele>1907.39</ele>
        <time>2018-06-26T10:52:18Z</time>
      </trkpt>
      <trkpt lat="42.94679" lon="0.76585">
        <ele>1907.39</ele>
        <time>2018-06-26T10:52:50Z</time>
      </trkpt>
      <trkpt lat="42.9468" lon="0.76584">
        <ele>1907.39</ele>
        <time>2018-06-26T10:53:15Z</time>
      </trkpt>
      <trkpt lat="42.94679" lon="0.76584">
        <ele>1907.39</ele>
        <time>2018-06-26T10:54:01Z</time>
      </trkpt>
      <trkpt lat="42.9468" lon="0.76584">
        <ele>1908.35</ele>
        <time>2018-06-26T10:55:12Z</time>
      </trkpt>
      <trkpt lat="42.94682" lon="0.76584">
        <ele>1908.35</ele>
        <time>2018-06-26T10:56:11Z</time>
      </trkpt>
      <trkpt lat="42.9468" lon="0.76583">
        <ele>1908.83</ele>
        <time>2018-06-26T10:58:20Z</time>
      </trkpt>
      <trkpt lat="42.94681" lon="0.76588">
        <ele>1909.8</ele>
        <time>2018-06-26T11:02:03Z</time>
      </trkpt>
      <trkpt lat="42.94681" lon="0.76588">
        <ele>1909.8</ele>
        <time>2018-06-26T11:02:35Z</time>
      </trkpt>
      <trkpt lat="42.94681" lon="0.76588">
        <ele>1909.8</ele>
        <time>2018-06-26T11:04:25Z</time>
      </trkpt>
      <trkpt lat="42.94681" lon="0.76588">
        <ele>1909.8</ele>
        <time>2018-06-26T11:04:52Z</time>
      </trkpt>
      <trkpt lat="42.9468" lon="0.76588">
        <ele>1910.28</ele>
        <time>2018-06-26T11:05:37Z</time>
      </trkpt>
      <trkpt lat="42.94681" lon="0.76587">
        <ele>1909.8</ele>
        <time>2018-06-26T11:06:24Z</time>
      </trkpt>
      <trkpt lat="42.9468" lon="0.76587">
        <ele>1910.28</ele>
        <time>2018-06-26T11:08:33Z</time>
      </trkpt>
      <trkpt lat="42.94683" lon="0.76591">
        <ele>1910.28</ele>
        <time>2018-06-26T11:09:54Z</time>
      </trkpt>
      <trkpt lat="42.9468" lon="0.76585">
        <ele>1910.76</ele>
        <time>2018-06-26T11:10:46Z</time>
      </trkpt>
      <trkpt lat="42.9468" lon="0.76585">
        <ele>1910.28</ele>
        <time>2018-06-26T11:10:47Z</time>
      </trkpt>
      <trkpt lat="42.94677" lon="0.76584">
        <ele>1910.76</ele>
        <time>2018-06-26T11:10:58Z</time>
      </trkpt>
      <trkpt lat="42.94672" lon="0.76583">
        <ele>1913.16</ele>
        <time>2018-06-26T11:11:10Z</time>
      </trkpt>
      <trkpt lat="42.94668" lon="0.76584">
        <ele>1912.68</ele>
        <time>2018-06-26T11:11:15Z</time>
      </trkpt>
      <trkpt lat="42.94664" lon="0.76585">
        <ele>1913.16</ele>
        <time>2018-06-26T11:11:19Z</time>
      </trkpt>
      <trkpt lat="42.94661" lon="0.76588">
        <ele>1914.12</ele>
        <time>2018-06-26T11:11:23Z</time>
      </trkpt>
      <trkpt lat="42.94657" lon="0.76589">
        <ele>1914.12</ele>
        <time>2018-06-26T11:11:36Z</time>
      </trkpt>
      <trkpt lat="42.94656" lon="0.76585">
        <ele>1914.6</ele>
        <time>2018-06-26T11:12:30Z</time>
      </trkpt>
      <trkpt lat="42.94656" lon="0.76585">
        <ele>1914.6</ele>
        <time>2018-06-26T11:12:43Z</time>
      </trkpt>
      <trkpt lat="42.94656" lon="0.76587">
        <ele>1914.6</ele>
        <time>2018-06-26T11:12:55Z</time>
      </trkpt>
      <trkpt lat="42.94651" lon="0.76587">
        <ele>1913.64</ele>
        <time>2018-06-26T11:13:10Z</time>
      </trkpt>
      <trkpt lat="42.94646" lon="0.76581">
        <ele>1911.72</ele>
        <time>2018-06-26T11:13:24Z</time>
      </trkpt>
      <trkpt lat="42.94646" lon="0.76579">
        <ele>1910.76</ele>
        <time>2018-06-26T11:13:27Z</time>
      </trkpt>
      <trkpt lat="42.94641" lon="0.76577">
        <ele>1908.83</ele>
        <time>2018-06-26T11:13:37Z</time>
      </trkpt>
      <trkpt lat="42.94639" lon="0.76577">
        <ele>1908.35</ele>
        <time>2018-06-26T11:13:41Z</time>
      </trkpt>
      <trkpt lat="42.94637" lon="0.76575">
        <ele>1907.87</ele>
        <time>2018-06-26T11:13:45Z</time>
      </trkpt>
      <trkpt lat="42.94634" lon="0.76569">
        <ele>1907.87</ele>
        <time>2018-06-26T11:13:50Z</time>
      </trkpt>
      <trkpt lat="42.94628" lon="0.76555">
        <ele>1905.95</ele>
        <time>2018-06-26T11:14:05Z</time>
      </trkpt>
      <trkpt lat="42.94624" lon="0.76545">
        <ele>1902.59</ele>
        <time>2018-06-26T11:14:17Z</time>
      </trkpt>
      <trkpt lat="42.94624" lon="0.76543">
        <ele>1902.11</ele>
        <time>2018-06-26T11:14:18Z</time>
      </trkpt>
      <trkpt lat="42.94625" lon="0.76538">
        <ele>1901.14</ele>
        <time>2018-06-26T11:14:22Z</time>
      </trkpt>
      <trkpt lat="42.94621" lon="0.76523">
        <ele>1898.74</ele>
        <time>2018-06-26T11:14:37Z</time>
      </trkpt>
      <trkpt lat="42.94616" lon="0.76519">
        <ele>1898.26</ele>
        <time>2018-06-26T11:14:51Z</time>
      </trkpt>
      <trkpt lat="42.94613" lon="0.76514">
        <ele>1897.78</ele>
        <time>2018-06-26T11:15:03Z</time>
      </trkpt>
      <trkpt lat="42.94614" lon="0.76512">
        <ele>1897.3</ele>
        <time>2018-06-26T11:15:17Z</time>
      </trkpt>
      <trkpt lat="42.94616" lon="0.76514">
        <ele>1896.82</ele>
        <time>2018-06-26T11:15:31Z</time>
      </trkpt>
      <trkpt lat="42.94615" lon="0.76509">
        <ele>1895.86</ele>
        <time>2018-06-26T11:15:44Z</time>
      </trkpt>
      <trkpt lat="42.94616" lon="0.76508">
        <ele>1895.38</ele>
        <time>2018-06-26T11:16:02Z</time>
      </trkpt>
      <trkpt lat="42.94614" lon="0.76513">
        <ele>1896.34</ele>
        <time>2018-06-26T11:16:19Z</time>
      </trkpt>
      <trkpt lat="42.94613" lon="0.76502">
        <ele>1894.9</ele>
        <time>2018-06-26T11:16:32Z</time>
      </trkpt>
      <trkpt lat="42.94611" lon="0.76494">
        <ele>1893.45</ele>
        <time>2018-06-26T11:16:39Z</time>
      </trkpt>
      <trkpt lat="42.94601" lon="0.76474">
        <ele>1892.49</ele>
        <time>2018-06-26T11:16:56Z</time>
      </trkpt>
      <trkpt lat="42.94599" lon="0.76467">
        <ele>1891.53</ele>
        <time>2018-06-26T11:17:01Z</time>
      </trkpt>
      <trkpt lat="42.94598" lon="0.76462">
        <ele>1891.05</ele>
        <time>2018-06-26T11:17:06Z</time>
      </trkpt>
      <trkpt lat="42.94595" lon="0.76456">
        <ele>1889.61</ele>
        <time>2018-06-26T11:17:11Z</time>
      </trkpt>
      <trkpt lat="42.94585" lon="0.76433">
        <ele>1886.72</ele>
        <time>2018-06-26T11:17:30Z</time>
      </trkpt>
      <trkpt lat="42.94577" lon="0.76428">
        <ele>1886.24</ele>
        <time>2018-06-26T11:17:38Z</time>
      </trkpt>
      <trkpt lat="42.94572" lon="0.76419">
        <ele>1885.28</ele>
        <time>2018-06-26T11:17:45Z</time>
      </trkpt>
      <trkpt lat="42.94566" lon="0.76406">
        <ele>1884.8</ele>
        <time>2018-06-26T11:17:55Z</time>
      </trkpt>
      <trkpt lat="42.94558" lon="0.76394">
        <ele>1882.4</ele>
        <time>2018-06-26T11:18:07Z</time>
      </trkpt>
      <trkpt lat="42.9455" lon="0.76376">
        <ele>1879.03</ele>
        <time>2018-06-26T11:18:24Z</time>
      </trkpt>
      <trkpt lat="42.94549" lon="0.76365">
        <ele>1877.11</ele>
        <time>2018-06-26T11:18:33Z</time>
      </trkpt>
      <trkpt lat="42.94546" lon="0.76361">
        <ele>1876.15</ele>
        <time>2018-06-26T11:18:37Z</time>
      </trkpt>
      <trkpt lat="42.94532" lon="0.7634">
        <ele>1874.71</ele>
        <time>2018-06-26T11:18:55Z</time>
      </trkpt>
      <trkpt lat="42.94515" lon="0.76321">
        <ele>1873.75</ele>
        <time>2018-06-26T11:19:12Z</time>
      </trkpt>
      <trkpt lat="42.94506" lon="0.76293">
        <ele>1872.79</ele>
        <time>2018-06-26T11:19:30Z</time>
      </trkpt>
      <trkpt lat="42.945" lon="0.76278">
        <ele>1872.79</ele>
        <time>2018-06-26T11:19:42Z</time>
      </trkpt>
      <trkpt lat="42.94487" lon="0.76262">
        <ele>1868.94</ele>
        <time>2018-06-26T11:19:57Z</time>
      </trkpt>
      <trkpt lat="42.9447" lon="0.7624">
        <ele>1866.06</ele>
        <time>2018-06-26T11:20:15Z</time>
      </trkpt>
      <trkpt lat="42.94456" lon="0.76214">
        <ele>1863.65</ele>
        <time>2018-06-26T11:20:34Z</time>
      </trkpt>
      <trkpt lat="42.94449" lon="0.76193">
        <ele>1860.77</ele>
        <time>2018-06-26T11:20:49Z</time>
      </trkpt>
      <trkpt lat="42.94446" lon="0.76185">
        <ele>1859.33</ele>
        <time>2018-06-26T11:20:55Z</time>
      </trkpt>
      <trkpt lat="42.94444" lon="0.76181">
        <ele>1858.85</ele>
        <time>2018-06-26T11:21:00Z</time>
      </trkpt>
      <trkpt lat="42.94429" lon="0.76161">
        <ele>1856.92</ele>
        <time>2018-06-26T11:21:18Z</time>
      </trkpt>
      <trkpt lat="42.94422" lon="0.76144">
        <ele>1857.89</ele>
        <time>2018-06-26T11:21:30Z</time>
      </trkpt>
      <trkpt lat="42.9442" lon="0.76133">
        <ele>1859.33</ele>
        <time>2018-06-26T11:21:39Z</time>
      </trkpt>
      <trkpt lat="42.94416" lon="0.7612">
        <ele>1861.73</ele>
        <time>2018-06-26T11:21:53Z</time>
      </trkpt>
      <trkpt lat="42.94418" lon="0.76112">
        <ele>1862.69</ele>
        <time>2018-06-26T11:22:09Z</time>
      </trkpt>
      <trkpt lat="42.94414" lon="0.76103">
        <ele>1865.58</ele>
        <time>2018-06-26T11:22:23Z</time>
      </trkpt>
      <trkpt lat="42.94408" lon="0.76087">
        <ele>1868.46</ele>
        <time>2018-06-26T11:22:41Z</time>
      </trkpt>
      <trkpt lat="42.94403" lon="0.76077">
        <ele>1870.86</ele>
        <time>2018-06-26T11:22:57Z</time>
      </trkpt>
      <trkpt lat="42.944" lon="0.76073">
        <ele>1872.3</ele>
        <time>2018-06-26T11:23:13Z</time>
      </trkpt>
      <trkpt lat="42.944" lon="0.76074">
        <ele>1872.3</ele>
        <time>2018-06-26T11:23:16Z</time>
      </trkpt>
      <trkpt lat="42.94391" lon="0.76064">
        <ele>1874.71</ele>
        <time>2018-06-26T11:23:30Z</time>
      </trkpt>
      <trkpt lat="42.94383" lon="0.76051">
        <ele>1876.15</ele>
        <time>2018-06-26T11:23:45Z</time>
      </trkpt>
      <trkpt lat="42.94379" lon="0.76042">
        <ele>1876.15</ele>
        <time>2018-06-26T11:23:53Z</time>
      </trkpt>
      <trkpt lat="42.9437" lon="0.76024">
        <ele>1876.15</ele>
        <time>2018-06-26T11:24:10Z</time>
      </trkpt>
      <trkpt lat="42.94359" lon="0.76009">
        <ele>1875.19</ele>
        <time>2018-06-26T11:24:25Z</time>
      </trkpt>
      <trkpt lat="42.9435" lon="0.75986">
        <ele>1875.67</ele>
        <time>2018-06-26T11:24:43Z</time>
      </trkpt>
      <trkpt lat="42.94342" lon="0.75976">
        <ele>1877.11</ele>
        <time>2018-06-26T11:24:57Z</time>
      </trkpt>
      <trkpt lat="42.94329" lon="0.75974">
        <ele>1879.51</ele>
        <time>2018-06-26T11:25:09Z</time>
      </trkpt>
      <trkpt lat="42.94321" lon="0.75966">
        <ele>1878.55</ele>
        <time>2018-06-26T11:25:22Z</time>
      </trkpt>
      <trkpt lat="42.94307" lon="0.75955">
        <ele>1875.67</ele>
        <time>2018-06-26T11:25:38Z</time>
      </trkpt>
      <trkpt lat="42.94295" lon="0.7594">
        <ele>1877.11</ele>
        <time>2018-06-26T11:25:52Z</time>
      </trkpt>
      <trkpt lat="42.94286" lon="0.75924">
        <ele>1880.48</ele>
        <time>2018-06-26T11:26:06Z</time>
      </trkpt>
      <trkpt lat="42.94284" lon="0.7591">
        <ele>1882.88</ele>
        <time>2018-06-26T11:26:19Z</time>
      </trkpt>
      <trkpt lat="42.9428" lon="0.75901">
        <ele>1885.28</ele>
        <time>2018-06-26T11:26:31Z</time>
      </trkpt>
      <trkpt lat="42.94277" lon="0.75891">
        <ele>1888.17</ele>
        <time>2018-06-26T11:26:44Z</time>
      </trkpt>
      <trkpt lat="42.94281" lon="0.75882">
        <ele>1891.05</ele>
        <time>2018-06-26T11:26:58Z</time>
      </trkpt>
      <trkpt lat="42.94281" lon="0.7587">
        <ele>1893.45</ele>
        <time>2018-06-26T11:27:12Z</time>
      </trkpt>
      <trkpt lat="42.94279" lon="0.75859">
        <ele>1895.86</ele>
        <time>2018-06-26T11:27:26Z</time>
      </trkpt>
      <trkpt lat="42.94275" lon="0.75849">
        <ele>1898.74</ele>
        <time>2018-06-26T11:27:42Z</time>
      </trkpt>
      <trkpt lat="42.94273" lon="0.75841">
        <ele>1901.14</ele>
        <time>2018-06-26T11:27:56Z</time>
      </trkpt>
      <trkpt lat="42.9428" lon="0.75845">
        <ele>1901.14</ele>
        <time>2018-06-26T11:28:46Z</time>
      </trkpt>
      <trkpt lat="42.94278" lon="0.75844">
        <ele>1905.95</ele>
        <time>2018-06-26T11:28:53Z</time>
      </trkpt>
      <trkpt lat="42.94278" lon="0.75843">
        <ele>1902.59</ele>
        <time>2018-06-26T11:28:55Z</time>
      </trkpt>
      <trkpt lat="42.94278" lon="0.75845">
        <ele>1903.55</ele>
        <time>2018-06-26T11:29:25Z</time>
      </trkpt>
      <trkpt lat="42.94279" lon="0.75845">
        <ele>1900.18</ele>
        <time>2018-06-26T11:29:28Z</time>
      </trkpt>
      <trkpt lat="42.94279" lon="0.75845">
        <ele>1903.07</ele>
        <time>2018-06-26T11:29:29Z</time>
      </trkpt>
      <trkpt lat="42.9428" lon="0.75845">
        <ele>1902.59</ele>
        <time>2018-06-26T11:29:34Z</time>
      </trkpt>
      <trkpt lat="42.94279" lon="0.75845">
        <ele>1896.34</ele>
        <time>2018-06-26T11:29:50Z</time>
      </trkpt>
      <trkpt lat="42.94279" lon="0.75845">
        <ele>1903.55</ele>
        <time>2018-06-26T11:29:51Z</time>
      </trkpt>
      <trkpt lat="42.94279" lon="0.75844">
        <ele>1899.7</ele>
        <time>2018-06-26T11:30:00Z</time>
      </trkpt>
      <trkpt lat="42.94279" lon="0.75844">
        <ele>1905.47</ele>
        <time>2018-06-26T11:30:01Z</time>
      </trkpt>
      <trkpt lat="42.94279" lon="0.75843">
        <ele>1903.55</ele>
        <time>2018-06-26T11:30:02Z</time>
      </trkpt>
      <trkpt lat="42.94279" lon="0.75843">
        <ele>1903.07</ele>
        <time>2018-06-26T11:30:04Z</time>
      </trkpt>
      <trkpt lat="42.94281" lon="0.75837">
        <ele>1902.59</ele>
        <time>2018-06-26T11:30:52Z</time>
      </trkpt>
      <trkpt lat="42.9428" lon="0.75838">
        <ele>1903.07</ele>
        <time>2018-06-26T11:32:27Z</time>
      </trkpt>
      <trkpt lat="42.94278" lon="0.75835">
        <ele>1901.63</ele>
        <time>2018-06-26T11:36:55Z</time>
      </trkpt>
      <trkpt lat="42.94273" lon="0.75835">
        <ele>1900.66</ele>
        <time>2018-06-26T11:38:57Z</time>
      </trkpt>
      <trkpt lat="42.94273" lon="0.75835">
        <ele>1899.7</ele>
        <time>2018-06-26T11:39:49Z</time>
      </trkpt>
      <trkpt lat="42.94273" lon="0.75834">
        <ele>1901.14</ele>
        <time>2018-06-26T11:40:52Z</time>
      </trkpt>
      <trkpt lat="42.94272" lon="0.75834">
        <ele>1897.78</ele>
        <time>2018-06-26T11:41:07Z</time>
      </trkpt>
      <trkpt lat="42.94272" lon="0.75834">
        <ele>1901.14</ele>
        <time>2018-06-26T11:41:08Z</time>
      </trkpt>
      <trkpt lat="42.94272" lon="0.75834">
        <ele>1900.18</ele>
        <time>2018-06-26T11:41:41Z</time>
      </trkpt>
      <trkpt lat="42.94272" lon="0.75833">
        <ele>1899.22</ele>
        <time>2018-06-26T11:42:52Z</time>
      </trkpt>
      <trkpt lat="42.9427" lon="0.75835">
        <ele>1899.7</ele>
        <time>2018-06-26T11:45:01Z</time>
      </trkpt>
      <trkpt lat="42.94266" lon="0.75832">
        <ele>1898.74</ele>
        <time>2018-06-26T11:45:16Z</time>
      </trkpt>
      <trkpt lat="42.94254" lon="0.7583">
        <ele>1896.34</ele>
        <time>2018-06-26T11:45:28Z</time>
      </trkpt>
      <trkpt lat="42.94247" lon="0.75828">
        <ele>1894.9</ele>
        <time>2018-06-26T11:45:35Z</time>
      </trkpt>
      <trkpt lat="42.94239" lon="0.75824">
        <ele>1890.57</ele>
        <time>2018-06-26T11:45:44Z</time>
      </trkpt>
      <trkpt lat="42.94235" lon="0.75824">
        <ele>1892.49</ele>
        <time>2018-06-26T11:45:47Z</time>
      </trkpt>
      <trkpt lat="42.94222" lon="0.75814">
        <ele>1890.57</ele>
        <time>2018-06-26T11:46:04Z</time>
      </trkpt>
      <trkpt lat="42.94218" lon="0.7581">
        <ele>1887.69</ele>
        <time>2018-06-26T11:46:17Z</time>
      </trkpt>
      <trkpt lat="42.94213" lon="0.75799">
        <ele>1884.32</ele>
        <time>2018-06-26T11:46:30Z</time>
      </trkpt>
      <trkpt lat="42.94205" lon="0.75797">
        <ele>1881.44</ele>
        <time>2018-06-26T11:46:46Z</time>
      </trkpt>
      <trkpt lat="42.94197" lon="0.75792">
        <ele>1878.55</ele>
        <time>2018-06-26T11:46:59Z</time>
      </trkpt>
      <trkpt lat="42.94191" lon="0.75788">
        <ele>1875.67</ele>
        <time>2018-06-26T11:47:09Z</time>
      </trkpt>
      <trkpt lat="42.94185" lon="0.75785">
        <ele>1872.3</ele>
        <time>2018-06-26T11:47:19Z</time>
      </trkpt>
      <trkpt lat="42.94179" lon="0.75779">
        <ele>1869.42</ele>
        <time>2018-06-26T11:47:30Z</time>
      </trkpt>
      <trkpt lat="42.94172" lon="0.75773">
        <ele>1866.54</ele>
        <time>2018-06-26T11:47:41Z</time>
      </trkpt>
      <trkpt lat="42.94168" lon="0.75766">
        <ele>1863.17</ele>
        <time>2018-06-26T11:47:53Z</time>
      </trkpt>
      <trkpt lat="42.94159" lon="0.75763">
        <ele>1860.29</ele>
        <time>2018-06-26T11:48:06Z</time>
      </trkpt>
      <trkpt lat="42.94152" lon="0.75758">
        <ele>1856.92</ele>
        <time>2018-06-26T11:48:19Z</time>
      </trkpt>
      <trkpt lat="42.94145" lon="0.75756">
        <ele>1854.04</ele>
        <time>2018-06-26T11:48:34Z</time>
      </trkpt>
      <trkpt lat="42.94137" lon="0.75757">
        <ele>1851.16</ele>
        <time>2018-06-26T11:48:48Z</time>
      </trkpt>
      <trkpt lat="42.94133" lon="0.75752">
        <ele>1849.23</ele>
        <time>2018-06-26T11:48:57Z</time>
      </trkpt>
      <trkpt lat="42.94129" lon="0.75743">
        <ele>1845.87</ele>
        <time>2018-06-26T11:49:10Z</time>
      </trkpt>
      <trkpt lat="42.94127" lon="0.7574">
        <ele>1844.43</ele>
        <time>2018-06-26T11:49:14Z</time>
      </trkpt>
      <trkpt lat="42.94123" lon="0.75732">
        <ele>1841.54</ele>
        <time>2018-06-26T11:49:27Z</time>
      </trkpt>
      <trkpt lat="42.94118" lon="0.75727">
        <ele>1839.14</ele>
        <time>2018-06-26T11:49:40Z</time>
      </trkpt>
      <trkpt lat="42.94114" lon="0.75722">
        <ele>1835.77</ele>
        <time>2018-06-26T11:49:53Z</time>
      </trkpt>
      <trkpt lat="42.94107" lon="0.75718">
        <ele>1832.89</ele>
        <time>2018-06-26T11:50:04Z</time>
      </trkpt>
      <trkpt lat="42.941" lon="0.75715">
        <ele>1829.53</ele>
        <time>2018-06-26T11:50:18Z</time>
      </trkpt>
      <trkpt lat="42.94094" lon="0.75709">
        <ele>1826.16</ele>
        <time>2018-06-26T11:50:30Z</time>
      </trkpt>
      <trkpt lat="42.94093" lon="0.75705">
        <ele>1824.24</ele>
        <time>2018-06-26T11:50:43Z</time>
      </trkpt>
      <trkpt lat="42.94084" lon="0.75707">
        <ele>1821.84</ele>
        <time>2018-06-26T11:50:59Z</time>
      </trkpt>
      <trkpt lat="42.94083" lon="0.75705">
        <ele>1821.84</ele>
        <time>2018-06-26T11:51:03Z</time>
      </trkpt>
      <trkpt lat="42.9408" lon="0.75703">
        <ele>1819.91</ele>
        <time>2018-06-26T11:51:08Z</time>
      </trkpt>
      <trkpt lat="42.94065" lon="0.75696">
        <ele>1816.55</ele>
        <time>2018-06-26T11:51:22Z</time>
      </trkpt>
      <trkpt lat="42.94058" lon="0.75684">
        <ele>1813.18</ele>
        <time>2018-06-26T11:51:32Z</time>
      </trkpt>
      <trkpt lat="42.94058" lon="0.75683">
        <ele>1812.7</ele>
        <time>2018-06-26T11:51:33Z</time>
      </trkpt>
      <trkpt lat="42.94045" lon="0.7567">
        <ele>1809.82</ele>
        <time>2018-06-26T11:51:48Z</time>
      </trkpt>
      <trkpt lat="42.94043" lon="0.75668">
        <ele>1809.34</ele>
        <time>2018-06-26T11:51:50Z</time>
      </trkpt>
      <trkpt lat="42.94037" lon="0.75654">
        <ele>1805.49</ele>
        <time>2018-06-26T11:52:02Z</time>
      </trkpt>
      <trkpt lat="42.94031" lon="0.75648">
        <ele>1804.05</ele>
        <time>2018-06-26T11:52:09Z</time>
      </trkpt>
      <trkpt lat="42.94017" lon="0.75643">
        <ele>1803.09</ele>
        <time>2018-06-26T11:52:22Z</time>
      </trkpt>
      <trkpt lat="42.94013" lon="0.75639">
        <ele>1802.61</ele>
        <time>2018-06-26T11:52:28Z</time>
      </trkpt>
      <trkpt lat="42.94011" lon="0.75636">
        <ele>1802.13</ele>
        <time>2018-06-26T11:52:32Z</time>
      </trkpt>
      <trkpt lat="42.94007" lon="0.75635">
        <ele>1801.17</ele>
        <time>2018-06-26T11:52:36Z</time>
      </trkpt>
      <trkpt lat="42.93993" lon="0.75629">
        <ele>1799.73</ele>
        <time>2018-06-26T11:52:51Z</time>
      </trkpt>
      <trkpt lat="42.93983" lon="0.75617">
        <ele>1799.24</ele>
        <time>2018-06-26T11:53:03Z</time>
      </trkpt>
      <trkpt lat="42.93978" lon="0.75608">
        <ele>1797.8</ele>
        <time>2018-06-26T11:53:17Z</time>
      </trkpt>
      <trkpt lat="42.93978" lon="0.75608">
        <ele>1797.8</ele>
        <time>2018-06-26T11:53:18Z</time>
      </trkpt>
      <trkpt lat="42.93974" lon="0.75604">
        <ele>1797.8</ele>
        <time>2018-06-26T11:53:23Z</time>
      </trkpt>
      <trkpt lat="42.93966" lon="0.75601">
        <ele>1797.32</ele>
        <time>2018-06-26T11:53:30Z</time>
      </trkpt>
      <trkpt lat="42.93958" lon="0.75591">
        <ele>1796.36</ele>
        <time>2018-06-26T11:53:39Z</time>
      </trkpt>
      <trkpt lat="42.93952" lon="0.75589">
        <ele>1795.4</ele>
        <time>2018-06-26T11:53:46Z</time>
      </trkpt>
      <trkpt lat="42.93947" lon="0.75584">
        <ele>1793.96</ele>
        <time>2018-06-26T11:53:52Z</time>
      </trkpt>
      <trkpt lat="42.93937" lon="0.75574">
        <ele>1790.59</ele>
        <time>2018-06-26T11:54:04Z</time>
      </trkpt>
      <trkpt lat="42.93931" lon="0.75571">
        <ele>1789.15</ele>
        <time>2018-06-26T11:54:10Z</time>
      </trkpt>
      <trkpt lat="42.93922" lon="0.75565">
        <ele>1785.79</ele>
        <time>2018-06-26T11:54:22Z</time>
      </trkpt>
      <trkpt lat="42.93915" lon="0.75559">
        <ele>1782.9</ele>
        <time>2018-06-26T11:54:33Z</time>
      </trkpt>
      <trkpt lat="42.9391" lon="0.75555">
        <ele>1779.06</ele>
        <time>2018-06-26T11:54:44Z</time>
      </trkpt>
      <trkpt lat="42.93902" lon="0.75548">
        <ele>1776.17</ele>
        <time>2018-06-26T11:54:55Z</time>
      </trkpt>
      <trkpt lat="42.93895" lon="0.75541">
        <ele>1772.81</ele>
        <time>2018-06-26T11:55:06Z</time>
      </trkpt>
      <trkpt lat="42.93888" lon="0.75537">
        <ele>1769.92</ele>
        <time>2018-06-26T11:55:16Z</time>
      </trkpt>
      <trkpt lat="42.93882" lon="0.75532">
        <ele>1766.56</ele>
        <time>2018-06-26T11:55:28Z</time>
      </trkpt>
      <trkpt lat="42.93876" lon="0.75527">
        <ele>1763.68</ele>
        <time>2018-06-26T11:55:40Z</time>
      </trkpt>
      <trkpt lat="42.93869" lon="0.75525">
        <ele>1760.31</ele>
        <time>2018-06-26T11:55:52Z</time>
      </trkpt>
      <trkpt lat="42.93866" lon="0.75522">
        <ele>1757.91</ele>
        <time>2018-06-26T11:55:58Z</time>
      </trkpt>
      <trkpt lat="42.93863" lon="0.75517">
        <ele>1755.5</ele>
        <time>2018-06-26T11:56:09Z</time>
      </trkpt>
      <trkpt lat="42.93859" lon="0.75512">
        <ele>1752.14</ele>
        <time>2018-06-26T11:56:21Z</time>
      </trkpt>
      <trkpt lat="42.93853" lon="0.75512">
        <ele>1749.26</ele>
        <time>2018-06-26T11:56:32Z</time>
      </trkpt>
      <trkpt lat="42.93852" lon="0.75504">
        <ele>1745.89</ele>
        <time>2018-06-26T11:56:42Z</time>
      </trkpt>
      <trkpt lat="42.93848" lon="0.75501">
        <ele>1743.01</ele>
        <time>2018-06-26T11:56:56Z</time>
      </trkpt>
      <trkpt lat="42.9384" lon="0.75499">
        <ele>1739.64</ele>
        <time>2018-06-26T11:57:07Z</time>
      </trkpt>
      <trkpt lat="42.93834" lon="0.75495">
        <ele>1736.76</ele>
        <time>2018-06-26T11:57:16Z</time>
      </trkpt>
      <trkpt lat="42.93829" lon="0.75496">
        <ele>1734.36</ele>
        <time>2018-06-26T11:57:24Z</time>
      </trkpt>
      <trkpt lat="42.93825" lon="0.75497">
        <ele>1732.43</ele>
        <time>2018-06-26T11:57:29Z</time>
      </trkpt>
      <trkpt lat="42.93825" lon="0.75497">
        <ele>1732.43</ele>
        <time>2018-06-26T11:57:30Z</time>
      </trkpt>
      <trkpt lat="42.93821" lon="0.75496">
        <ele>1731.47</ele>
        <time>2018-06-26T11:57:34Z</time>
      </trkpt>
      <trkpt lat="42.9382" lon="0.75494">
        <ele>1730.51</ele>
        <time>2018-06-26T11:57:36Z</time>
      </trkpt>
      <trkpt lat="42.93819" lon="0.75494">
        <ele>1730.51</ele>
        <time>2018-06-26T11:57:37Z</time>
      </trkpt>
      <trkpt lat="42.93814" lon="0.75492">
        <ele>1728.11</ele>
        <time>2018-06-26T11:57:42Z</time>
      </trkpt>
      <trkpt lat="42.93813" lon="0.75493">
        <ele>1727.63</ele>
        <time>2018-06-26T11:57:43Z</time>
      </trkpt>
      <trkpt lat="42.93806" lon="0.7549">
        <ele>1725.7</ele>
        <time>2018-06-26T11:57:50Z</time>
      </trkpt>
      <trkpt lat="42.93803" lon="0.7549">
        <ele>1725.22</ele>
        <time>2018-06-26T11:57:53Z</time>
      </trkpt>
      <trkpt lat="42.93798" lon="0.75483">
        <ele>1722.34</ele>
        <time>2018-06-26T11:57:58Z</time>
      </trkpt>
      <trkpt lat="42.93797" lon="0.75483">
        <ele>1721.38</ele>
        <time>2018-06-26T11:58:14Z</time>
      </trkpt>
      <trkpt lat="42.93788" lon="0.75482">
        <ele>1720.42</ele>
        <time>2018-06-26T11:58:29Z</time>
      </trkpt>
      <trkpt lat="42.93779" lon="0.75468">
        <ele>1717.05</ele>
        <time>2018-06-26T11:58:43Z</time>
      </trkpt>
      <trkpt lat="42.93776" lon="0.75478">
        <ele>1715.13</ele>
        <time>2018-06-26T11:58:56Z</time>
      </trkpt>
      <trkpt lat="42.93776" lon="0.75481">
        <ele>1714.65</ele>
        <time>2018-06-26T11:59:12Z</time>
      </trkpt>
      <trkpt lat="42.93775" lon="0.75484">
        <ele>1714.17</ele>
        <time>2018-06-26T11:59:31Z</time>
      </trkpt>
      <trkpt lat="42.93776" lon="0.75484">
        <ele>1713.21</ele>
        <time>2018-06-26T11:59:55Z</time>
      </trkpt>
      <trkpt lat="42.93777" lon="0.75486">
        <ele>1713.69</ele>
        <time>2018-06-26T12:00:17Z</time>
      </trkpt>
      <trkpt lat="42.93776" lon="0.75484">
        <ele>1714.17</ele>
        <time>2018-06-26T12:00:34Z</time>
      </trkpt>
      <trkpt lat="42.93775" lon="0.75485">
        <ele>1713.69</ele>
        <time>2018-06-26T12:01:05Z</time>
      </trkpt>
      <trkpt lat="42.93777" lon="0.75486">
        <ele>1713.21</ele>
        <time>2018-06-26T12:01:22Z</time>
      </trkpt>
      <trkpt lat="42.93775" lon="0.75486">
        <ele>1713.69</ele>
        <time>2018-06-26T12:01:35Z</time>
      </trkpt>
      <trkpt lat="42.93777" lon="0.75487">
        <ele>1712.73</ele>
        <time>2018-06-26T12:01:52Z</time>
      </trkpt>
      <trkpt lat="42.93778" lon="0.75492">
        <ele>1709.84</ele>
        <time>2018-06-26T12:02:04Z</time>
      </trkpt>
      <trkpt lat="42.93779" lon="0.75496">
        <ele>1708.4</ele>
        <time>2018-06-26T12:02:15Z</time>
      </trkpt>
      <trkpt lat="42.93778" lon="0.75498">
        <ele>1706.96</ele>
        <time>2018-06-26T12:02:27Z</time>
      </trkpt>
      <trkpt lat="42.93776" lon="0.755">
        <ele>1706</ele>
        <time>2018-06-26T12:02:41Z</time>
      </trkpt>
      <trkpt lat="42.93774" lon="0.75506">
        <ele>1703.11</ele>
        <time>2018-06-26T12:02:53Z</time>
      </trkpt>
      <trkpt lat="42.9378" lon="0.75515">
        <ele>1699.75</ele>
        <time>2018-06-26T12:03:05Z</time>
      </trkpt>
      <trkpt lat="42.93769" lon="0.7552">
        <ele>1696.38</ele>
        <time>2018-06-26T12:03:18Z</time>
      </trkpt>
      <trkpt lat="42.93765" lon="0.75522">
        <ele>1693.98</ele>
        <time>2018-06-26T12:03:29Z</time>
      </trkpt>
      <trkpt lat="42.93764" lon="0.75531">
        <ele>1691.1</ele>
        <time>2018-06-26T12:03:42Z</time>
      </trkpt>
      <trkpt lat="42.93764" lon="0.75537">
        <ele>1687.73</ele>
        <time>2018-06-26T12:03:56Z</time>
      </trkpt>
      <trkpt lat="42.93762" lon="0.75543">
        <ele>1684.85</ele>
        <time>2018-06-26T12:04:08Z</time>
      </trkpt>
      <trkpt lat="42.93763" lon="0.75551">
        <ele>1681.96</ele>
        <time>2018-06-26T12:04:19Z</time>
      </trkpt>
      <trkpt lat="42.93762" lon="0.7556">
        <ele>1678.6</ele>
        <time>2018-06-26T12:04:27Z</time>
      </trkpt>
      <trkpt lat="42.93762" lon="0.75566">
        <ele>1676.68</ele>
        <time>2018-06-26T12:04:40Z</time>
      </trkpt>
      <trkpt lat="42.93763" lon="0.75576">
        <ele>1673.31</ele>
        <time>2018-06-26T12:04:52Z</time>
      </trkpt>
      <trkpt lat="42.93764" lon="0.75579">
        <ele>1672.35</ele>
        <time>2018-06-26T12:05:07Z</time>
      </trkpt>
      <trkpt lat="42.93762" lon="0.7558">
        <ele>1671.87</ele>
        <time>2018-06-26T12:05:23Z</time>
      </trkpt>
      <trkpt lat="42.93762" lon="0.75584">
        <ele>1669.95</ele>
        <time>2018-06-26T12:05:28Z</time>
      </trkpt>
      <trkpt lat="42.93761" lon="0.75587">
        <ele>1668.99</ele>
        <time>2018-06-26T12:05:48Z</time>
      </trkpt>
      <trkpt lat="42.9376" lon="0.75592">
        <ele>1667.06</ele>
        <time>2018-06-26T12:05:55Z</time>
      </trkpt>
      <trkpt lat="42.9376" lon="0.75602">
        <ele>1664.18</ele>
        <time>2018-06-26T12:06:07Z</time>
      </trkpt>
      <trkpt lat="42.93758" lon="0.75611">
        <ele>1660.81</ele>
        <time>2018-06-26T12:06:18Z</time>
      </trkpt>
      <trkpt lat="42.93756" lon="0.75621">
        <ele>1657.45</ele>
        <time>2018-06-26T12:06:29Z</time>
      </trkpt>
      <trkpt lat="42.93758" lon="0.75628">
        <ele>1656.49</ele>
        <time>2018-06-26T12:06:36Z</time>
      </trkpt>
      <trkpt lat="42.93754" lon="0.75632">
        <ele>1656.01</ele>
        <time>2018-06-26T12:06:50Z</time>
      </trkpt>
      <trkpt lat="42.93754" lon="0.75634">
        <ele>1655.53</ele>
        <time>2018-06-26T12:06:52Z</time>
      </trkpt>
      <trkpt lat="42.93753" lon="0.75638">
        <ele>1652.64</ele>
        <time>2018-06-26T12:06:56Z</time>
      </trkpt>
      <trkpt lat="42.93749" lon="0.75646">
        <ele>1649.28</ele>
        <time>2018-06-26T12:07:06Z</time>
      </trkpt>
      <trkpt lat="42.93745" lon="0.75652">
        <ele>1647.84</ele>
        <time>2018-06-26T12:07:14Z</time>
      </trkpt>
      <trkpt lat="42.93744" lon="0.75655">
        <ele>1646.88</ele>
        <time>2018-06-26T12:07:17Z</time>
      </trkpt>
      <trkpt lat="42.93739" lon="0.75658">
        <ele>1644.47</ele>
        <time>2018-06-26T12:07:24Z</time>
      </trkpt>
      <trkpt lat="42.93736" lon="0.75661">
        <ele>1643.99</ele>
        <time>2018-06-26T12:07:27Z</time>
      </trkpt>
      <trkpt lat="42.93734" lon="0.75665">
        <ele>1643.03</ele>
        <time>2018-06-26T12:07:31Z</time>
      </trkpt>
      <trkpt lat="42.93726" lon="0.75674">
        <ele>1638.7</ele>
        <time>2018-06-26T12:07:45Z</time>
      </trkpt>
      <trkpt lat="42.93717" lon="0.75686">
        <ele>1635.34</ele>
        <time>2018-06-26T12:07:58Z</time>
      </trkpt>
      <trkpt lat="42.93711" lon="0.757">
        <ele>1631.49</ele>
        <time>2018-06-26T12:08:12Z</time>
      </trkpt>
      <trkpt lat="42.9371" lon="0.757">
        <ele>1631.98</ele>
        <time>2018-06-26T12:08:13Z</time>
      </trkpt>
      <trkpt lat="42.93705" lon="0.75711">
        <ele>1629.09</ele>
        <time>2018-06-26T12:08:26Z</time>
      </trkpt>
      <trkpt lat="42.93706" lon="0.7572">
        <ele>1627.17</ele>
        <time>2018-06-26T12:08:38Z</time>
      </trkpt>
      <trkpt lat="42.93708" lon="0.75723">
        <ele>1625.25</ele>
        <time>2018-06-26T12:08:43Z</time>
      </trkpt>
      <trkpt lat="42.93709" lon="0.75734">
        <ele>1621.88</ele>
        <time>2018-06-26T12:08:54Z</time>
      </trkpt>
      <trkpt lat="42.93708" lon="0.75736">
        <ele>1620.92</ele>
        <time>2018-06-26T12:08:56Z</time>
      </trkpt>
      <trkpt lat="42.93707" lon="0.7574">
        <ele>1619.96</ele>
        <time>2018-06-26T12:09:01Z</time>
      </trkpt>
      <trkpt lat="42.93708" lon="0.75742">
        <ele>1619.48</ele>
        <time>2018-06-26T12:09:03Z</time>
      </trkpt>
      <trkpt lat="42.93704" lon="0.75753">
        <ele>1616.11</ele>
        <time>2018-06-26T12:09:13Z</time>
      </trkpt>
      <trkpt lat="42.93698" lon="0.75767">
        <ele>1613.71</ele>
        <time>2018-06-26T12:09:27Z</time>
      </trkpt>
      <trkpt lat="42.93698" lon="0.7577">
        <ele>1612.27</ele>
        <time>2018-06-26T12:09:30Z</time>
      </trkpt>
      <trkpt lat="42.93689" lon="0.75776">
        <ele>1610.35</ele>
        <time>2018-06-26T12:09:42Z</time>
      </trkpt>
      <trkpt lat="42.93686" lon="0.75783">
        <ele>1607.94</ele>
        <time>2018-06-26T12:09:52Z</time>
      </trkpt>
      <trkpt lat="42.93684" lon="0.75789">
        <ele>1606.02</ele>
        <time>2018-06-26T12:09:56Z</time>
      </trkpt>
      <trkpt lat="42.93683" lon="0.75791">
        <ele>1604.58</ele>
        <time>2018-06-26T12:09:59Z</time>
      </trkpt>
      <trkpt lat="42.93678" lon="0.75801">
        <ele>1601.21</ele>
        <time>2018-06-26T12:10:10Z</time>
      </trkpt>
      <trkpt lat="42.9368" lon="0.75815">
        <ele>1597.85</ele>
        <time>2018-06-26T12:10:26Z</time>
      </trkpt>
      <trkpt lat="42.9368" lon="0.75827">
        <ele>1594.96</ele>
        <time>2018-06-26T12:10:39Z</time>
      </trkpt>
      <trkpt lat="42.9368" lon="0.75832">
        <ele>1592.56</ele>
        <time>2018-06-26T12:10:54Z</time>
      </trkpt>
      <trkpt lat="42.93689" lon="0.75842">
        <ele>1589.2</ele>
        <time>2018-06-26T12:11:08Z</time>
      </trkpt>
      <trkpt lat="42.93686" lon="0.75848">
        <ele>1585.83</ele>
        <time>2018-06-26T12:11:19Z</time>
      </trkpt>
      <trkpt lat="42.93692" lon="0.75859">
        <ele>1582.47</ele>
        <time>2018-06-26T12:11:32Z</time>
      </trkpt>
      <trkpt lat="42.93696" lon="0.75868">
        <ele>1579.58</ele>
        <time>2018-06-26T12:11:45Z</time>
      </trkpt>
      <trkpt lat="42.93699" lon="0.75874">
        <ele>1576.22</ele>
        <time>2018-06-26T12:12:00Z</time>
      </trkpt>
      <trkpt lat="42.937" lon="0.7588">
        <ele>1574.3</ele>
        <time>2018-06-26T12:12:09Z</time>
      </trkpt>
      <trkpt lat="42.93701" lon="0.75891">
        <ele>1570.93</ele>
        <time>2018-06-26T12:12:19Z</time>
      </trkpt>
      <trkpt lat="42.937" lon="0.75901">
        <ele>1568.05</ele>
        <time>2018-06-26T12:12:28Z</time>
      </trkpt>
      <trkpt lat="42.93699" lon="0.75905">
        <ele>1566.12</ele>
        <time>2018-06-26T12:12:32Z</time>
      </trkpt>
      <trkpt lat="42.93696" lon="0.75912">
        <ele>1562.76</ele>
        <time>2018-06-26T12:12:46Z</time>
      </trkpt>
      <trkpt lat="42.93684" lon="0.75906">
        <ele>1559.4</ele>
        <time>2018-06-26T12:13:00Z</time>
      </trkpt>
      <trkpt lat="42.93681" lon="0.75908">
        <ele>1557.47</ele>
        <time>2018-06-26T12:13:14Z</time>
      </trkpt>
      <trkpt lat="42.93678" lon="0.75916">
        <ele>1554.11</ele>
        <time>2018-06-26T12:13:26Z</time>
      </trkpt>
      <trkpt lat="42.93679" lon="0.75929">
        <ele>1551.22</ele>
        <time>2018-06-26T12:13:38Z</time>
      </trkpt>
      <trkpt lat="42.93676" lon="0.7594">
        <ele>1548.34</ele>
        <time>2018-06-26T12:13:52Z</time>
      </trkpt>
      <trkpt lat="42.9367" lon="0.7594">
        <ele>1544.98</ele>
        <time>2018-06-26T12:14:04Z</time>
      </trkpt>
      <trkpt lat="42.93669" lon="0.75945">
        <ele>1544.5</ele>
        <time>2018-06-26T12:14:08Z</time>
      </trkpt>
      <trkpt lat="42.93666" lon="0.7596">
        <ele>1541.13</ele>
        <time>2018-06-26T12:14:16Z</time>
      </trkpt>
      <trkpt lat="42.93664" lon="0.75969">
        <ele>1538.25</ele>
        <time>2018-06-26T12:14:26Z</time>
      </trkpt>
      <trkpt lat="42.93662" lon="0.75984">
        <ele>1534.88</ele>
        <time>2018-06-26T12:14:36Z</time>
      </trkpt>
      <trkpt lat="42.93658" lon="0.7599">
        <ele>1531.52</ele>
        <time>2018-06-26T12:14:47Z</time>
      </trkpt>
      <trkpt lat="42.93657" lon="0.76003">
        <ele>1528.63</ele>
        <time>2018-06-26T12:14:59Z</time>
      </trkpt>
      <trkpt lat="42.93655" lon="0.76009">
        <ele>1526.71</ele>
        <time>2018-06-26T12:15:12Z</time>
      </trkpt>
      <trkpt lat="42.93651" lon="0.76014">
        <ele>1523.83</ele>
        <time>2018-06-26T12:15:29Z</time>
      </trkpt>
      <trkpt lat="42.93646" lon="0.76015">
        <ele>1522.87</ele>
        <time>2018-06-26T12:15:44Z</time>
      </trkpt>
      <trkpt lat="42.93644" lon="0.76011">
        <ele>1522.39</ele>
        <time>2018-06-26T12:16:02Z</time>
      </trkpt>
      <trkpt lat="42.93641" lon="0.76012">
        <ele>1521.9</ele>
        <time>2018-06-26T12:16:06Z</time>
      </trkpt>
      <trkpt lat="42.93633" lon="0.76012">
        <ele>1519.98</ele>
        <time>2018-06-26T12:16:19Z</time>
      </trkpt>
      <trkpt lat="42.93619" lon="0.76017">
        <ele>1519.02</ele>
        <time>2018-06-26T12:16:34Z</time>
      </trkpt>
      <trkpt lat="42.93611" lon="0.76011">
        <ele>1516.62</ele>
        <time>2018-06-26T12:16:46Z</time>
      </trkpt>
      <trkpt lat="42.93607" lon="0.76022">
        <ele>1513.25</ele>
        <time>2018-06-26T12:16:58Z</time>
      </trkpt>
      <trkpt lat="42.93599" lon="0.76028">
        <ele>1509.89</ele>
        <time>2018-06-26T12:17:11Z</time>
      </trkpt>
      <trkpt lat="42.93591" lon="0.76037">
        <ele>1507</ele>
        <time>2018-06-26T12:17:23Z</time>
      </trkpt>
      <trkpt lat="42.93587" lon="0.76048">
        <ele>1504.12</ele>
        <time>2018-06-26T12:17:38Z</time>
      </trkpt>
      <trkpt lat="42.93582" lon="0.76057">
        <ele>1501.72</ele>
        <time>2018-06-26T12:17:49Z</time>
      </trkpt>
      <trkpt lat="42.93581" lon="0.76057">
        <ele>1501.24</ele>
        <time>2018-06-26T12:17:50Z</time>
      </trkpt>
      <trkpt lat="42.93575" lon="0.76064">
        <ele>1498.83</ele>
        <time>2018-06-26T12:18:04Z</time>
      </trkpt>
      <trkpt lat="42.93571" lon="0.76074">
        <ele>1497.39</ele>
        <time>2018-06-26T12:18:17Z</time>
      </trkpt>
      <trkpt lat="42.93566" lon="0.76086">
        <ele>1494.03</ele>
        <time>2018-06-26T12:18:31Z</time>
      </trkpt>
      <trkpt lat="42.93564" lon="0.76095">
        <ele>1491.14</ele>
        <time>2018-06-26T12:18:45Z</time>
      </trkpt>
      <trkpt lat="42.93559" lon="0.76101">
        <ele>1487.78</ele>
        <time>2018-06-26T12:18:55Z</time>
      </trkpt>
      <trkpt lat="42.93559" lon="0.76104">
        <ele>1487.78</ele>
        <time>2018-06-26T12:18:58Z</time>
      </trkpt>
      <trkpt lat="42.93556" lon="0.76114">
        <ele>1483.45</ele>
        <time>2018-06-26T12:19:11Z</time>
      </trkpt>
      <trkpt lat="42.93551" lon="0.76125">
        <ele>1482.01</ele>
        <time>2018-06-26T12:19:25Z</time>
      </trkpt>
      <trkpt lat="42.93545" lon="0.7612">
        <ele>1482.49</ele>
        <time>2018-06-26T12:19:41Z</time>
      </trkpt>
      <trkpt lat="42.93538" lon="0.76124">
        <ele>1482.49</ele>
        <time>2018-06-26T12:19:53Z</time>
      </trkpt>
      <trkpt lat="42.93536" lon="0.76124">
        <ele>1482.49</ele>
        <time>2018-06-26T12:19:56Z</time>
      </trkpt>
      <trkpt lat="42.9353" lon="0.76127">
        <ele>1484.41</ele>
        <time>2018-06-26T12:20:10Z</time>
      </trkpt>
      <trkpt lat="42.93522" lon="0.76127">
        <ele>1485.85</ele>
        <time>2018-06-26T12:20:22Z</time>
      </trkpt>
      <trkpt lat="42.93515" lon="0.76134">
        <ele>1485.85</ele>
        <time>2018-06-26T12:20:35Z</time>
      </trkpt>
      <trkpt lat="42.93514" lon="0.76135">
        <ele>1485.37</ele>
        <time>2018-06-26T12:20:37Z</time>
      </trkpt>
      <trkpt lat="42.93506" lon="0.76134">
        <ele>1483.93</ele>
        <time>2018-06-26T12:20:51Z</time>
      </trkpt>
      <trkpt lat="42.93498" lon="0.76133">
        <ele>1482.97</ele>
        <time>2018-06-26T12:21:04Z</time>
      </trkpt>
      <trkpt lat="42.93492" lon="0.76131">
        <ele>1481.05</ele>
        <time>2018-06-26T12:21:16Z</time>
      </trkpt>
      <trkpt lat="42.93491" lon="0.76132">
        <ele>1480.57</ele>
        <time>2018-06-26T12:21:18Z</time>
      </trkpt>
      <trkpt lat="42.93487" lon="0.76133">
        <ele>1480.09</ele>
        <time>2018-06-26T12:21:22Z</time>
      </trkpt>
      <trkpt lat="42.93478" lon="0.76128">
        <ele>1477.68</ele>
        <time>2018-06-26T12:21:33Z</time>
      </trkpt>
      <trkpt lat="42.93468" lon="0.76117">
        <ele>1476.24</ele>
        <time>2018-06-26T12:21:46Z</time>
      </trkpt>
      <trkpt lat="42.93459" lon="0.76112">
        <ele>1476.24</ele>
        <time>2018-06-26T12:21:58Z</time>
      </trkpt>
      <trkpt lat="42.93455" lon="0.76114">
        <ele>1476.24</ele>
        <time>2018-06-26T12:22:12Z</time>
      </trkpt>
      <trkpt lat="42.93454" lon="0.76115">
        <ele>1473.84</ele>
        <time>2018-06-26T12:30:59Z</time>
      </trkpt>
      <trkpt lat="42.93453" lon="0.76116">
        <ele>1473.84</ele>
        <time>2018-06-26T12:31:27Z</time>
      </trkpt>
      <trkpt lat="42.93452" lon="0.76117">
        <ele>1473.36</ele>
        <time>2018-06-26T12:32:40Z</time>
      </trkpt>
      <trkpt lat="42.93452" lon="0.76116">
        <ele>1473.84</ele>
        <time>2018-06-26T12:33:02Z</time>
      </trkpt>
      <trkpt lat="42.9345" lon="0.76121">
        <ele>1472.88</ele>
        <time>2018-06-26T12:33:36Z</time>
      </trkpt>
      <trkpt lat="42.93453" lon="0.76125">
        <ele>1472.4</ele>
        <time>2018-06-26T12:33:54Z</time>
      </trkpt>
      <trkpt lat="42.93453" lon="0.76127">
        <ele>1471.44</ele>
        <time>2018-06-26T12:34:05Z</time>
      </trkpt>
      <trkpt lat="42.93456" lon="0.76128">
        <ele>1470.95</ele>
        <time>2018-06-26T12:34:21Z</time>
      </trkpt>
      <trkpt lat="42.9345" lon="0.76123">
        <ele>1471.92</ele>
        <time>2018-06-26T12:34:34Z</time>
      </trkpt>
      <trkpt lat="42.93441" lon="0.76122">
        <ele>1472.88</ele>
        <time>2018-06-26T12:34:45Z</time>
      </trkpt>
      <trkpt lat="42.93437" lon="0.76122">
        <ele>1472.88</ele>
        <time>2018-06-26T12:34:57Z</time>
      </trkpt>
      <trkpt lat="42.93436" lon="0.7612">
        <ele>1472.88</ele>
        <time>2018-06-26T12:35:12Z</time>
      </trkpt>
      <trkpt lat="42.93436" lon="0.7612">
        <ele>1472.88</ele>
        <time>2018-06-26T12:35:25Z</time>
      </trkpt>
      <trkpt lat="42.93432" lon="0.76121">
        <ele>1472.88</ele>
        <time>2018-06-26T12:35:38Z</time>
      </trkpt>
      <trkpt lat="42.93427" lon="0.76116">
        <ele>1471.44</ele>
        <time>2018-06-26T12:35:47Z</time>
      </trkpt>
      <trkpt lat="42.93418" lon="0.76102">
        <ele>1470.95</ele>
        <time>2018-06-26T12:35:59Z</time>
      </trkpt>
      <trkpt lat="42.9341" lon="0.76089">
        <ele>1471.92</ele>
        <time>2018-06-26T12:36:13Z</time>
      </trkpt>
      <trkpt lat="42.93407" lon="0.76093">
        <ele>1471.92</ele>
        <time>2018-06-26T12:36:25Z</time>
      </trkpt>
      <trkpt lat="42.93405" lon="0.76095">
        <ele>1471.92</ele>
        <time>2018-06-26T12:36:28Z</time>
      </trkpt>
      <trkpt lat="42.93393" lon="0.76107">
        <ele>1471.44</ele>
        <time>2018-06-26T12:36:43Z</time>
      </trkpt>
      <trkpt lat="42.93391" lon="0.76104">
        <ele>1471.92</ele>
        <time>2018-06-26T12:36:56Z</time>
      </trkpt>
      <trkpt lat="42.93389" lon="0.76105">
        <ele>1471.44</ele>
        <time>2018-06-26T12:37:06Z</time>
      </trkpt>
      <trkpt lat="42.93373" lon="0.76095">
        <ele>1469.51</ele>
        <time>2018-06-26T12:37:22Z</time>
      </trkpt>
      <trkpt lat="42.93358" lon="0.76087">
        <ele>1469.03</ele>
        <time>2018-06-26T12:37:38Z</time>
      </trkpt>
      <trkpt lat="42.9335" lon="0.76091">
        <ele>1466.63</ele>
        <time>2018-06-26T12:37:48Z</time>
      </trkpt>
      <trkpt lat="42.93351" lon="0.76097">
        <ele>1465.19</ele>
        <time>2018-06-26T12:37:52Z</time>
      </trkpt>
      <trkpt lat="42.93354" lon="0.76105">
        <ele>1463.26</ele>
        <time>2018-06-26T12:37:57Z</time>
      </trkpt>
      <trkpt lat="42.93358" lon="0.7611">
        <ele>1463.26</ele>
        <time>2018-06-26T12:38:01Z</time>
      </trkpt>
      <trkpt lat="42.93359" lon="0.76113">
        <ele>1461.82</ele>
        <time>2018-06-26T12:38:03Z</time>
      </trkpt>
      <trkpt lat="42.9336" lon="0.7612">
        <ele>1461.34</ele>
        <time>2018-06-26T12:38:08Z</time>
      </trkpt>
      <trkpt lat="42.93362" lon="0.76125">
        <ele>1460.38</ele>
        <time>2018-06-26T12:38:12Z</time>
      </trkpt>
      <trkpt lat="42.93372" lon="0.76134">
        <ele>1457.02</ele>
        <time>2018-06-26T12:38:23Z</time>
      </trkpt>
      <trkpt lat="42.93381" lon="0.76143">
        <ele>1454.13</ele>
        <time>2018-06-26T12:38:35Z</time>
      </trkpt>
      <trkpt lat="42.9338" lon="0.76156">
        <ele>1453.17</ele>
        <time>2018-06-26T12:38:46Z</time>
      </trkpt>
      <trkpt lat="42.93373" lon="0.7617">
        <ele>1450.77</ele>
        <time>2018-06-26T12:39:03Z</time>
      </trkpt>
      <trkpt lat="42.93377" lon="0.76168">
        <ele>1452.21</ele>
        <time>2018-06-26T12:39:20Z</time>
      </trkpt>
      <trkpt lat="42.93375" lon="0.76168">
        <ele>1452.69</ele>
        <time>2018-06-26T12:39:42Z</time>
      </trkpt>
      <trkpt lat="42.93371" lon="0.76166">
        <ele>1451.73</ele>
        <time>2018-06-26T12:39:58Z</time>
      </trkpt>
      <trkpt lat="42.9336" lon="0.76176">
        <ele>1451.25</ele>
        <time>2018-06-26T12:40:13Z</time>
      </trkpt>
      <trkpt lat="42.93351" lon="0.76184">
        <ele>1447.88</ele>
        <time>2018-06-26T12:40:23Z</time>
      </trkpt>
      <trkpt lat="42.93329" lon="0.76199">
        <ele>1447.88</ele>
        <time>2018-06-26T12:40:46Z</time>
      </trkpt>
      <trkpt lat="42.93313" lon="0.76195">
        <ele>1446.44</ele>
        <time>2018-06-26T12:40:59Z</time>
      </trkpt>
      <trkpt lat="42.93296" lon="0.76186">
        <ele>1445</ele>
        <time>2018-06-26T12:41:16Z</time>
      </trkpt>
      <trkpt lat="42.93283" lon="0.76193">
        <ele>1444.52</ele>
        <time>2018-06-26T12:41:28Z</time>
      </trkpt>
      <trkpt lat="42.93262" lon="0.76202">
        <ele>1442.11</ele>
        <time>2018-06-26T12:41:48Z</time>
      </trkpt>
      <trkpt lat="42.93244" lon="0.76199">
        <ele>1439.23</ele>
        <time>2018-06-26T12:42:03Z</time>
      </trkpt>
      <trkpt lat="42.93243" lon="0.76199">
        <ele>1439.23</ele>
        <time>2018-06-26T12:42:04Z</time>
      </trkpt>
      <trkpt lat="42.93238" lon="0.762">
        <ele>1438.75</ele>
        <time>2018-06-26T12:42:20Z</time>
      </trkpt>
      <trkpt lat="42.93235" lon="0.76203">
        <ele>1437.79</ele>
        <time>2018-06-26T12:42:23Z</time>
      </trkpt>
      <trkpt lat="42.93231" lon="0.76209">
        <ele>1436.83</ele>
        <time>2018-06-26T12:42:39Z</time>
      </trkpt>
      <trkpt lat="42.93227" lon="0.76222">
        <ele>1436.35</ele>
        <time>2018-06-26T12:42:55Z</time>
      </trkpt>
      <trkpt lat="42.93216" lon="0.76233">
        <ele>1432.98</ele>
        <time>2018-06-26T12:43:07Z</time>
      </trkpt>
      <trkpt lat="42.93215" lon="0.76236">
        <ele>1432.98</ele>
        <time>2018-06-26T12:43:09Z</time>
      </trkpt>
      <trkpt lat="42.93216" lon="0.7626">
        <ele>1430.58</ele>
        <time>2018-06-26T12:43:25Z</time>
      </trkpt>
      <trkpt lat="42.93218" lon="0.76267">
        <ele>1429.14</ele>
        <time>2018-06-26T12:43:30Z</time>
      </trkpt>
      <trkpt lat="42.93223" lon="0.76284">
        <ele>1427.7</ele>
        <time>2018-06-26T12:43:40Z</time>
      </trkpt>
      <trkpt lat="42.93224" lon="0.76291">
        <ele>1427.21</ele>
        <time>2018-06-26T12:43:44Z</time>
      </trkpt>
      <trkpt lat="42.93216" lon="0.76316">
        <ele>1424.33</ele>
        <time>2018-06-26T12:44:00Z</time>
      </trkpt>
      <trkpt lat="42.93215" lon="0.76322">
        <ele>1423.37</ele>
        <time>2018-06-26T12:44:04Z</time>
      </trkpt>
      <trkpt lat="42.93206" lon="0.7635">
        <ele>1420.49</ele>
        <time>2018-06-26T12:44:23Z</time>
      </trkpt>
      <trkpt lat="42.93189" lon="0.76362">
        <ele>1418.08</ele>
        <time>2018-06-26T12:44:38Z</time>
      </trkpt>
      <trkpt lat="42.93187" lon="0.76363">
        <ele>1418.08</ele>
        <time>2018-06-26T12:44:40Z</time>
      </trkpt>
      <trkpt lat="42.93169" lon="0.76355">
        <ele>1415.2</ele>
        <time>2018-06-26T12:44:58Z</time>
      </trkpt>
      <trkpt lat="42.93162" lon="0.76359">
        <ele>1414.24</ele>
        <time>2018-06-26T12:45:06Z</time>
      </trkpt>
      <trkpt lat="42.93158" lon="0.76375">
        <ele>1411.83</ele>
        <time>2018-06-26T12:45:20Z</time>
      </trkpt>
      <trkpt lat="42.93155" lon="0.764">
        <ele>1409.43</ele>
        <time>2018-06-26T12:45:37Z</time>
      </trkpt>
      <trkpt lat="42.93148" lon="0.76421">
        <ele>1407.03</ele>
        <time>2018-06-26T12:45:54Z</time>
      </trkpt>
      <trkpt lat="42.93137" lon="0.76442">
        <ele>1404.62</ele>
        <time>2018-06-26T12:46:09Z</time>
      </trkpt>
      <trkpt lat="42.93134" lon="0.76464">
        <ele>1401.74</ele>
        <time>2018-06-26T12:46:25Z</time>
      </trkpt>
      <trkpt lat="42.93138" lon="0.7649">
        <ele>1399.82</ele>
        <time>2018-06-26T12:46:42Z</time>
      </trkpt>
      <trkpt lat="42.93138" lon="0.76493">
        <ele>1399.34</ele>
        <time>2018-06-26T12:46:45Z</time>
      </trkpt>
      <trkpt lat="42.93132" lon="0.76514">
        <ele>1396.45</ele>
        <time>2018-06-26T12:47:01Z</time>
      </trkpt>
      <trkpt lat="42.93121" lon="0.76543">
        <ele>1394.53</ele>
        <time>2018-06-26T12:47:20Z</time>
      </trkpt>
      <trkpt lat="42.93108" lon="0.76552">
        <ele>1392.13</ele>
        <time>2018-06-26T12:47:34Z</time>
      </trkpt>
      <trkpt lat="42.93095" lon="0.76564">
        <ele>1388.76</ele>
        <time>2018-06-26T12:47:50Z</time>
      </trkpt>
      <trkpt lat="42.9309" lon="0.76581">
        <ele>1387.32</ele>
        <time>2018-06-26T12:48:02Z</time>
      </trkpt>
      <trkpt lat="42.93086" lon="0.76595">
        <ele>1386.84</ele>
        <time>2018-06-26T12:48:10Z</time>
      </trkpt>
      <trkpt lat="42.93087" lon="0.76605">
        <ele>1385.88</ele>
        <time>2018-06-26T12:48:15Z</time>
      </trkpt>
      <trkpt lat="42.93075" lon="0.76632">
        <ele>1382.99</ele>
        <time>2018-06-26T12:48:32Z</time>
      </trkpt>
      <trkpt lat="42.93077" lon="0.76651">
        <ele>1381.55</ele>
        <time>2018-06-26T12:48:43Z</time>
      </trkpt>
      <trkpt lat="42.93093" lon="0.76675">
        <ele>1379.15</ele>
        <time>2018-06-26T12:49:01Z</time>
      </trkpt>
      <trkpt lat="42.93102" lon="0.76701">
        <ele>1375.78</ele>
        <time>2018-06-26T12:49:18Z</time>
      </trkpt>
      <trkpt lat="42.93095" lon="0.76722">
        <ele>1373.86</ele>
        <time>2018-06-26T12:49:33Z</time>
      </trkpt>
      <trkpt lat="42.93092" lon="0.76728">
        <ele>1373.38</ele>
        <time>2018-06-26T12:49:37Z</time>
      </trkpt>
      <trkpt lat="42.93071" lon="0.76749">
        <ele>1370.5</ele>
        <time>2018-06-26T12:49:57Z</time>
      </trkpt>
      <trkpt lat="42.93054" lon="0.76765">
        <ele>1367.13</ele>
        <time>2018-06-26T12:50:16Z</time>
      </trkpt>
      <trkpt lat="42.93049" lon="0.76775">
        <ele>1365.69</ele>
        <time>2018-06-26T12:50:26Z</time>
      </trkpt>
      <trkpt lat="42.93047" lon="0.76798">
        <ele>1364.25</ele>
        <time>2018-06-26T12:50:41Z</time>
      </trkpt>
      <trkpt lat="42.93046" lon="0.76811">
        <ele>1363.29</ele>
        <time>2018-06-26T12:50:48Z</time>
      </trkpt>
      <trkpt lat="42.93029" lon="0.76826">
        <ele>1360.88</ele>
        <time>2018-06-26T12:51:05Z</time>
      </trkpt>
      <trkpt lat="42.93017" lon="0.76843">
        <ele>1357.52</ele>
        <time>2018-06-26T12:51:22Z</time>
      </trkpt>
      <trkpt lat="42.93004" lon="0.76869">
        <ele>1355.12</ele>
        <time>2018-06-26T12:51:40Z</time>
      </trkpt>
      <trkpt lat="42.92992" lon="0.76891">
        <ele>1352.71</ele>
        <time>2018-06-26T12:51:59Z</time>
      </trkpt>
      <trkpt lat="42.92989" lon="0.76896">
        <ele>1351.75</ele>
        <time>2018-06-26T12:52:04Z</time>
      </trkpt>
      <trkpt lat="42.92975" lon="0.76916">
        <ele>1348.39</ele>
        <time>2018-06-26T12:52:23Z</time>
      </trkpt>
      <trkpt lat="42.92974" lon="0.76942">
        <ele>1346.94</ele>
        <time>2018-06-26T12:52:38Z</time>
      </trkpt>
      <trkpt lat="42.92973" lon="0.76952">
        <ele>1345.98</ele>
        <time>2018-06-26T12:52:44Z</time>
      </trkpt>
      <trkpt lat="42.92976" lon="0.76978">
        <ele>1343.58</ele>
        <time>2018-06-26T12:53:01Z</time>
      </trkpt>
      <trkpt lat="42.92968" lon="0.77001">
        <ele>1341.18</ele>
        <time>2018-06-26T12:53:18Z</time>
      </trkpt>
      <trkpt lat="42.92965" lon="0.77021">
        <ele>1339.25</ele>
        <time>2018-06-26T12:53:31Z</time>
      </trkpt>
      <trkpt lat="42.92965" lon="0.77043">
        <ele>1337.33</ele>
        <time>2018-06-26T12:53:45Z</time>
      </trkpt>
      <trkpt lat="42.92964" lon="0.77044">
        <ele>1337.33</ele>
        <time>2018-06-26T12:53:46Z</time>
      </trkpt>
      <trkpt lat="42.92959" lon="0.7707">
        <ele>1334.45</ele>
        <time>2018-06-26T12:54:03Z</time>
      </trkpt>
      <trkpt lat="42.92957" lon="0.77073">
        <ele>1334.45</ele>
        <time>2018-06-26T12:54:05Z</time>
      </trkpt>
      <trkpt lat="42.92951" lon="0.771">
        <ele>1331.56</ele>
        <time>2018-06-26T12:54:23Z</time>
      </trkpt>
      <trkpt lat="42.92948" lon="0.77123">
        <ele>1329.64</ele>
        <time>2018-06-26T12:54:38Z</time>
      </trkpt>
      <trkpt lat="42.92945" lon="0.77141">
        <ele>1327.72</ele>
        <time>2018-06-26T12:54:52Z</time>
      </trkpt>
      <trkpt lat="42.92943" lon="0.77164">
        <ele>1325.8</ele>
        <time>2018-06-26T12:55:09Z</time>
      </trkpt>
      <trkpt lat="42.92938" lon="0.77181">
        <ele>1323.87</ele>
        <time>2018-06-26T12:55:20Z</time>
      </trkpt>
      <trkpt lat="42.92937" lon="0.77206">
        <ele>1321.47</ele>
        <time>2018-06-26T12:55:36Z</time>
      </trkpt>
      <trkpt lat="42.9294" lon="0.77229">
        <ele>1319.07</ele>
        <time>2018-06-26T12:55:52Z</time>
      </trkpt>
      <trkpt lat="42.92944" lon="0.77239">
        <ele>1317.62</ele>
        <time>2018-06-26T12:55:59Z</time>
      </trkpt>
      <trkpt lat="42.92949" lon="0.77261">
        <ele>1315.22</ele>
        <time>2018-06-26T12:56:15Z</time>
      </trkpt>
      <trkpt lat="42.9295" lon="0.77263">
        <ele>1315.22</ele>
        <time>2018-06-26T12:56:17Z</time>
      </trkpt>
      <trkpt lat="42.92954" lon="0.77283">
        <ele>1313.3</ele>
        <time>2018-06-26T12:56:33Z</time>
      </trkpt>
      <trkpt lat="42.92954" lon="0.77285">
        <ele>1312.82</ele>
        <time>2018-06-26T12:56:35Z</time>
      </trkpt>
      <trkpt lat="42.92958" lon="0.77294">
        <ele>1312.82</ele>
        <time>2018-06-26T12:56:43Z</time>
      </trkpt>
      <trkpt lat="42.92967" lon="0.77316">
        <ele>1309.93</ele>
        <time>2018-06-26T12:56:59Z</time>
      </trkpt>
      <trkpt lat="42.92969" lon="0.77334">
        <ele>1308.49</ele>
        <time>2018-06-26T12:57:10Z</time>
      </trkpt>
      <trkpt lat="42.92967" lon="0.77339">
        <ele>1308.49</ele>
        <time>2018-06-26T12:57:13Z</time>
      </trkpt>
      <trkpt lat="42.92953" lon="0.7735">
        <ele>1305.61</ele>
        <time>2018-06-26T12:57:30Z</time>
      </trkpt>
      <trkpt lat="42.92948" lon="0.77353">
        <ele>1304.65</ele>
        <time>2018-06-26T12:57:35Z</time>
      </trkpt>
      <trkpt lat="42.92938" lon="0.77384">
        <ele>1301.28</ele>
        <time>2018-06-26T12:57:54Z</time>
      </trkpt>
      <trkpt lat="42.92939" lon="0.77392">
        <ele>1301.76</ele>
        <time>2018-06-26T12:58:08Z</time>
      </trkpt>
      <trkpt lat="42.9294" lon="0.77389">
        <ele>1301.28</ele>
        <time>2018-06-26T12:58:28Z</time>
      </trkpt>
      <trkpt lat="42.92937" lon="0.77379">
        <ele>1301.76</ele>
        <time>2018-06-26T12:58:50Z</time>
      </trkpt>
      <trkpt lat="42.92938" lon="0.77388">
        <ele>1301.28</ele>
        <time>2018-06-26T12:59:15Z</time>
      </trkpt>
      <trkpt lat="42.92936" lon="0.77376">
        <ele>1301.28</ele>
        <time>2018-06-26T12:59:33Z</time>
      </trkpt>
      <trkpt lat="42.92937" lon="0.77381">
        <ele>1301.28</ele>
        <time>2018-06-26T12:59:52Z</time>
      </trkpt>
      <trkpt lat="42.92931" lon="0.77379">
        <ele>1301.28</ele>
        <time>2018-06-26T13:00:15Z</time>
      </trkpt>
      <trkpt lat="42.92935" lon="0.77388">
        <ele>1301.76</ele>
        <time>2018-06-26T13:00:37Z</time>
      </trkpt>
      <trkpt lat="42.92928" lon="0.77389">
        <ele>1304.17</ele>
        <time>2018-06-26T13:00:52Z</time>
      </trkpt>
      <trkpt lat="42.92914" lon="0.77392">
        <ele>1307.53</ele>
        <time>2018-06-26T13:01:08Z</time>
      </trkpt>
      <trkpt lat="42.92903" lon="0.77401">
        <ele>1309.93</ele>
        <time>2018-06-26T13:01:25Z</time>
      </trkpt>
      <trkpt lat="42.92891" lon="0.77408">
        <ele>1312.34</ele>
        <time>2018-06-26T13:01:42Z</time>
      </trkpt>
      <trkpt lat="42.92882" lon="0.7741">
        <ele>1308.97</ele>
        <time>2018-06-26T13:01:57Z</time>
      </trkpt>
      <trkpt lat="42.92879" lon="0.77415">
        <ele>1306.57</ele>
        <time>2018-06-26T13:02:08Z</time>
      </trkpt>
      <trkpt lat="42.92868" lon="0.77419">
        <ele>1303.69</ele>
        <time>2018-06-26T13:02:21Z</time>
      </trkpt>
      <trkpt lat="42.92858" lon="0.77412">
        <ele>1302.72</ele>
        <time>2018-06-26T13:02:35Z</time>
      </trkpt>
      <trkpt lat="42.92851" lon="0.77412">
        <ele>1300.8</ele>
        <time>2018-06-26T13:02:49Z</time>
      </trkpt>
      <trkpt lat="42.92843" lon="0.77412">
        <ele>1297.92</ele>
        <time>2018-06-26T13:03:04Z</time>
      </trkpt>
      <trkpt lat="42.92833" lon="0.77414">
        <ele>1295.03</ele>
        <time>2018-06-26T13:03:20Z</time>
      </trkpt>
      <trkpt lat="42.92826" lon="0.7741">
        <ele>1293.59</ele>
        <time>2018-06-26T13:03:35Z</time>
      </trkpt>
      <trkpt lat="42.92821" lon="0.77407">
        <ele>1294.07</ele>
        <time>2018-06-26T13:03:41Z</time>
      </trkpt>
      <trkpt lat="42.92808" lon="0.77396">
        <ele>1294.55</ele>
        <time>2018-06-26T13:03:55Z</time>
      </trkpt>
      <trkpt lat="42.92804" lon="0.77392">
        <ele>1295.03</ele>
        <time>2018-06-26T13:04:00Z</time>
      </trkpt>
      <trkpt lat="42.92798" lon="0.77385">
        <ele>1295.51</ele>
        <time>2018-06-26T13:04:13Z</time>
      </trkpt>
      <trkpt lat="42.92785" lon="0.7737">
        <ele>1295.99</ele>
        <time>2018-06-26T13:04:27Z</time>
      </trkpt>
      <trkpt lat="42.92772" lon="0.77361">
        <ele>1296.96</ele>
        <time>2018-06-26T13:04:42Z</time>
      </trkpt>
      <trkpt lat="42.9276" lon="0.77353">
        <ele>1297.92</ele>
        <time>2018-06-26T13:04:56Z</time>
      </trkpt>
      <trkpt lat="42.92746" lon="0.77343">
        <ele>1298.4</ele>
        <time>2018-06-26T13:05:11Z</time>
      </trkpt>
      <trkpt lat="42.92734" lon="0.77333">
        <ele>1299.36</ele>
        <time>2018-06-26T13:05:23Z</time>
      </trkpt>
      <trkpt lat="42.92721" lon="0.77328">
        <ele>1299.84</ele>
        <time>2018-06-26T13:05:36Z</time>
      </trkpt>
      <trkpt lat="42.92708" lon="0.77323">
        <ele>1300.32</ele>
        <time>2018-06-26T13:05:50Z</time>
      </trkpt>
      <trkpt lat="42.92705" lon="0.7732">
        <ele>1300.8</ele>
        <time>2018-06-26T13:05:54Z</time>
      </trkpt>
      <trkpt lat="42.92691" lon="0.77312">
        <ele>1300.8</ele>
        <time>2018-06-26T13:06:09Z</time>
      </trkpt>
      <trkpt lat="42.92683" lon="0.77305">
        <ele>1300.8</ele>
        <time>2018-06-26T13:06:20Z</time>
      </trkpt>
      <trkpt lat="42.92678" lon="0.77303">
        <ele>1300.8</ele>
        <time>2018-06-26T13:06:33Z</time>
      </trkpt>
      <trkpt lat="42.92671" lon="0.77296">
        <ele>1301.28</ele>
        <time>2018-06-26T13:06:43Z</time>
      </trkpt>
      <trkpt lat="42.92668" lon="0.77293">
        <ele>1301.28</ele>
        <time>2018-06-26T13:06:47Z</time>
      </trkpt>
      <trkpt lat="42.9266" lon="0.77285">
        <ele>1301.28</ele>
        <time>2018-06-26T13:06:55Z</time>
      </trkpt>
      <trkpt lat="42.92655" lon="0.7728">
        <ele>1301.76</ele>
        <time>2018-06-26T13:07:01Z</time>
      </trkpt>
      <trkpt lat="42.92645" lon="0.77276">
        <ele>1302.24</ele>
        <time>2018-06-26T13:07:11Z</time>
      </trkpt>
      <trkpt lat="42.92632" lon="0.7727">
        <ele>1303.2</ele>
        <time>2018-06-26T13:07:24Z</time>
      </trkpt>
      <trkpt lat="42.92622" lon="0.77262">
        <ele>1304.17</ele>
        <time>2018-06-26T13:07:37Z</time>
      </trkpt>
      <trkpt lat="42.9261" lon="0.77248">
        <ele>1305.13</ele>
        <time>2018-06-26T13:07:52Z</time>
      </trkpt>
      <trkpt lat="42.92601" lon="0.77234">
        <ele>1306.09</ele>
        <time>2018-06-26T13:08:06Z</time>
      </trkpt>
      <trkpt lat="42.92589" lon="0.7722">
        <ele>1306.57</ele>
        <time>2018-06-26T13:08:20Z</time>
      </trkpt>
      <trkpt lat="42.92575" lon="0.77205">
        <ele>1307.53</ele>
        <time>2018-06-26T13:08:37Z</time>
      </trkpt>
      <trkpt lat="42.92568" lon="0.77198">
        <ele>1308.01</ele>
        <time>2018-06-26T13:08:46Z</time>
      </trkpt>
      <trkpt lat="42.92555" lon="0.77175">
        <ele>1309.45</ele>
        <time>2018-06-26T13:09:04Z</time>
      </trkpt>
      <trkpt lat="42.92548" lon="0.77162">
        <ele>1310.41</ele>
        <time>2018-06-26T13:09:18Z</time>
      </trkpt>
      <trkpt lat="42.92547" lon="0.7716">
        <ele>1310.41</ele>
        <time>2018-06-26T13:09:20Z</time>
      </trkpt>
      <trkpt lat="42.92535" lon="0.7714">
        <ele>1311.38</ele>
        <time>2018-06-26T13:09:36Z</time>
      </trkpt>
      <trkpt lat="42.92534" lon="0.77139">
        <ele>1311.38</ele>
        <time>2018-06-26T13:09:37Z</time>
      </trkpt>
      <trkpt lat="42.92533" lon="0.77134">
        <ele>1311.38</ele>
        <time>2018-06-26T13:09:40Z</time>
      </trkpt>
      <trkpt lat="42.92523" lon="0.77121">
        <ele>1312.34</ele>
        <time>2018-06-26T13:09:55Z</time>
      </trkpt>
      <trkpt lat="42.92507" lon="0.77111">
        <ele>1313.78</ele>
        <time>2018-06-26T13:10:11Z</time>
      </trkpt>
      <trkpt lat="42.92499" lon="0.77107">
        <ele>1313.78</ele>
        <time>2018-06-26T13:10:25Z</time>
      </trkpt>
      <trkpt lat="42.92492" lon="0.77104">
        <ele>1314.26</ele>
        <time>2018-06-26T13:10:39Z</time>
      </trkpt>
      <trkpt lat="42.92477" lon="0.77092">
        <ele>1315.22</ele>
        <time>2018-06-26T13:10:55Z</time>
      </trkpt>
      <trkpt lat="42.92468" lon="0.7709">
        <ele>1316.18</ele>
        <time>2018-06-26T13:11:08Z</time>
      </trkpt>
      <trkpt lat="42.92452" lon="0.77073">
        <ele>1316.66</ele>
        <time>2018-06-26T13:11:24Z</time>
      </trkpt>
      <trkpt lat="42.92441" lon="0.77066">
        <ele>1317.62</ele>
        <time>2018-06-26T13:11:38Z</time>
      </trkpt>
      <trkpt lat="42.92425" lon="0.77057">
        <ele>1318.59</ele>
        <time>2018-06-26T13:11:54Z</time>
      </trkpt>
      <trkpt lat="42.92414" lon="0.77051">
        <ele>1319.55</ele>
        <time>2018-06-26T13:12:07Z</time>
      </trkpt>
      <trkpt lat="42.92398" lon="0.77046">
        <ele>1320.51</ele>
        <time>2018-06-26T13:12:22Z</time>
      </trkpt>
      <trkpt lat="42.92381" lon="0.77043">
        <ele>1321.95</ele>
        <time>2018-06-26T13:12:39Z</time>
      </trkpt>
      <trkpt lat="42.92362" lon="0.77043">
        <ele>1322.91</ele>
        <time>2018-06-26T13:12:56Z</time>
      </trkpt>
      <trkpt lat="42.92343" lon="0.77047">
        <ele>1323.39</ele>
        <time>2018-06-26T13:13:12Z</time>
      </trkpt>
      <trkpt lat="42.92325" lon="0.77045">
        <ele>1323.87</ele>
        <time>2018-06-26T13:13:27Z</time>
      </trkpt>
      <trkpt lat="42.92313" lon="0.77036">
        <ele>1323.87</ele>
        <time>2018-06-26T13:13:38Z</time>
      </trkpt>
      <trkpt lat="42.92305" lon="0.77028">
        <ele>1323.87</ele>
        <time>2018-06-26T13:13:47Z</time>
      </trkpt>
      <trkpt lat="42.92288" lon="0.77013">
        <ele>1324.35</ele>
        <time>2018-06-26T13:14:04Z</time>
      </trkpt>
      <trkpt lat="42.92276" lon="0.76995">
        <ele>1324.83</ele>
        <time>2018-06-26T13:14:18Z</time>
      </trkpt>
      <trkpt lat="42.92272" lon="0.76989">
        <ele>1325.31</ele>
        <time>2018-06-26T13:14:23Z</time>
      </trkpt>
      <trkpt lat="42.92262" lon="0.76967">
        <ele>1326.28</ele>
        <time>2018-06-26T13:14:40Z</time>
      </trkpt>
      <trkpt lat="42.92252" lon="0.76943">
        <ele>1327.24</ele>
        <time>2018-06-26T13:14:57Z</time>
      </trkpt>
      <trkpt lat="42.92246" lon="0.76916">
        <ele>1327.24</ele>
        <time>2018-06-26T13:15:13Z</time>
      </trkpt>
      <trkpt lat="42.92238" lon="0.76887">
        <ele>1328.2</ele>
        <time>2018-06-26T13:15:31Z</time>
      </trkpt>
      <trkpt lat="42.92231" lon="0.76858">
        <ele>1329.16</ele>
        <time>2018-06-26T13:15:50Z</time>
      </trkpt>
      <trkpt lat="42.92225" lon="0.76834">
        <ele>1330.12</ele>
        <time>2018-06-26T13:16:07Z</time>
      </trkpt>
      <trkpt lat="42.92219" lon="0.76808">
        <ele>1331.08</ele>
        <time>2018-06-26T13:16:24Z</time>
      </trkpt>
      <trkpt lat="42.92215" lon="0.76783">
        <ele>1331.56</ele>
        <time>2018-06-26T13:16:40Z</time>
      </trkpt>
      <trkpt lat="42.9221" lon="0.76754">
        <ele>1332.52</ele>
        <time>2018-06-26T13:16:58Z</time>
      </trkpt>
      <trkpt lat="42.92208" lon="0.76725">
        <ele>1333.97</ele>
        <time>2018-06-26T13:17:16Z</time>
      </trkpt>
      <trkpt lat="42.92207" lon="0.767">
        <ele>1334.93</ele>
        <time>2018-06-26T13:17:32Z</time>
      </trkpt>
      <trkpt lat="42.92204" lon="0.76676">
        <ele>1335.89</ele>
        <time>2018-06-26T13:17:48Z</time>
      </trkpt>
      <trkpt lat="42.92203" lon="0.76648">
        <ele>1336.37</ele>
        <time>2018-06-26T13:18:03Z</time>
      </trkpt>
      <trkpt lat="42.92203" lon="0.76635">
        <ele>1336.85</ele>
        <time>2018-06-26T13:18:11Z</time>
      </trkpt>
      <trkpt lat="42.92202" lon="0.76617">
        <ele>1337.81</ele>
        <time>2018-06-26T13:18:24Z</time>
      </trkpt>
      <trkpt lat="42.92199" lon="0.76585">
        <ele>1339.25</ele>
        <time>2018-06-26T13:18:43Z</time>
      </trkpt>
      <trkpt lat="42.92194" lon="0.76561">
        <ele>1339.73</ele>
        <time>2018-06-26T13:18:59Z</time>
      </trkpt>
      <trkpt lat="42.92188" lon="0.76533">
        <ele>1340.7</ele>
        <time>2018-06-26T13:19:17Z</time>
      </trkpt>
      <trkpt lat="42.92182" lon="0.76511">
        <ele>1343.58</ele>
        <time>2018-06-26T13:19:34Z</time>
      </trkpt>
      <trkpt lat="42.92175" lon="0.76498">
        <ele>1341.66</ele>
        <time>2018-06-26T13:19:46Z</time>
      </trkpt>
      <trkpt lat="42.92157" lon="0.7648">
        <ele>1342.14</ele>
        <time>2018-06-26T13:20:04Z</time>
      </trkpt>
      <trkpt lat="42.92148" lon="0.76465">
        <ele>1342.62</ele>
        <time>2018-06-26T13:20:20Z</time>
      </trkpt>
      <trkpt lat="42.92145" lon="0.76461">
        <ele>1343.1</ele>
        <time>2018-06-26T13:20:38Z</time>
      </trkpt>
      <trkpt lat="42.92149" lon="0.7645">
        <ele>1343.1</ele>
        <time>2018-06-26T13:21:03Z</time>
      </trkpt>
      <trkpt lat="42.92155" lon="0.7646">
        <ele>1342.62</ele>
        <time>2018-06-26T13:21:21Z</time>
      </trkpt>
      <trkpt lat="42.92155" lon="0.7646">
        <ele>1343.1</ele>
        <time>2018-06-26T13:21:41Z</time>
      </trkpt>
      <trkpt lat="42.92155" lon="0.76458">
        <ele>1343.1</ele>
        <time>2018-06-26T13:22:01Z</time>
      </trkpt>
      <trkpt lat="42.92141" lon="0.76443">
        <ele>1343.58</ele>
        <time>2018-06-26T13:22:14Z</time>
      </trkpt>
      <trkpt lat="42.9213" lon="0.76424">
        <ele>1344.54</ele>
        <time>2018-06-26T13:22:31Z</time>
      </trkpt>
      <trkpt lat="42.92122" lon="0.76404">
        <ele>1345.02</ele>
        <time>2018-06-26T13:22:47Z</time>
      </trkpt>
      <trkpt lat="42.92116" lon="0.76386">
        <ele>1345.98</ele>
        <time>2018-06-26T13:23:01Z</time>
      </trkpt>
      <trkpt lat="42.92107" lon="0.76361">
        <ele>1346.94</ele>
        <time>2018-06-26T13:23:17Z</time>
      </trkpt>
      <trkpt lat="42.92101" lon="0.76337">
        <ele>1347.43</ele>
        <time>2018-06-26T13:23:32Z</time>
      </trkpt>
      <trkpt lat="42.92094" lon="0.76305">
        <ele>1348.87</ele>
        <time>2018-06-26T13:23:52Z</time>
      </trkpt>
      <trkpt lat="42.92085" lon="0.76281">
        <ele>1349.83</ele>
        <time>2018-06-26T13:24:08Z</time>
      </trkpt>
      <trkpt lat="42.9207" lon="0.76266">
        <ele>1350.31</ele>
        <time>2018-06-26T13:24:24Z</time>
      </trkpt>
      <trkpt lat="42.92061" lon="0.76257">
        <ele>1350.79</ele>
        <time>2018-06-26T13:24:39Z</time>
      </trkpt>
      <trkpt lat="42.92057" lon="0.76257">
        <ele>1350.79</ele>
        <time>2018-06-26T13:24:53Z</time>
      </trkpt>
      <trkpt lat="42.92053" lon="0.76256">
        <ele>1347.43</ele>
        <time>2018-06-26T13:24:56Z</time>
      </trkpt>
      <trkpt lat="42.92052" lon="0.76256">
        <ele>1351.27</ele>
        <time>2018-06-26T13:24:57Z</time>
      </trkpt>
      <trkpt lat="42.92048" lon="0.76255">
        <ele>1349.83</ele>
        <time>2018-06-26T13:25:01Z</time>
      </trkpt>
      <trkpt lat="42.92042" lon="0.76253">
        <ele>1345.5</ele>
        <time>2018-06-26T13:25:06Z</time>
      </trkpt>
      <trkpt lat="42.92041" lon="0.76252">
        <ele>1357.04</ele>
        <time>2018-06-26T13:25:07Z</time>
      </trkpt>
      <trkpt lat="42.92039" lon="0.76251">
        <ele>1351.27</ele>
        <time>2018-06-26T13:25:08Z</time>
      </trkpt>
      <trkpt lat="42.92022" lon="0.76237">
        <ele>1351.75</ele>
        <time>2018-06-26T13:25:26Z</time>
      </trkpt>
      <trkpt lat="42.9201" lon="0.76222">
        <ele>1352.23</ele>
        <time>2018-06-26T13:25:40Z</time>
      </trkpt>
      <trkpt lat="42.91995" lon="0.76201">
        <ele>1353.19</ele>
        <time>2018-06-26T13:25:58Z</time>
      </trkpt>
      <trkpt lat="42.91977" lon="0.76185">
        <ele>1354.15</ele>
        <time>2018-06-26T13:26:16Z</time>
      </trkpt>
      <trkpt lat="42.91965" lon="0.76179">
        <ele>1355.6</ele>
        <time>2018-06-26T13:26:27Z</time>
      </trkpt>
      <trkpt lat="42.91961" lon="0.76176">
        <ele>1355.6</ele>
        <time>2018-06-26T13:26:32Z</time>
      </trkpt>
      <trkpt lat="42.9195" lon="0.76173">
        <ele>1356.08</ele>
        <time>2018-06-26T13:26:46Z</time>
      </trkpt>
      <trkpt lat="42.91948" lon="0.7617">
        <ele>1356.08</ele>
        <time>2018-06-26T13:27:06Z</time>
      </trkpt>
      <trkpt lat="42.91947" lon="0.76171">
        <ele>1356.08</ele>
        <time>2018-06-26T13:27:16Z</time>
      </trkpt>
      <trkpt lat="42.9194" lon="0.76178">
        <ele>1355.6</ele>
        <time>2018-06-26T13:27:24Z</time>
      </trkpt>
      <trkpt lat="42.91922" lon="0.76185">
        <ele>1355.6</ele>
        <time>2018-06-26T13:27:39Z</time>
      </trkpt>
      <trkpt lat="42.91915" lon="0.76183">
        <ele>1355.12</ele>
        <time>2018-06-26T13:27:45Z</time>
      </trkpt>
      <trkpt lat="42.91905" lon="0.76182">
        <ele>1356.08</ele>
        <time>2018-06-26T13:27:54Z</time>
      </trkpt>
      <trkpt lat="42.91891" lon="0.76183">
        <ele>1356.08</ele>
        <time>2018-06-26T13:28:09Z</time>
      </trkpt>
      <trkpt lat="42.91895" lon="0.76182">
        <ele>1356.08</ele>
        <time>2018-06-26T13:28:25Z</time>
      </trkpt>
      <trkpt lat="42.91888" lon="0.76187">
        <ele>1356.08</ele>
        <time>2018-06-26T13:28:32Z</time>
      </trkpt>
    </trkseg>
  </trk>
</gpx>